Provisional Data: West Creek near Weber City, PA


Please select a monitoring station.
Please select start date.
Please select start date.

Toggle Unit: C/F Toggle Unit: C/F
Sample Time Temperature (C) Temperature (F) Specific Conductivity (mS/cm) pH   Turbidity (NTU+) DO (mg/L)
5/18/2024 12:00:00 AM 13.31 55.958 0.057 7.07 1.62 9.66
5/18/2024 12:15:00 AM 13.29 55.922 0.057 7.05 1.72 9.66
5/18/2024 12:30:00 AM 13.27 55.886 0.057 7.08 1.72 9.67
5/18/2024 12:45:00 AM 13.25 55.85 0.057 7.06 1.66 9.67
5/18/2024 1:00:00 AM 13.23 55.814 0.057 7.06 1.85 9.67
5/18/2024 1:15:00 AM 13.21 55.778 0.057 7.05 1.75 9.67
5/18/2024 1:30:00 AM 13.19 55.742 0.057 7.06 1.77 9.68
5/18/2024 1:45:00 AM 13.17 55.706 0.057 7.06 1.89 9.68
5/18/2024 2:00:00 AM 13.15 55.67 0.057 7.05 1.75 9.69
5/18/2024 2:15:00 AM 13.13 55.634 0.057 7.04 1.71 9.69
5/18/2024 2:30:00 AM 13.12 55.616 0.057 7 1.82 9.7
5/18/2024 2:45:00 AM 13.1 55.58 0.057 7.04 1.82 9.7
5/18/2024 3:00:00 AM 13.08 55.544 0.057 7.02 1.82 9.71
5/18/2024 3:15:00 AM 13.06 55.508 0.057 7.01 1.87 9.71
5/18/2024 3:30:00 AM 13.04 55.472 0.057 7.02 1.87 9.72
5/18/2024 3:45:00 AM 13.02 55.436 0.057 7.03 2.25 9.72
5/18/2024 4:00:00 AM 13 55.4 0.057 6.98 1.89 9.73
5/18/2024 4:15:00 AM 12.98 55.364 0.057 7 1.95 9.74
5/18/2024 4:30:00 AM 12.95 55.31 0.057 6.98 2.05 9.74
5/18/2024 4:45:00 AM 12.93 55.274 0.057 7.02 1.95 9.75
5/18/2024 5:00:00 AM 12.91 55.238 0.057 7.01 2.26 9.76
5/18/2024 5:15:00 AM 12.89 55.202 0.057 7 2.14 9.76
5/18/2024 5:30:00 AM 12.86 55.148 0.057 7.01 2.17 9.77
5/18/2024 5:45:00 AM 12.84 55.112 0.057 6.97 2.18 9.78
5/18/2024 6:00:00 AM 12.82 55.076 0.057 6.97 2.34 9.79
5/18/2024 6:15:00 AM 12.8 55.04 0.057 6.99 2.27 9.8
5/18/2024 6:30:00 AM 12.78 55.004 0.057 7 2.09 9.82
5/18/2024 6:45:00 AM 12.77 54.986 0.057 6.97 2.21 9.85
5/18/2024 7:00:00 AM 12.76 54.968 0.057 7.01 2.13 9.9
5/18/2024 7:15:00 AM 12.75 54.95 0.057 7.01 1.94 9.93
5/18/2024 7:30:00 AM 12.74 54.932 0.057 7.02 1.93 9.96
5/18/2024 7:45:00 AM 12.73 54.914 0.057 7.02 2.01 9.99
5/18/2024 8:00:00 AM 12.72 54.896 0.057 7.03 2.11 10.01
5/18/2024 8:15:00 AM 12.73 54.914 0.057 7.04 1.9 10.08
5/18/2024 8:30:00 AM 12.74 54.932 0.057 7.06 1.9 10.18
5/18/2024 8:45:00 AM 12.76 54.968 0.057 7.1 1.82 10.26
5/18/2024 9:00:00 AM 12.78 55.004 0.057 7.12 1.69 10.34
5/18/2024 9:15:00 AM 12.8 55.04 0.057 7.13 1.72 10.4
5/18/2024 9:30:00 AM 12.8 55.04 0.057 7.14 1.78 10.39
5/18/2024 9:45:00 AM 12.82 55.076 0.057 7.15 1.65 10.45
5/18/2024 10:00:00 AM 12.87 55.166 0.057 7.18 2.13 10.54
5/18/2024 10:15:00 AM 12.9 55.22 0.057 7.23 1.72 10.55
5/18/2024 10:30:00 AM 12.91 55.238 0.057 7.24 1.84 10.55
5/18/2024 10:45:00 AM 12.95 55.31 0.057 7.29 2.04 10.58
5/18/2024 11:00:00 AM 13.01 55.418 0.057 7.32 1.73 10.65
5/18/2024 11:15:00 AM 13.06 55.508 0.057 7.36 1.67 10.68
5/18/2024 11:30:00 AM 13.12 55.616 0.057 7.36 1.65 10.72
5/18/2024 11:45:00 AM 13.25 55.85 0.057 7.4 1.64 10.78
5/18/2024 12:00:00 PM 13.35 56.03 0.057 7.43 1.61 10.8
5/18/2024 12:15:00 PM 13.55 56.39 0.057 7.5 1.64 10.81
5/18/2024 12:30:00 PM 13.71 56.678 0.057 7.51 1.68 10.8
5/18/2024 12:45:00 PM 13.73 56.714 0.057 7.51 1.66 10.76
5/18/2024 1:00:00 PM 13.76 56.768 0.057 7.52 1.76 10.73
5/18/2024 1:15:00 PM 13.7 56.66 0.057 7.49 1.64 10.6
5/18/2024 1:30:00 PM 13.69 56.642 0.057 7.41 1.69 10.49
5/18/2024 1:45:00 PM 13.8 56.84 0.056 7.41 2.89 10.49
5/18/2024 2:00:00 PM 13.88 56.984 0.057 7.46 10.1 10.53
5/18/2024 2:15:00 PM 14.04 57.272 0.057 7.48 5.55 10.62
5/18/2024 2:30:00 PM 14.27 57.686 0.057 7.58 3.45 10.68
5/18/2024 2:45:00 PM 14.47 58.046 0.058 7.6 2.83 10.68
5/18/2024 3:00:00 PM 14.68 58.424 0.058 7.65 2.47 10.65
5/18/2024 3:15:00 PM 14.92 58.856 0.058 7.66 2.27 10.6
5/18/2024 3:30:00 PM 15.23 59.414 0.058 7.69 2.28 10.56
5/18/2024 3:45:00 PM 15.52 59.936 0.058 7.69 2.3 10.5
5/18/2024 4:00:00 PM 15.71 60.278 0.058 7.71 2.13 10.46
5/18/2024 4:15:00 PM 15.81 60.458 0.059 7.71 2.05 10.42
5/18/2024 4:30:00 PM 15.92 60.656 0.059 7.71 1.91 10.4
5/18/2024 4:45:00 PM 15.91 60.638 0.059 7.69 1.87 10.35
5/18/2024 5:00:00 PM 15.76 60.368 0.059 7.68 1.84 10.32
5/18/2024 5:15:00 PM 15.75 60.35 0.059 7.66 1.82 10.28
5/18/2024 5:30:00 PM 15.73 60.314 0.059 7.64 1.83 10.22
5/18/2024 5:45:00 PM 15.7 60.26 0.059 7.63 1.89 10.2
5/18/2024 6:00:00 PM 15.67 60.206 0.06 7.61 1.8 10.16
5/18/2024 6:15:00 PM 15.61 60.098 0.06 7.57 1.83 10.11
5/18/2024 6:30:00 PM 15.53 59.954 0.06 7.54 1.86 10.06
5/18/2024 6:45:00 PM 15.48 59.864 0.06 7.49 1.73 10
5/18/2024 7:00:00 PM 15.48 59.864 0.06 7.45 1.79 9.94
5/18/2024 7:15:00 PM 15.52 59.936 0.06 7.41 1.65 9.85
5/18/2024 7:30:00 PM 15.57 60.026 0.06 7.38 1.76 9.76
5/18/2024 7:45:00 PM 15.62 60.116 0.06 7.36 1.7 9.65
5/18/2024 8:00:00 PM 15.64 60.152 0.06 7.3 1.78 9.55
5/18/2024 8:15:00 PM 15.65 60.17 0.06 7.24 1.61 9.46
5/18/2024 8:30:00 PM 15.63 60.134 0.06 7.2 1.88 9.39
5/18/2024 8:45:00 PM 15.6 60.08 0.061 7.18 1.79 9.34
5/18/2024 9:00:00 PM 15.54 59.972 0.061 7.2 1.81 9.29
5/18/2024 9:15:00 PM 15.48 59.864 0.061 7.16 1.81 9.27
5/18/2024 9:30:00 PM 15.42 59.756 0.061 7.19 2.03 9.25
5/18/2024 9:45:00 PM 15.37 59.666 0.061 7.11 2.02 9.24
5/18/2024 10:00:00 PM 15.31 59.558 0.061 7.17 1.89 9.23
5/18/2024 10:15:00 PM 15.27 59.486 0.061 7.14 2 9.23
5/18/2024 10:30:00 PM 15.22 59.396 0.061 7.11 2.08 9.23
5/18/2024 10:45:00 PM 15.18 59.324 0.061 7.12 1.94 9.23
5/18/2024 11:00:00 PM 15.13 59.234 0.061 7.13 1.9 9.23
5/18/2024 11:15:00 PM 15.09 59.162 0.061 7.08 1.79 9.23
5/18/2024 11:30:00 PM 15.05 59.09 0.061 7.06 1.86 9.24
5/18/2024 11:45:00 PM 15.01 59.018 0.061 7.09 1.8 9.25
5/19/2024 12:00:00 AM 14.96 58.928 0.061 7.1 1.85 9.26
5/19/2024 12:15:00 AM 14.92 58.856 0.061 7.11 1.87 9.27
5/19/2024 12:30:00 AM 14.86 58.748 0.061 7.1 1.72 9.28
5/19/2024 12:45:00 AM 14.81 58.658 0.061 7.11 1.94 9.29
5/19/2024 1:00:00 AM 14.75 58.55 0.061 7.09 1.93 9.31
5/19/2024 1:15:00 AM 14.7 58.46 0.061 7.08 1.77 9.33
5/19/2024 1:30:00 AM 14.64 58.352 0.061 7.08 1.85 9.34
5/19/2024 1:45:00 AM 14.59 58.262 0.061 7.08 1.84 9.35
5/19/2024 2:00:00 AM 14.53 58.154 0.061 7.08 1.8 9.36
5/19/2024 2:15:00 AM 14.48 58.064 0.061 7.08 1.8 9.38
5/19/2024 2:30:00 AM 14.43 57.974 0.061 7.07 2.1 9.38
5/19/2024 2:45:00 AM 14.38 57.884 0.061 7.06 1.76 9.4
5/19/2024 3:00:00 AM 14.34 57.812 0.061 7.06 1.78 9.41
5/19/2024 3:15:00 AM 14.29 57.722 0.061 7.05 1.88 9.42
5/19/2024 3:30:00 AM 14.24 57.632 0.061 7.04 1.76 9.43
5/19/2024 3:45:00 AM 14.19 57.542 0.061 7.07 1.78 9.44
5/19/2024 4:00:00 AM 14.15 57.47 0.061 7.01 1.61 9.45
5/19/2024 4:15:00 AM 14.11 57.398 0.061 7.04 1.77 9.46
5/19/2024 4:30:00 AM 14.08 57.344 0.061 7.08 1.8 9.47
5/19/2024 4:45:00 AM 14.05 57.29 0.061 7.08 1.83 9.48
5/19/2024 5:00:00 AM 14.01 57.218 0.061 7.04 1.56 9.49
5/19/2024 5:15:00 AM 13.98 57.164 0.061 7.08 1.73 9.5
5/19/2024 5:30:00 AM 13.96 57.128 0.061 7.07 1.84 9.51
5/19/2024 5:45:00 AM 13.93 57.074 0.061 7.07 1.95 9.52
5/19/2024 6:00:00 AM 13.9 57.02 0.061 7.06 1.71 9.54
5/19/2024 6:15:00 AM 13.88 56.984 0.061 7 1.7 9.56
5/19/2024 6:30:00 AM 13.86 56.948 0.061 7.09 1.61 9.59
5/19/2024 6:45:00 AM 13.84 56.912 0.061 7.09 1.48 9.63
5/19/2024 7:00:00 AM 13.82 56.876 0.061 7.08 1.47 9.69
5/19/2024 7:15:00 AM 13.8 56.84 0.061 7.12 1.58 9.74
5/19/2024 7:30:00 AM 13.79 56.822 0.061 7.06 1.57 9.79
5/19/2024 7:45:00 AM 13.78 56.804 0.061 7.14 1.45 9.85
5/19/2024 8:00:00 AM 13.77 56.786 0.061 7.1 1.46 9.9
5/19/2024 8:15:00 AM 13.76 56.768 0.061 7.17 1.45 9.94
5/19/2024 8:30:00 AM 13.76 56.768 0.061 7.14 1.35 10.01
5/19/2024 8:45:00 AM 13.77 56.786 0.061 7.22 1.29 10.09
5/19/2024 9:00:00 AM 13.78 56.804 0.06 7.24 1.44 10.15
5/19/2024 9:15:00 AM 13.79 56.822 0.06 7.26 1.32 10.2
5/19/2024 9:30:00 AM 13.81 56.858 0.06 7.29 1.19 10.26
5/19/2024 9:45:00 AM 13.84 56.912 0.06 7.27 1.24 10.34
5/19/2024 10:00:00 AM 13.87 56.966 0.06 7.35 1.22 10.41
5/19/2024 10:15:00 AM 13.9 57.02 0.06 7.37 1.38 10.44
5/19/2024 10:30:00 AM 13.92 57.056 0.06 7.4 1.32 10.48
5/19/2024 10:45:00 AM 13.95 57.11 0.06 7.45 1.18 10.51
5/19/2024 11:00:00 AM 13.97 57.146 0.06 7.44 1.23 10.51
5/19/2024 11:15:00 AM 14 57.2 0.06 7.46 1.2 10.55
5/19/2024 11:30:00 AM 14.05 57.29 0.06 7.52 2.49 10.58
5/19/2024 11:45:00 AM 14.08 57.344 0.06 7.54 1.18 10.6
5/19/2024 12:00:00 PM 14.12 57.416 0.06 7.57 1.2 10.63
5/19/2024 12:15:00 PM 14.16 57.488 0.06 7.59 1.33 10.64
5/19/2024 12:30:00 PM 14.19 57.542 0.06 7.58 1.26 10.62
5/19/2024 12:45:00 PM 14.22 57.596 0.06 7.6 1.36 10.62
5/19/2024 1:00:00 PM 14.27 57.686 0.059 7.57 1.17 10.63
5/19/2024 1:15:00 PM 14.34 57.812 0.059 7.62 1.23 10.65
5/19/2024 1:30:00 PM 14.41 57.938 0.059 7.69 1.33 10.67
5/19/2024 1:45:00 PM 14.48 58.064 0.059 7.73 1.26 10.68
5/19/2024 2:00:00 PM 14.54 58.172 0.059 7.73 1.14 10.68
5/19/2024 2:15:00 PM 14.59 58.262 0.059 7.76 1.18 10.66
5/19/2024 2:30:00 PM 14.65 58.37 0.059 7.78 1.11 10.65
5/19/2024 2:45:00 PM 14.71 58.478 0.06 7.75 1.05 10.64
5/19/2024 3:00:00 PM 14.88 58.784 0.059 7.83 1.11 10.65
5/19/2024 3:15:00 PM 15.05 59.09 0.059 7.82 1.2 10.64
5/19/2024 3:30:00 PM 15.21 59.378 0.06 7.82 1.04 10.58
5/19/2024 3:45:00 PM 15.39 59.702 0.06 7.83 1.18 10.55
5/19/2024 4:00:00 PM 15.53 59.954 0.06 7.8 1.18 10.5
5/19/2024 4:15:00 PM 15.69 60.242 0.059 7.8 1.08 10.45
5/19/2024 4:30:00 PM 15.84 60.512 0.059 7.78 1.1 10.4
5/19/2024 4:45:00 PM 15.96 60.728 0.059 7.77 1.09 10.34
5/19/2024 5:00:00 PM 16.06 60.908 0.059 7.7 1.09 10.29
5/19/2024 5:15:00 PM 16.14 61.052 0.059 7.73 1.1 10.25
5/19/2024 5:30:00 PM 16.19 61.142 0.059 7.69 1.19 10.19
5/19/2024 5:45:00 PM 16.23 61.214 0.059 7.64 1 10.13
5/19/2024 6:00:00 PM 16.24 61.232 0.059 7.63 1.12 10.07
5/19/2024 6:15:00 PM 16.24 61.232 0.059 7.55 1.1 10.01
5/19/2024 6:30:00 PM 16.22 61.196 0.059 7.55 1.14 9.94
5/19/2024 6:45:00 PM 16.18 61.124 0.059 7.5 1.01 9.88
5/19/2024 7:00:00 PM 16.14 61.052 0.059 7.47 1.17 9.81
5/19/2024 7:15:00 PM 16.09 60.962 0.059 7.43 1.14 9.74
5/19/2024 7:30:00 PM 16.03 60.854 0.059 7.35 1.26 9.67
5/19/2024 7:45:00 PM 15.96 60.728 0.059 7.3 1.16 9.59
5/19/2024 8:00:00 PM 15.9 60.62 0.059 7.28 1.21 9.52
5/19/2024 8:15:00 PM 15.83 60.494 0.059 7.25 1.18 9.45
5/19/2024 8:30:00 PM 15.78 60.404 0.059 7.22 1.28 9.38
5/19/2024 8:45:00 PM 15.73 60.314 0.059 7.19 1.29 9.32
5/19/2024 9:00:00 PM 15.69 60.242 0.06 7.18 1.22 9.28
5/19/2024 9:15:00 PM 15.65 60.17 0.059 7.15 1.2 9.25
5/19/2024 9:30:00 PM 15.61 60.098 0.059 7.13 1.39 9.23
5/19/2024 9:45:00 PM 15.57 60.026 0.059 7.12 1.41 9.21
5/19/2024 10:00:00 PM 15.52 59.936 0.059 7.11 1.48 9.21
5/19/2024 10:15:00 PM 15.48 59.864 0.059 7.1 1.49 9.2
5/19/2024 10:30:00 PM 15.43 59.774 0.059 7.04 1.31 9.2
5/19/2024 10:45:00 PM 15.38 59.684 0.059 7.09 1.36 9.2
5/19/2024 11:00:00 PM 15.33 59.594 0.059 7.1 1.42 9.2
5/19/2024 11:15:00 PM 15.28 59.504 0.059 7.08 1.61 9.21
5/19/2024 11:30:00 PM 15.23 59.414 0.059 7.05 1.41 9.21
5/19/2024 11:45:00 PM 15.18 59.324 0.059 7.08 1.37 9.22
5/20/2024 12:00:00 AM 15.13 59.234 0.059 7.01 1.32 9.23
5/20/2024 12:15:00 AM 15.09 59.162 0.059 7.04 1.32 9.23
5/20/2024 12:30:00 AM 15.05 59.09 0.059 7.07 1.37 9.24
5/20/2024 12:45:00 AM 15.01 59.018 0.059 7.01 1.32 9.25
5/20/2024 1:00:00 AM 14.97 58.946 0.059 7.02 1.44 9.26
5/20/2024 1:15:00 AM 14.92 58.856 0.059 7.07 1.41 9.27
5/20/2024 1:30:00 AM 14.88 58.784 0.059 7.09 1.33 9.28
5/20/2024 1:45:00 AM 14.85 58.73 0.059 7.07 1.37 9.3
5/20/2024 2:00:00 AM 14.81 58.658 0.059 7.08 1.4 9.3
5/20/2024 2:15:00 AM 14.78 58.604 0.059 7 1.38 9.31
5/20/2024 2:30:00 AM 14.74 58.532 0.059 7.02 1.41 9.32
5/20/2024 2:45:00 AM 14.71 58.478 0.059 7.07 1.4 9.33
5/20/2024 3:00:00 AM 14.68 58.424 0.059 7 1.41 9.34
5/20/2024 3:15:00 AM 14.65 58.37 0.059 7.07 1.32 9.34
5/20/2024 3:30:00 AM 14.62 58.316 0.059 7 1.34 9.35
5/20/2024 3:45:00 AM 14.59 58.262 0.059 7.08 1.42 9.36
5/20/2024 4:00:00 AM 14.56 58.208 0.059 7.08 1.57 9.37
5/20/2024 4:15:00 AM 14.54 58.172 0.059 6.99 1.52 9.38
5/20/2024 4:30:00 AM 14.51 58.118 0.059 7 1.45 9.38
5/20/2024 4:45:00 AM 14.48 58.064 0.059 7.02 1.5 9.39
5/20/2024 5:00:00 AM 14.45 58.01 0.059 7.07 1.62 9.4
5/20/2024 5:15:00 AM 14.42 57.956 0.059 7.02 1.48 9.4
5/20/2024 5:30:00 AM 14.39 57.902 0.06 7.09 1.42 9.41
5/20/2024 5:45:00 AM 14.36 57.848 0.06 7.06 1.45 9.42
5/20/2024 6:00:00 AM 14.32 57.776 0.06 7.09 1.47 9.44
5/20/2024 6:15:00 AM 14.29 57.722 0.06 7.02 1.43 9.46
5/20/2024 6:30:00 AM 14.26 57.668 0.06 7.08 1.25 9.49
5/20/2024 6:45:00 AM 14.23 57.614 0.06 7.03 1.28 9.55
5/20/2024 7:00:00 AM 14.2 57.56 0.06 7.12 1.21 9.61
5/20/2024 7:15:00 AM 14.18 57.524 0.06 7.13 1.2 9.68
5/20/2024 7:30:00 AM 14.16 57.488 0.06 7.12 1.17 9.76
5/20/2024 7:45:00 AM 14.14 57.452 0.06 7.14 1.2 9.84
5/20/2024 8:00:00 AM 14.13 57.434 0.06 7.18 1.13 9.9
5/20/2024 8:15:00 AM 14.12 57.416 0.06 7.2 1.18 10
5/20/2024 8:30:00 AM 14.12 57.416 0.059 7.25 1.25 10.1
5/20/2024 8:45:00 AM 14.14 57.452 0.059 7.28 1.24 10.2
5/20/2024 9:00:00 AM 14.16 57.488 0.059 7.29 1.2 10.28
5/20/2024 9:15:00 AM 14.22 57.596 0.059 7.35 1.31 10.36
5/20/2024 9:30:00 AM 14.3 57.74 0.059 7.37 1.18 10.4
5/20/2024 9:45:00 AM 14.36 57.848 0.059 7.33 1.23 10.42
5/20/2024 10:00:00 AM 14.49 58.082 0.059 7.42 0.99 10.44
5/20/2024 10:15:00 AM 14.58 58.244 0.059 7.42 1.14 10.47
5/20/2024 10:30:00 AM 14.69 58.442 0.059 7.47 1.07 10.49
5/20/2024 10:45:00 AM 14.8 58.64 0.059 7.48 0.93 10.48
5/20/2024 11:00:00 AM 14.95 58.91 0.059 7.5 1.03 10.48
5/20/2024 11:15:00 AM 15.09 59.162 0.059 7.52 0.98 10.49
5/20/2024 11:30:00 AM 15.24 59.432 0.059 7.54 1.02 10.49
5/20/2024 11:45:00 AM 15.4 59.72 0.059 7.59 0.95 10.5
5/20/2024 12:00:00 PM 15.52 59.936 0.059 7.61 0.96 10.49
5/20/2024 12:15:00 PM 15.71 60.278 0.059 7.64 1.04 10.47
5/20/2024 12:30:00 PM 15.9 60.62 0.058 7.66 1.05 10.44
5/20/2024 12:45:00 PM 16.09 60.962 0.058 7.68 1.01 10.41
5/20/2024 1:00:00 PM 16.27 61.286 0.058 7.68 0.97 10.38
5/20/2024 1:15:00 PM 16.46 61.628 0.058 7.71 0.85 10.34
5/20/2024 1:30:00 PM 16.69 62.042 0.058 7.72 0.99 10.3
5/20/2024 1:45:00 PM 16.93 62.474 0.058 7.73 1 10.26
5/20/2024 2:00:00 PM 17.16 62.888 0.058 7.75 0.99 10.22
5/20/2024 2:15:00 PM 17.38 63.284 0.058 7.77 0.91 10.18
5/20/2024 2:30:00 PM 17.59 63.662 0.058 7.78 0.96 10.13
5/20/2024 2:45:00 PM 17.79 64.022 0.058 7.8 0.88 10.09
5/20/2024 3:00:00 PM 17.96 64.328 0.057 7.82 0.99 10.05
5/20/2024 3:15:00 PM 18.15 64.67 0.057 7.8 0.86 10
5/20/2024 3:30:00 PM 18.34 65.012 0.057 7.83 1 9.95
5/20/2024 3:45:00 PM 18.49 65.282 0.057 7.81 0.89 9.91
5/20/2024 4:00:00 PM 18.63 65.534 0.057 7.82 0.89 9.86
5/20/2024 4:15:00 PM 18.76 65.768 0.057 7.82 0.86 9.81
5/20/2024 4:30:00 PM 18.9 66.02 0.057 7.82 0.96 9.76
5/20/2024 4:45:00 PM 19.03 66.254 0.057 7.79 0.88 9.7
5/20/2024 5:00:00 PM 19.06 66.308 0.057 7.71 0.8 9.6
5/20/2024 5:15:00 PM 19.02 66.236 0.057 7.62 0.91 9.47
5/20/2024 5:30:00 PM 18.96 66.128 0.057 7.54 0.83 9.38
5/20/2024 5:45:00 PM 18.95 66.11 0.057 7.55 0.87 9.38
5/20/2024 6:00:00 PM 18.88 65.984 0.058 7.49 0.93 9.35
5/20/2024 6:15:00 PM 18.83 65.894 0.057 7.48 0.89 9.34
5/20/2024 6:30:00 PM 18.83 65.894 0.057 7.47 0.92 9.3
5/20/2024 6:45:00 PM 18.84 65.912 0.057 7.44 0.86 9.25
5/20/2024 7:00:00 PM 18.8 65.84 0.057 7.38 0.86 9.19
5/20/2024 7:15:00 PM 18.72 65.696 0.058 7.34 0.9 9.13
5/20/2024 7:30:00 PM 18.63 65.534 0.057 7.32 0.93 9.07
5/20/2024 7:45:00 PM 18.55 65.39 0.058 7.25 0.87 9.01
5/20/2024 8:00:00 PM 18.47 65.246 0.058 7.22 1.01 8.93
5/20/2024 8:15:00 PM 18.39 65.102 0.058 7.19 0.88 8.86
5/20/2024 8:30:00 PM 18.3 64.94 0.058 7.15 0.98 8.8
5/20/2024 8:45:00 PM 18.2 64.76 0.058 7.13 1.02 8.74
5/20/2024 9:00:00 PM 18.1 64.58 0.058 7.13 1.43 8.71
5/20/2024 9:15:00 PM 18.02 64.436 0.058 7.1 1.24 8.69
5/20/2024 9:30:00 PM 17.94 64.292 0.058 7.05 1.45 8.68
5/20/2024 9:45:00 PM 17.86 64.148 0.058 7.04 1.27 8.67
5/20/2024 10:00:00 PM 17.78 64.004 0.059 7.05 1.36 8.66
5/20/2024 10:15:00 PM 17.71 63.878 0.059 7.05 1.25 8.67
5/20/2024 10:30:00 PM 17.63 63.734 0.059 7.02 1.27 8.67
5/20/2024 10:45:00 PM 17.56 63.608 0.059 7.03 1.15 8.67
5/20/2024 11:00:00 PM 17.49 63.482 0.059 7.01 1.66 8.68
5/20/2024 11:15:00 PM 17.43 63.374 0.059 7.01 1.22 8.69
5/20/2024 11:30:00 PM 17.37 63.266 0.059 7.03 1.27 8.7
5/20/2024 11:45:00 PM 17.32 63.176 0.059 7.03 1.37 8.7
5/21/2024 12:00:00 AM 17.27 63.086 0.059 7.01 1.43 8.71
5/21/2024 12:15:00 AM 17.21 62.978 0.059 7.03 1.35 8.72
5/21/2024 12:30:00 AM 17.15 62.87 0.059 7.01 1.33 8.74
5/21/2024 12:45:00 AM 17.07 62.726 0.059 6.98 1.31 8.75
5/21/2024 1:00:00 AM 16.99 62.582 0.059 7.01 1.24 8.77
5/21/2024 1:15:00 AM 16.91 62.438 0.059 7.02 1.33 8.79
5/21/2024 1:30:00 AM 16.83 62.294 0.059 7.01 1.25 8.8
5/21/2024 1:45:00 AM 16.75 62.15 0.059 7 1.36 8.82
5/21/2024 2:00:00 AM 16.67 62.006 0.059 6.99 1.34 8.84
5/21/2024 2:15:00 AM 16.59 61.862 0.059 7.01 1.3 8.85
5/21/2024 2:30:00 AM 16.52 61.736 0.059 7 1.4 8.87
5/21/2024 2:45:00 AM 16.45 61.61 0.059 6.98 1.41 8.89
5/21/2024 3:00:00 AM 16.39 61.502 0.059 7.01 1.37 8.91
5/21/2024 3:15:00 AM 16.32 61.376 0.059 7.01 1.39 8.93
5/21/2024 3:30:00 AM 16.26 61.268 0.059 7.04 1.5 8.94
5/21/2024 3:45:00 AM 16.2 61.16 0.059 7.03 1.3 8.96
5/21/2024 4:00:00 AM 16.14 61.052 0.059 7.02 1.39 8.97
5/21/2024 4:15:00 AM 16.09 60.962 0.059 7.04 1.37 8.99
5/21/2024 4:30:00 AM 16.04 60.872 0.059 7.03 1.26 9
5/21/2024 4:45:00 AM 16 60.8 0.059 7.02 1.42 9.02
5/21/2024 5:00:00 AM 15.95 60.71 0.059 7.02 1.38 9.03
5/21/2024 5:15:00 AM 15.91 60.638 0.059 7.03 1.54 9.04
5/21/2024 5:30:00 AM 15.87 60.566 0.059 7.03 1.42 9.05
5/21/2024 5:45:00 AM 15.83 60.494 0.059 7.02 1.41 9.06
5/21/2024 6:00:00 AM 15.8 60.44 0.059 7.02 1.5 9.08
5/21/2024 6:15:00 AM 15.77 60.386 0.059 7.02 1.42 9.1
5/21/2024 6:30:00 AM 15.75 60.35 0.059 7.04 1.3 9.14
5/21/2024 6:45:00 AM 15.73 60.314 0.059 7.05 1.57 9.19
5/21/2024 7:00:00 AM 15.71 60.278 0.059 7.07 1.29 9.25
5/21/2024 7:15:00 AM 15.69 60.242 0.059 7.08 1.18 9.3
5/21/2024 7:30:00 AM 15.67 60.206 0.059 7.11 1.3 9.37
5/21/2024 7:45:00 AM 15.66 60.188 0.059 7.09 1.12 9.47
5/21/2024 8:00:00 AM 15.67 60.206 0.059 7.17 1.13 9.58
5/21/2024 8:15:00 AM 15.67 60.206 0.059 7.16 1.05 9.67
5/21/2024 8:30:00 AM 15.68 60.224 0.059 7.22 1.12 9.75
5/21/2024 8:45:00 AM 15.7 60.26 0.059 7.22 1.03 9.83
5/21/2024 9:00:00 AM 15.72 60.296 0.059 7.24 1.14 9.89
5/21/2024 9:15:00 AM 15.72 60.296 0.058 7.28 1.02 9.92
5/21/2024 9:30:00 AM 15.8 60.44 0.058 7.32 1.18 9.98
5/21/2024 9:45:00 AM 15.84 60.512 0.058 7.31 1.12 10.01
5/21/2024 10:00:00 AM 15.96 60.728 0.058 7.33 1.12 10.03
5/21/2024 10:15:00 AM 16.04 60.872 0.058 7.38 1.09 10.05
5/21/2024 10:30:00 AM 16.19 61.142 0.058 7.39 0.99 10.08
5/21/2024 10:45:00 AM 16.35 61.43 0.058 7.41 0.98 10.1
5/21/2024 11:00:00 AM 16.56 61.808 0.058 7.48 0.92 10.12
5/21/2024 11:15:00 AM 16.68 62.024 0.058 7.48 1.04 10.12
5/21/2024 11:30:00 AM 16.82 62.276 0.058 7.51 1.11 10.1
5/21/2024 11:45:00 AM 17 62.6 0.058 7.51 1.2 10.06
5/21/2024 12:00:00 PM 17.18 62.924 0.058 7.55 1.16 10.02
5/21/2024 12:15:00 PM 17.36 63.248 0.057 7.6 1.04 10
5/21/2024 12:30:00 PM 17.56 63.608 0.058 7.58 0.98 9.96
5/21/2024 12:45:00 PM 17.76 63.968 0.057 7.6 1.06 9.96
5/21/2024 1:00:00 PM 17.84 64.112 0.057 7.6 0.99 9.9
5/21/2024 1:15:00 PM 18.07 64.526 0.057 7.61 1.01 9.88
5/21/2024 1:30:00 PM 18.33 64.994 0.057 7.61 1.1 9.85
5/21/2024 1:45:00 PM 18.27 64.886 0.057 7.59 1.11 9.76
5/21/2024 2:00:00 PM 18.65 65.57 0.057 7.63 1.04 9.78
5/21/2024 2:15:00 PM 18.82 65.876 0.056 7.65 1 9.72
5/21/2024 2:30:00 PM 19.02 66.236 0.057 7.63 0.98 9.67
5/21/2024 2:45:00 PM 19.04 66.272 0.056 7.58 1.03 9.58
5/21/2024 3:00:00 PM 19.25 66.65 0.056 7.6 1.03 9.57
5/21/2024 3:15:00 PM 19.39 66.902 0.056 7.61 0.92 9.51
5/21/2024 3:30:00 PM 19.62 67.316 0.056 7.61 0.81 9.49
5/21/2024 3:45:00 PM 19.87 67.766 0.056 7.65 0.94 9.47
5/21/2024 4:00:00 PM 20.01 68.018 0.056 7.65 0.81 9.4
5/21/2024 4:15:00 PM 20.24 68.432 0.056 7.64 1.04 9.37
5/21/2024 4:30:00 PM 20.4 68.72 0.056 7.65 0.85 9.31
5/21/2024 4:45:00 PM 20.44 68.792 0.056 7.6 0.93 9.19
5/21/2024 5:00:00 PM 20.53 68.954 0.056 7.61 0.81 9.17
5/21/2024 5:15:00 PM 20.53 68.954 0.057 7.55 0.85 9.08
5/21/2024 5:30:00 PM 20.55 68.99 0.057 7.54 0.8 9.07
5/21/2024 5:45:00 PM 20.54 68.972 0.057 7.52 0.88 9.04
5/21/2024 6:00:00 PM 20.52 68.936 0.057 7.51 0.95 9
5/21/2024 6:15:00 PM 20.48 68.864 0.057 7.46 1.07 8.94
5/21/2024 6:30:00 PM 20.45 68.81 0.057 7.43 0.98 8.88
5/21/2024 6:45:00 PM 20.4 68.72 0.057 7.39 0.99 8.82
5/21/2024 7:00:00 PM 20.32 68.576 0.057 7.33 1.01 8.76
5/21/2024 7:15:00 PM 20.21 68.378 0.057 7.3 0.92 8.7
5/21/2024 7:30:00 PM 20.09 68.162 0.057 7.29 0.97 8.65
5/21/2024 7:45:00 PM 19.98 67.964 0.057 7.25 1 8.59
5/21/2024 8:00:00 PM 19.85 67.73 0.058 7.19 0.87 8.54
5/21/2024 8:15:00 PM 19.73 67.514 0.058 7.18 0.99 8.49
5/21/2024 8:30:00 PM 19.6 67.28 0.058 7.14 1.16 8.45
5/21/2024 8:45:00 PM 19.48 67.064 0.058 7.09 1.03 8.41
5/21/2024 9:00:00 PM 19.37 66.866 0.058 7.1 1.16 8.38
5/21/2024 9:15:00 PM 19.26 66.668 0.058 7.07 1.09 8.37
5/21/2024 9:30:00 PM 19.16 66.488 0.058 7.08 1.13 8.36
5/21/2024 9:45:00 PM 19.05 66.29 0.058 7.09 1.32 8.36
5/21/2024 10:00:00 PM 18.95 66.11 0.058 7.07 1.33 8.36
5/21/2024 10:15:00 PM 18.86 65.948 0.058 7.04 1.47 8.37
5/21/2024 10:30:00 PM 18.76 65.768 0.059 7.06 1.42 8.38
5/21/2024 10:45:00 PM 18.67 65.606 0.059 7.05 1.28 8.39
5/21/2024 11:00:00 PM 18.58 65.444 0.059 7.02 1.52 8.4
5/21/2024 11:15:00 PM 18.49 65.282 0.059 7.05 1.47 8.42
5/21/2024 11:30:00 PM 18.41 65.138 0.059 7.06 1.27 8.42
5/21/2024 11:45:00 PM 18.33 64.994 0.059 7.07 1.42 8.45
5/22/2024 12:00:00 AM 18.24 64.832 0.059 7.06 1.26 8.46
5/22/2024 12:15:00 AM 18.16 64.688 0.059 7.07 1.37 8.48
5/22/2024 12:30:00 AM 18.08 64.544 0.059 7.06 1.36 8.49
5/22/2024 12:45:00 AM 18 64.4 0.059 7.06 1.48 8.51
5/22/2024 1:00:00 AM 17.93 64.274 0.059 7.01 1.19 8.52
5/22/2024 1:15:00 AM 17.85 64.13 0.059 7.07 1.33 8.54
5/22/2024 1:30:00 AM 17.77 63.986 0.059 7.01 1.33 8.56
5/22/2024 1:45:00 AM 17.69 63.842 0.059 7.06 1.62 8.58
5/22/2024 2:00:00 AM 17.61 63.698 0.059 7.05 1.37 8.6
5/22/2024 2:15:00 AM 17.52 63.536 0.059 7.06 1.38 8.61
5/22/2024 2:30:00 AM 17.44 63.392 0.059 7.06 1.31 8.63
5/22/2024 2:45:00 AM 17.35 63.23 0.059 7.06 1.3 8.65
5/22/2024 3:00:00 AM 17.27 63.086 0.059 7.05 1.32 8.67
5/22/2024 3:15:00 AM 17.18 62.924 0.059 7.06 1.46 8.69
5/22/2024 3:30:00 AM 17.1 62.78 0.059 7.05 1.42 8.72
5/22/2024 3:45:00 AM 17.03 62.654 0.06 7.06 1.36 8.74
5/22/2024 4:00:00 AM 16.96 62.528 0.06 7.01 1.36 8.75
5/22/2024 4:15:00 AM 16.9 62.42 0.06 7.06 1.44 8.77
5/22/2024 4:30:00 AM 16.83 62.294 0.06 7.07 1.32 8.79
5/22/2024 4:45:00 AM 16.77 62.186 0.06 7.07 1.5 8.81
5/22/2024 5:00:00 AM 16.71 62.078 0.06 7.07 1.3 8.82
5/22/2024 5:15:00 AM 16.65 61.97 0.06 7.07 1.35 8.84
5/22/2024 5:30:00 AM 16.6 61.88 0.06 7.07 1.29 8.84
5/22/2024 5:45:00 AM 16.55 61.79 0.06 7.07 1.31 8.87
5/22/2024 6:00:00 AM 16.5 61.7 0.06 7.03 1.2 8.89
5/22/2024 6:15:00 AM 16.45 61.61 0.06 7.08 1.26 8.91
5/22/2024 6:30:00 AM 16.4 61.52 0.06 7.09 1.42 8.96
5/22/2024 6:45:00 AM 16.35 61.43 0.06 7.06 1.18 9
5/22/2024 7:00:00 AM 16.32 61.376 0.06 7.08 1.1 9.05
5/22/2024 7:15:00 AM 16.28 61.304 0.06 7.11 1.14 9.13
5/22/2024 7:30:00 AM 16.25 61.25 0.06 7.14 1.05 9.2
5/22/2024 7:45:00 AM 16.25 61.25 0.06 7.16 1.28 9.31
5/22/2024 8:00:00 AM 16.21 61.178 0.06 7.12 1.03 9.37
5/22/2024 8:15:00 AM 16.23 61.214 0.06 7.2 1.08 9.46
5/22/2024 8:30:00 AM 16.22 61.196 0.06 7.22 1.04 9.5
5/22/2024 8:45:00 AM 16.24 61.232 0.06 7.24 1.12 9.54
5/22/2024 9:00:00 AM 16.29 61.322 0.06 7.24 1 9.59
5/22/2024 9:15:00 AM 16.34 61.412 0.06 7.24 0.96 9.63
5/22/2024 9:30:00 AM 16.42 61.556 0.06 7.24 1.07 9.65
5/22/2024 9:45:00 AM 16.52 61.736 0.06 7.29 0.99 9.68
5/22/2024 10:00:00 AM 16.64 61.952 0.06 7.31 1.1 9.71
5/22/2024 10:15:00 AM 16.67 62.006 0.06 7.33 0.95 9.74
5/22/2024 10:30:00 AM 16.76 62.168 0.06 7.34 1.02 9.76
5/22/2024 10:45:00 AM 16.93 62.474 0.06 7.38 0.96 9.78
5/22/2024 11:00:00 AM 17.05 62.69 0.06 7.4 0.95 9.79
5/22/2024 11:15:00 AM 17.23 63.014 0.06 7.37 1.03 9.78
5/22/2024 11:30:00 AM 17.36 63.248 0.06 7.41 0.87 9.77
5/22/2024 11:45:00 AM 17.49 63.482 0.06 7.39 0.96 9.75
5/22/2024 12:00:00 PM 17.61 63.698 0.06 7.45 0.79 9.73
5/22/2024 12:15:00 PM 17.91 64.238 0.06 7.4 0.79 9.74
5/22/2024 12:30:00 PM 17.95 64.31 0.06 7.47 0.89 9.66
5/22/2024 12:45:00 PM 18.18 64.724 0.06 7.45 0.77 9.66
5/22/2024 1:00:00 PM 18.31 64.958 0.06 7.45 0.79 9.63
5/22/2024 1:15:00 PM 18.37 65.066 0.06 7.51 0.77 9.6
5/22/2024 1:30:00 PM 18.5 65.3 0.06 7.5 0.79 9.58
5/22/2024 1:45:00 PM 18.76 65.768 0.06 7.52 0.89 9.58
5/22/2024 2:00:00 PM 18.89 66.002 0.06 7.5 0.82 9.53
5/22/2024 2:15:00 PM 19.13 66.434 0.06 7.54 0.73 9.53
5/22/2024 2:30:00 PM 19.15 66.47 0.06 7.54 0.81 9.46
5/22/2024 2:45:00 PM 19.33 66.794 0.06 7.55 0.78 9.45
5/22/2024 3:00:00 PM 19.59 67.262 0.06 7.55 0.76 9.42
5/22/2024 3:15:00 PM 19.76 67.568 0.06 7.56 0.75 9.37
5/22/2024 3:30:00 PM 19.98 67.964 0.06 7.59 0.88 9.35
5/22/2024 3:45:00 PM 20.09 68.162 0.06 7.59 0.7 9.3
5/22/2024 4:00:00 PM 19.97 67.946 0.06 7.5 0.67 9.08
5/22/2024 4:15:00 PM 19.88 67.784 0.06 7.36 1.39 8.84
5/22/2024 4:30:00 PM 19.78 67.604 0.06 7.31 1.13 8.72
5/22/2024 4:45:00 PM 19.72 67.496 0.06 7.26 1.26 8.64
5/22/2024 5:00:00 PM 19.76 67.568 0.06 7.27 1.54 8.74
5/22/2024 5:15:00 PM 19.87 67.766 0.06 7.29 1.41 8.83
5/22/2024 5:30:00 PM 19.82 67.676 0.059 7.3 1.65 8.82
5/22/2024 5:45:00 PM 19.76 67.568 0.059 7.29 1.41 8.84
5/22/2024 6:00:00 PM 19.74 67.532 0.059 7.33 1.21 8.87
5/22/2024 6:15:00 PM 19.73 67.514 0.059 7.31 1.18 8.91
5/22/2024 6:30:00 PM 19.75 67.55 0.059 7.33 1.26 8.91
5/22/2024 6:45:00 PM 19.69 67.442 0.06 7.31 1.16 8.86
5/22/2024 7:00:00 PM 19.62 67.316 0.06 7.3 1.15 8.8
5/22/2024 7:15:00 PM 19.56 67.208 0.06 7.27 1.26 8.74
5/22/2024 7:30:00 PM 19.5 67.1 0.06 7.26 1.13 8.7
5/22/2024 7:45:00 PM 19.44 66.992 0.06 7.25 1.17 8.67
5/22/2024 8:00:00 PM 19.38 66.884 0.06 7.22 1.35 8.61
5/22/2024 8:15:00 PM 19.29 66.722 0.061 7.18 1.43 8.55
5/22/2024 8:30:00 PM 19.21 66.578 0.061 7.15 1.48 8.48
5/22/2024 8:45:00 PM 19.11 66.398 0.061 7.14 1.44 8.45
5/22/2024 9:00:00 PM 19.02 66.236 0.061 7.12 1.48 8.42
5/22/2024 9:15:00 PM 18.93 66.074 0.061 7.09 1.44 8.41
5/22/2024 9:30:00 PM 18.86 65.948 0.061 7.05 1.42 8.39
5/22/2024 9:45:00 PM 18.8 65.84 0.061 7.07 1.46 8.38
5/22/2024 10:00:00 PM 18.74 65.732 0.061 7.06 1.35 8.38
5/22/2024 10:15:00 PM 18.68 65.624 0.061 7.05 1.42 8.38
5/22/2024 10:30:00 PM 18.63 65.534 0.061 7.05 1.46 8.38
5/22/2024 10:45:00 PM 18.59 65.462 0.061 7 1.39 8.39
5/22/2024 11:00:00 PM 18.55 65.39 0.061 7.05 1.26 8.39
5/22/2024 11:15:00 PM 18.5 65.3 0.061 7.01 1.34 8.4
5/22/2024 11:30:00 PM 18.46 65.228 0.061 7.06 1.42 8.4
5/22/2024 11:45:00 PM 18.42 65.156 0.061 7.05 1.29 8.41
5/23/2024 12:00:00 AM 18.38 65.084 0.061 7.06 1.32 8.41
5/23/2024 12:15:00 AM 18.34 65.012 0.061 6.99 1.37 8.42
5/23/2024 12:30:00 AM 18.31 64.958 0.061 7 1.34 8.42
5/23/2024 12:45:00 AM 18.27 64.886 0.061 7.01 1.47 8.42
5/23/2024 1:00:00 AM 18.23 64.814 0.061 7 1.33 8.43
5/23/2024 1:15:00 AM 18.2 64.76 0.061 7.04 1.49 8.43
5/23/2024 1:30:00 AM 18.16 64.688 0.061 7 1.33 8.43
5/23/2024 1:45:00 AM 18.12 64.616 0.061 7.03 1.42 8.44
5/23/2024 2:00:00 AM 18.08 64.544 0.061 7.04 1.36 8.45
5/23/2024 2:15:00 AM 18.03 64.454 0.061 7.03 1.32 8.46
5/23/2024 2:30:00 AM 17.99 64.382 0.061 7.04 1.29 8.48
5/23/2024 2:45:00 AM 17.94 64.292 0.061 7.01 1.37 8.49
5/23/2024 3:00:00 AM 17.89 64.202 0.061 7.03 1.7 8.5
5/23/2024 3:15:00 AM 17.83 64.094 0.061 7.03 1.56 8.52
5/23/2024 3:30:00 AM 17.79 64.022 0.061 7.02 1.48 8.53
5/23/2024 3:45:00 AM 17.73 63.914 0.061 7 1.35 8.55
5/23/2024 4:00:00 AM 17.67 63.806 0.061 7.01 1.36 8.57
5/23/2024 4:15:00 AM 17.6 63.68 0.061 7.04 1.34 8.59
5/23/2024 4:30:00 AM 17.54 63.572 0.061 7.04 1.46 8.6
5/23/2024 4:45:00 AM 17.49 63.482 0.061 7.06 1.45 8.62
5/23/2024 5:00:00 AM 17.43 63.374 0.061 7.04 1.3 8.62
5/23/2024 5:15:00 AM 17.38 63.284 0.061 7.05 1.33 8.64
5/23/2024 5:30:00 AM 17.32 63.176 0.061 7.04 1.31 8.66
5/23/2024 5:45:00 AM 17.27 63.086 0.061 7.04 1.28 8.67
5/23/2024 6:00:00 AM 17.22 62.996 0.061 7.05 1.39 8.7
5/23/2024 6:15:00 AM 17.18 62.924 0.061 7.03 1.33 8.71
5/23/2024 6:30:00 AM 17.14 62.852 0.061 7.01 1.18 8.76
5/23/2024 6:45:00 AM 17.09 62.762 0.061 7 1.29 8.8
5/23/2024 7:00:00 AM 17.05 62.69 0.062 7.08 1.23 8.84
5/23/2024 7:15:00 AM 17.02 62.636 0.062 7.08 1.29 8.89
5/23/2024 7:30:00 AM 16.98 62.564 0.062 7.08 1.22 8.93
5/23/2024 7:45:00 AM 16.96 62.528 0.061 7.1 1.15 9.01
5/23/2024 8:00:00 AM 16.92 62.456 0.061 7.09 1.24 9.05
5/23/2024 8:15:00 AM 16.91 62.438 0.061 7.09 1.07 9.11
5/23/2024 8:30:00 AM 16.9 62.42 0.061 7.15 1.16 9.17
5/23/2024 8:45:00 AM 16.95 62.51 0.061 7.15 1.02 9.23
5/23/2024 9:00:00 AM 16.99 62.582 0.061 7.17 1.08 9.32
5/23/2024 9:15:00 AM 16.97 62.546 0.061 7.2 1.08 9.35
5/23/2024 9:30:00 AM 17.06 62.708 0.061 7.21 1.17 9.38
5/23/2024 9:45:00 AM 17.14 62.852 0.061 7.19 0.98 9.42
5/23/2024 10:00:00 AM 17.22 62.996 0.061 7.25 1.65 9.42
5/23/2024 10:15:00 AM 17.32 63.176 0.061 7.24 1 9.44
5/23/2024 10:30:00 AM 17.42 63.356 0.061 7.29 0.87 9.44
5/23/2024 10:45:00 AM 17.55 63.59 0.061 7.29 0.89 9.44
5/23/2024 11:00:00 AM 17.68 63.824 0.061 7.3 0.95 9.43
5/23/2024 11:15:00 AM 17.83 64.094 0.061 7.3 0.86 9.43
5/23/2024 11:30:00 AM 17.98 64.364 0.061 7.32 0.98 9.42
5/23/2024 11:45:00 AM 18.12 64.616 0.061 7.33 0.81 9.41
5/23/2024 12:00:00 PM 18.3 64.94 0.061 7.33 0.96 9.4
5/23/2024 12:15:00 PM 18.47 65.246 0.061 7.35 0.75 9.38
5/23/2024 12:30:00 PM 18.65 65.57 0.061 7.36 0.94 9.36
5/23/2024 12:45:00 PM 18.82 65.876 0.061 7.37 0.85 9.35
5/23/2024 1:00:00 PM 18.98 66.164 0.061 7.38 0.76 9.33
5/23/2024 1:15:00 PM 19.1 66.38 0.061 7.39 0.78 9.32
5/23/2024 1:30:00 PM 19.34 66.812 0.061 7.38 0.78 9.3
5/23/2024 1:45:00 PM 19.51 67.118 0.061 7.38 0.8 9.27
5/23/2024 2:00:00 PM 19.66 67.388 0.061 7.37 0.84 9.24
5/23/2024 2:15:00 PM 19.87 67.766 0.061 7.36 0.76 9.2
5/23/2024 2:30:00 PM 20 68 0.061 7.42 0.73 9.17
5/23/2024 2:45:00 PM 20.18 68.324 0.061 7.34 0.85 9.13
5/23/2024 3:00:00 PM 20.36 68.648 0.061 7.42 0.75 9.1
5/23/2024 3:15:00 PM 20.55 68.99 0.061 7.38 0.8 9.06
5/23/2024 3:30:00 PM 20.58 69.044 0.061 7.39 0.82 9.02
5/23/2024 3:45:00 PM 20.62 69.116 0.061 7.38 0.75 9
5/23/2024 4:00:00 PM 20.79 69.422 0.061 7.43 0.79 8.98
5/23/2024 4:15:00 PM 20.86 69.548 0.061 7.43 0.72 8.96
5/23/2024 4:30:00 PM 20.93 69.674 0.061 7.44 0.76 8.92
5/23/2024 4:45:00 PM 21.02 69.836 0.061 7.43 0.74 8.88
5/23/2024 5:00:00 PM 21 69.8 0.061 7.4 0.74 8.83
5/23/2024 5:15:00 PM 20.98 69.764 0.061 7.41 0.74 8.8
5/23/2024 5:30:00 PM 21.04 69.872 0.061 7.4 0.73 8.77
5/23/2024 5:45:00 PM 21.04 69.872 0.061 7.34 0.67 8.72
5/23/2024 6:00:00 PM 21.04 69.872 0.062 7.37 0.7 8.67
5/23/2024 6:15:00 PM 21 69.8 0.062 7.34 0.7 8.62
5/23/2024 6:30:00 PM 20.95 69.71 0.062 7.31 0.72 8.56
5/23/2024 6:45:00 PM 20.89 69.602 0.062 7.29 0.75 8.51
5/23/2024 7:00:00 PM 20.81 69.458 0.062 7.27 0.73 8.47
5/23/2024 7:15:00 PM 20.71 69.278 0.062 7.25 0.67 8.43
5/23/2024 7:30:00 PM 20.59 69.062 0.062 7.24 0.72 8.4
5/23/2024 7:45:00 PM 20.47 68.846 0.063 7.18 0.67 8.37
5/23/2024 8:00:00 PM 20.33 68.594 0.063 7.17 0.7 8.34
5/23/2024 8:15:00 PM 20.17 68.306 0.063 7.19 0.74 8.32
5/23/2024 8:30:00 PM 20.02 68.036 0.063 7.14 0.74 8.3
5/23/2024 8:45:00 PM 19.86 67.748 0.063 7.13 0.79 8.28
5/23/2024 9:00:00 PM 19.71 67.478 0.063 7.12 0.76 8.28
5/23/2024 9:15:00 PM 19.56 67.208 0.063 7.13 0.85 8.29
5/23/2024 9:30:00 PM 19.41 66.938 0.063 7.1 0.85 8.3
5/23/2024 9:45:00 PM 19.28 66.704 0.063 7.12 0.91 8.31
5/23/2024 10:00:00 PM 19.15 66.47 0.064 7.09 0.99 8.33
5/23/2024 10:15:00 PM 19.02 66.236 0.064 7.1 1.02 8.35
5/23/2024 10:30:00 PM 18.89 66.002 0.064 7.1 1.06 8.36
5/23/2024 10:45:00 PM 18.77 65.786 0.064 7.11 1.17 8.38
5/23/2024 11:00:00 PM 18.65 65.57 0.064 7.14 1.15 8.41
5/23/2024 11:15:00 PM 18.53 65.354 0.064 7.11 1.3 8.43
5/23/2024 11:30:00 PM 18.42 65.156 0.064 7.08 1.08 8.45
5/23/2024 11:45:00 PM 18.31 64.958 0.064 7.1 1.16 8.47
5/24/2024 12:00:00 AM 18.2 64.76 0.064 7.1 1.27 8.49
5/24/2024 12:15:00 AM 18.1 64.58 0.064 7.1 1.22 8.51
5/24/2024 12:30:00 AM 17.99 64.382 0.064 7.1 1.22 8.54
5/24/2024 12:45:00 AM 17.88 64.184 0.064 7.09 1.11 8.56
5/24/2024 1:00:00 AM 17.78 64.004 0.064 7.11 1.15 8.58
5/24/2024 1:15:00 AM 17.68 63.824 0.064 7.11 1.15 8.6
5/24/2024 1:30:00 AM 17.58 63.644 0.064 7.12 1.22 8.62
5/24/2024 1:45:00 AM 17.48 63.464 0.064 7.11 1.21 8.64
5/24/2024 2:00:00 AM 17.38 63.284 0.064 7.1 1.28 8.66
5/24/2024 2:15:00 AM 17.28 63.104 0.064 7.11 1.12 8.68
5/24/2024 2:30:00 AM 17.19 62.942 0.064 7.08 1.22 8.7
5/24/2024 2:45:00 AM 17.09 62.762 0.065 7.06 1.21 8.73
5/24/2024 3:00:00 AM 17 62.6 0.065 7.08 1.17 8.74
5/24/2024 3:15:00 AM 16.9 62.42 0.065 7.07 1.21 8.77
5/24/2024 3:30:00 AM 16.81 62.258 0.065 7.1 1.14 8.79
5/24/2024 3:45:00 AM 16.72 62.096 0.065 7.13 1.39 8.81
5/24/2024 4:00:00 AM 16.64 61.952 0.065 7.07 1.15 8.83
5/24/2024 4:15:00 AM 16.56 61.808 0.065 7.08 1.2 8.86
5/24/2024 4:30:00 AM 16.48 61.664 0.065 7.12 1.19 8.88
5/24/2024 4:45:00 AM 16.41 61.538 0.065 7.08 1.13 8.89
5/24/2024 5:00:00 AM 16.33 61.394 0.065 7.13 1.23 8.92
5/24/2024 5:15:00 AM 16.25 61.25 0.065 7.08 1.21 8.93
5/24/2024 5:30:00 AM 16.17 61.106 0.065 7.09 1.15 8.95
5/24/2024 5:45:00 AM 16.09 60.962 0.065 7.1 1.33 8.97
5/24/2024 6:00:00 AM 16 60.8 0.065 7.13 1.13 9.01
5/24/2024 6:15:00 AM 15.92 60.656 0.065 7.12 1.06 9.04
5/24/2024 6:30:00 AM 15.85 60.53 0.065 7.09 1.07 9.07
5/24/2024 6:45:00 AM 15.78 60.404 0.065 7.13 1.05 9.12
5/24/2024 7:00:00 AM 15.72 60.296 0.065 7.16 1.09 9.18
5/24/2024 7:15:00 AM 15.66 60.188 0.065 7.15 1.04 9.22
5/24/2024 7:30:00 AM 15.6 60.08 0.065 7.18 1.05 9.28
5/24/2024 7:45:00 AM 15.54 59.972 0.065 7.18 1 9.34
5/24/2024 8:00:00 AM 15.52 59.936 0.065 7.21 1.01 9.43
5/24/2024 8:15:00 AM 15.5 59.9 0.065 7.22 0.99 9.5
5/24/2024 8:30:00 AM 15.48 59.864 0.065 7.24 1.02 9.53
5/24/2024 8:45:00 AM 15.48 59.864 0.065 7.23 0.97 9.56
5/24/2024 9:00:00 AM 15.51 59.918 0.065 7.2 0.95 9.59
5/24/2024 9:15:00 AM 15.57 60.026 0.065 7.25 0.99 9.61
5/24/2024 9:30:00 AM 15.66 60.188 0.064 7.26 0.95 9.63
5/24/2024 9:45:00 AM 15.77 60.386 0.065 7.24 0.87 9.64
5/24/2024 10:00:00 AM 15.9 60.62 0.064 7.24 0.89 9.65
5/24/2024 10:15:00 AM 16.04 60.872 0.064 7.27 0.96 9.65
5/24/2024 10:30:00 AM 16.2 61.16 0.064 7.27 0.82 9.65
5/24/2024 10:45:00 AM 16.35 61.43 0.064 7.3 0.83 9.63
5/24/2024 11:00:00 AM 16.53 61.754 0.064 7.31 0.93 9.62
5/24/2024 11:15:00 AM 16.71 62.078 0.064 7.31 0.88 9.6
5/24/2024 11:30:00 AM 16.89 62.402 0.064 7.3 0.77 9.59
5/24/2024 11:45:00 AM 17.08 62.744 0.064 7.33 0.79 9.57
5/24/2024 12:00:00 PM 17.29 63.122 0.064 7.33 0.8 9.55
5/24/2024 12:15:00 PM 17.47 63.446 0.064 7.33 0.74 9.52
5/24/2024 12:30:00 PM 17.64 63.752 0.064 7.35 0.74 9.49
5/24/2024 12:45:00 PM 17.88 64.184 0.064 7.32 0.7 9.46
5/24/2024 1:00:00 PM 18.08 64.544 0.064 7.36 0.76 9.42
5/24/2024 1:15:00 PM 18.31 64.958 0.064 7.33 0.69 9.39
5/24/2024 1:30:00 PM 18.55 65.39 0.064 7.36 0.7 9.35
5/24/2024 1:45:00 PM 18.82 65.876 0.064 7.35 0.72 9.31
5/24/2024 2:00:00 PM 19.07 66.326 0.064 7.37 0.7 9.27
5/24/2024 2:15:00 PM 19.3 66.74 0.064 7.38 0.68 9.22
5/24/2024 2:30:00 PM 19.46 67.028 0.064 7.36 0.75 9.16
5/24/2024 2:45:00 PM 19.68 67.424 0.064 7.35 0.64 9.13
5/24/2024 3:00:00 PM 19.73 67.514 0.064 7.35 0.72 9.08
5/24/2024 3:15:00 PM 19.83 67.694 0.064 7.37 0.71 9.06
5/24/2024 3:30:00 PM 19.96 67.92799 0.064 7.38 0.71 9.03
5/24/2024 3:45:00 PM 20.11 68.198 0.064 7.39 0.71 9
5/24/2024 4:00:00 PM 20.28 68.504 0.064 7.37 0.64 8.96
5/24/2024 4:15:00 PM 20.42 68.756 0.064 7.37 0.56 8.9
5/24/2024 4:30:00 PM 20.54 68.972 0.064 7.35 0.67 8.86
5/24/2024 4:45:00 PM 20.71 69.278 0.064 7.36 0.73 8.81
5/24/2024 5:00:00 PM 20.8 69.44 0.064 7.35 0.62 8.74
5/24/2024 5:15:00 PM 20.9 69.62 0.064 7.33 0.69 8.7
5/24/2024 5:30:00 PM 20.94 69.692 0.064 7.35 0.69 8.65
5/24/2024 5:45:00 PM 20.95 69.71 0.064 7.32 0.58 8.61
5/24/2024 6:00:00 PM 20.97 69.746 0.064 7.31 0.62 8.57
5/24/2024 6:15:00 PM 20.95 69.71 0.064 7.33 0.59 8.53
5/24/2024 6:30:00 PM 20.92 69.656 0.064 7.28 0.59 8.49
5/24/2024 6:45:00 PM 20.86 69.548 0.064 7.31 0.54 8.45
5/24/2024 7:00:00 PM 20.78 69.404 0.064 7.26 0.64 8.41
5/24/2024 7:15:00 PM 20.68 69.224 0.065 7.25 0.72 8.38
5/24/2024 7:30:00 PM 20.57 69.026 0.065 7.25 0.64 8.35
5/24/2024 7:45:00 PM 20.46 68.828 0.065 7.22 0.72 8.32
5/24/2024 8:00:00 PM 20.33 68.594 0.065 7.2 0.72 8.3
5/24/2024 8:15:00 PM 20.19 68.342 0.065 7.19 0.63 8.28
5/24/2024 8:30:00 PM 20.04 68.07201 0.065 7.18 0.65 8.27
5/24/2024 8:45:00 PM 19.88 67.784 0.065 7.16 0.67 8.26
5/24/2024 9:00:00 PM 19.72 67.496 0.065 7.16 0.71 8.26
5/24/2024 9:15:00 PM 19.55 67.19 0.066 7.19 0.81 8.28
5/24/2024 9:30:00 PM 19.4 66.92 0.066 7.19 0.97 8.3
5/24/2024 9:45:00 PM 19.26 66.668 0.066 7.18 0.99 8.32
5/24/2024 10:00:00 PM 19.11 66.398 0.066 7.16 0.88 8.34
5/24/2024 10:15:00 PM 18.98 66.164 0.066 7.13 0.94 8.36
5/24/2024 10:30:00 PM 18.85 65.93 0.066 7.15 1.02 8.38
5/24/2024 10:45:00 PM 18.72 65.696 0.066 7.14 0.96 8.4
5/24/2024 11:00:00 PM 18.6 65.48 0.066 7.13 1.1 8.43
5/24/2024 11:15:00 PM 18.47 65.246 0.066 7.14 1.06 8.45
5/24/2024 11:30:00 PM 18.35 65.03 0.066 7.17 0.97 8.47
5/24/2024 11:45:00 PM 18.23 64.814 0.066 7.12 1.1 8.5
5/25/2024 12:00:00 AM 18.12 64.616 0.066 7.13 1.11 8.52
5/25/2024 12:15:00 AM 18 64.4 0.066 7.12 1.06 8.55
5/25/2024 12:30:00 AM 17.88 64.184 0.066 7.13 1.11 8.57
5/25/2024 12:45:00 AM 17.77 63.986 0.067 7.12 1.21 8.59
5/25/2024 1:00:00 AM 17.67 63.806 0.066 7.15 1.36 8.62
5/25/2024 1:15:00 AM 17.56 63.608 0.067 7.15 1.13 8.64
5/25/2024 1:30:00 AM 17.46 63.428 0.067 7.14 1.09 8.66
5/25/2024 1:45:00 AM 17.36 63.248 0.067 7.09 1.13 8.68
5/25/2024 2:00:00 AM 17.26 63.068 0.067 7.13 1.16 8.7
5/25/2024 2:15:00 AM 17.16 62.888 0.067 7.13 1.17 8.73
5/25/2024 2:30:00 AM 17.06 62.708 0.067 7.13 0.98 8.75
5/25/2024 2:45:00 AM 16.96 62.528 0.067 7.11 1.16 8.77
5/25/2024 3:00:00 AM 16.87 62.366 0.067 7.09 1.11 8.79
5/25/2024 3:15:00 AM 16.78 62.204 0.067 7.1 1.85 8.81
5/25/2024 3:30:00 AM 16.69 62.042 0.067 7.11 1.92 8.83
5/25/2024 3:45:00 AM 16.59 61.862 0.067 7.1 1.7 8.84
5/25/2024 4:00:00 AM 16.51 61.718 0.067 7.12 1.78 8.86
5/25/2024 4:15:00 AM 16.41 61.538 0.067 7.13 1.78 8.89
5/25/2024 4:30:00 AM 16.33 61.394 0.067 7.15 1.76 8.91
5/25/2024 4:45:00 AM 16.26 61.268 0.067 7.11 1.66 8.93
5/25/2024 5:00:00 AM 16.19 61.142 0.067 7.14 1.78 8.94
5/25/2024 5:15:00 AM 16.12 61.016 0.067 7.16 1.77 8.96
5/25/2024 5:30:00 AM 16.05 60.89 0.067 7.11 1.69 8.98
5/25/2024 5:45:00 AM 15.99 60.782 0.067 7.12 1.64 9
5/25/2024 6:00:00 AM 15.92 60.656 0.067 7.13 1.66 9.02
5/25/2024 6:15:00 AM 15.86 60.548 0.067 7.16 1.63 9.05
5/25/2024 6:30:00 AM 15.8 60.44 0.067 7.16 1.71 9.09
5/25/2024 6:45:00 AM 15.73 60.314 0.067 7.16 1.54 9.12
5/25/2024 7:00:00 AM 15.68 60.224 0.067 7.18 1.68 9.18
5/25/2024 7:15:00 AM 15.63 60.134 0.067 7.2 1.52 9.25
5/25/2024 7:30:00 AM 15.59 60.062 0.067 7.15 1.5 9.31
5/25/2024 7:45:00 AM 15.57 60.026 0.067 7.19 1.57 9.37
5/25/2024 8:00:00 AM 15.56 60.008 0.067 7.2 1.59 9.42
5/25/2024 8:15:00 AM 15.53 59.954 0.067 7.2 1.58 9.46
5/25/2024 8:30:00 AM 15.52 59.936 0.067 7.24 1.62 9.48
5/25/2024 8:45:00 AM 15.55 59.99 0.067 7.22 1.67 9.52
5/25/2024 9:00:00 AM 15.58 60.044 0.067 7.25 1.45 9.55
5/25/2024 9:15:00 AM 15.67 60.206 0.067 7.24 1.47 9.58
5/25/2024 9:30:00 AM 15.75 60.35 0.066 7.3 1.4 9.59
5/25/2024 9:45:00 AM 15.86 60.548 0.066 7.31 1.42 9.61
5/25/2024 10:00:00 AM 15.98 60.764 0.066 7.24 1.39 9.61
5/25/2024 10:15:00 AM 16.14 61.052 0.066 7.28 1.5 9.62
5/25/2024 10:30:00 AM 16.26 61.268 0.066 7.33 1.38 9.61
5/25/2024 10:45:00 AM 16.46 61.628 0.066 7.3 1.34 9.61
5/25/2024 11:00:00 AM 16.68 62.024 0.066 7.34 1.28 9.61
5/25/2024 11:15:00 AM 16.87 62.366 0.066 7.34 0.8 9.61
5/25/2024 11:30:00 AM 17.03 62.654 0.066 7.34 0.77 9.6
5/25/2024 11:45:00 AM 17.29 63.122 0.066 7.35 0.77 9.58
5/25/2024 12:00:00 PM 17.43 63.374 0.066 7.34 0.69 9.55
5/25/2024 12:15:00 PM 17.61 63.698 0.066 7.39 0.72 9.52
5/25/2024 12:30:00 PM 17.65 63.77 0.066 7.34 0.75 9.47
5/25/2024 12:45:00 PM 18 64.4 0.065 7.38 0.78 9.47
5/25/2024 1:00:00 PM 18.04 64.472 0.065 7.37 0.76 9.37
5/25/2024 1:15:00 PM 18.01 64.418 0.065 7.37 0.76 9.32
5/25/2024 1:30:00 PM 18.31 64.958 0.065 7.35 0.77 9.34
5/25/2024 1:45:00 PM 18.49 65.282 0.065 7.38 0.66 9.3
5/25/2024 2:00:00 PM 18.51 65.318 0.065 7.37 0.75 9.24
5/25/2024 2:15:00 PM 18.48 65.264 0.065 7.36 0.74 9.13
5/25/2024 2:30:00 PM 18.45 65.21 0.065 7.33 0.68 9.08
5/25/2024 2:45:00 PM 18.43 65.174 0.065 7.32 0.73 9.04
5/25/2024 3:00:00 PM 18.4 65.12 0.065 7.31 0.77 9.01
5/25/2024 3:15:00 PM 18.34 65.012 0.065 7.29 0.7 8.95
5/25/2024 3:30:00 PM 18.29 64.922 0.065 7.27 0.77 8.91
5/25/2024 3:45:00 PM 18.23 64.814 0.065 7.25 0.86 8.88
5/25/2024 4:00:00 PM 18.17 64.706 0.065 7.24 0.83 8.86
5/25/2024 4:15:00 PM 18.12 64.616 0.065 7.25 0.86 8.86
5/25/2024 4:30:00 PM 18.1 64.58 0.065 7.25 0.92 8.91
5/25/2024 4:45:00 PM 18.1 64.58 0.065 7.28 0.83 8.97
5/25/2024 5:00:00 PM 18.04 64.472 0.065 7.26 0.85 8.94
5/25/2024 5:15:00 PM 17.99 64.382 0.065 7.28 0.81 8.91
5/25/2024 5:30:00 PM 17.94 64.292 0.065 7.23 0.72 8.89
5/25/2024 5:45:00 PM 17.92 64.256 0.065 7.25 0.73 8.91
5/25/2024 6:00:00 PM 17.91 64.238 0.065 7.23 0.83 8.94
5/25/2024 6:15:00 PM 17.91 64.238 0.065 7.28 0.75 8.97
5/25/2024 6:30:00 PM 17.92 64.256 0.065 7.25 0.67 9.01
5/25/2024 6:45:00 PM 17.87 64.166 0.065 7.29 0.77 8.98
5/25/2024 7:00:00 PM 17.83 64.094 0.065 7.28 0.74 8.97
5/25/2024 7:15:00 PM 17.81 64.058 0.065 7.29 0.76 9
5/25/2024 7:30:00 PM 17.77 63.986 0.065 7.24 0.67 9
5/25/2024 7:45:00 PM 17.72 63.896 0.065 7.26 0.7 8.97
5/25/2024 8:00:00 PM 17.66 63.788 0.065 7.27 0.65 8.93
5/25/2024 8:15:00 PM 17.59 63.662 0.066 7.25 0.66 8.89
5/25/2024 8:30:00 PM 17.53 63.554 0.066 7.24 0.71 8.86
5/25/2024 8:45:00 PM 17.47 63.446 0.066 7.2 0.74 8.84
5/25/2024 9:00:00 PM 17.42 63.356 0.066 7.16 0.86 8.82
5/25/2024 9:15:00 PM 17.38 63.284 0.066 7.2 0.88 8.81
5/25/2024 9:30:00 PM 17.33 63.194 0.066 7.2 1.07 8.8
5/25/2024 9:45:00 PM 17.29 63.122 0.066 7.17 0.97 8.8
5/25/2024 10:00:00 PM 17.25 63.05 0.066 7.19 0.97 8.8
5/25/2024 10:15:00 PM 17.2 62.96 0.066 7.18 1.1 8.8
5/25/2024 10:30:00 PM 17.16 62.888 0.066 7.17 0.89 8.8
5/25/2024 10:45:00 PM 17.13 62.834 0.066 7.13 1.11 8.8
5/25/2024 11:00:00 PM 17.09 62.762 0.066 7.14 0.97 8.81
5/25/2024 11:15:00 PM 17.05 62.69 0.066 7.18 1 8.82
5/25/2024 11:30:00 PM 17.01 62.618 0.066 7.15 1.09 8.82
5/25/2024 11:45:00 PM 16.97 62.546 0.066 7.13 1.3 8.83
5/26/2024 12:00:00 AM 16.93 62.474 0.066 7.13 1.05 8.84
5/26/2024 12:15:00 AM 16.89 62.402 0.066 7.13 1.09 8.85
5/26/2024 12:30:00 AM 16.84 62.312 0.066 7.16 1.17 8.86
5/26/2024 12:45:00 AM 16.81 62.258 0.066 7.15 1.03 8.87
5/26/2024 1:00:00 AM 16.77 62.186 0.066 7.16 1.2 8.88
5/26/2024 1:15:00 AM 16.74 62.132 0.066 7.13 1.03 8.88
5/26/2024 1:30:00 AM 16.7 62.06 0.066 7.12 1.18 8.89
5/26/2024 1:45:00 AM 16.67 62.006 0.066 7.16 1.16 8.9
5/26/2024 2:00:00 AM 16.63 61.934 0.066 7.12 1.04 8.91
5/26/2024 2:15:00 AM 16.6 61.88 0.066 7.16 1.16 8.92
5/26/2024 2:30:00 AM 16.57 61.826 0.066 7.17 1.12 8.92
5/26/2024 2:45:00 AM 16.54 61.772 0.066 7.17 1.19 8.93
5/26/2024 3:00:00 AM 16.51 61.718 0.067 7.15 1.2 8.94
5/26/2024 3:15:00 AM 16.47 61.646 0.066 7.13 1.1 8.95
5/26/2024 3:30:00 AM 16.44 61.592 0.066 7.14 1.27 8.96
5/26/2024 3:45:00 AM 16.41 61.538 0.067 7.17 1.14 8.96
5/26/2024 4:00:00 AM 16.37 61.466 0.066 7.16 1.21 8.98
5/26/2024 4:15:00 AM 16.35 61.43 0.066 7.11 1.22 8.98
5/26/2024 4:30:00 AM 16.32 61.376 0.067 7.14 1.24 8.99
5/26/2024 4:45:00 AM 16.29 61.322 0.066 7.17 1.24 9
5/26/2024 5:00:00 AM 16.26 61.268 0.067 7.13 1.14 9
5/26/2024 5:15:00 AM 16.23 61.214 0.067 7.16 1.25 9.01
5/26/2024 5:30:00 AM 16.2 61.16 0.067 7.17 1.16 9.02
5/26/2024 5:45:00 AM 16.18 61.124 0.067 7.13 1.18 9.03
5/26/2024 6:00:00 AM 16.15 61.07 0.067 7.15 1.16 9.04
5/26/2024 6:15:00 AM 16.13 61.034 0.067 7.12 1.08 9.05
5/26/2024 6:30:00 AM 16.11 60.998 0.067 7.13 1.06 9.08
5/26/2024 6:45:00 AM 16.1 60.98 0.067 7.14 1.02 9.1
5/26/2024 7:00:00 AM 16.09 60.962 0.067 7.18 1.01 9.13
5/26/2024 7:15:00 AM 16.08 60.944 0.067 7.17 1.2 9.16
5/26/2024 7:30:00 AM 16.08 60.944 0.067 7.16 1.04 9.2
5/26/2024 7:45:00 AM 16.08 60.944 0.067 7.2 0.86 9.23
5/26/2024 8:00:00 AM 16.09 60.962 0.066 7.18 0.9 9.27
5/26/2024 8:15:00 AM 16.1 60.98 0.066 7.21 0.91 9.3
5/26/2024 8:30:00 AM 16.11 60.998 0.066 7.18 1.08 9.32
5/26/2024 8:45:00 AM 16.12 61.016 0.066 7.23 0.97 9.34
5/26/2024 9:00:00 AM 16.15 61.07 0.066 7.26 0.92 9.39
5/26/2024 9:15:00 AM 16.19 61.142 0.066 7.25 0.91 9.42
5/26/2024 9:30:00 AM 16.22 61.196 0.066 7.23 1.02 9.45
5/26/2024 9:45:00 AM 16.23 61.214 0.066 7.25 0.82 9.45
5/26/2024 10:00:00 AM 16.26 61.268 0.066 7.28 1 9.48
5/26/2024 10:15:00 AM 16.33 61.394 0.066 7.27 0.89 9.51
5/26/2024 10:30:00 AM 16.4 61.52 0.066 7.29 0.86 9.54
5/26/2024 10:45:00 AM 16.45 61.61 0.066 7.28 0.9 9.55
5/26/2024 11:00:00 AM 16.52 61.736 0.066 7.33 0.82 9.56
5/26/2024 11:15:00 AM 16.64 61.952 0.066 7.31 0.76 9.58
5/26/2024 11:30:00 AM 16.76 62.168 0.066 7.33 0.84 9.59
5/26/2024 11:45:00 AM 16.88 62.384 0.066 7.34 0.77 9.59
5/26/2024 12:00:00 PM 17 62.6 0.066 7.34 0.86 9.58
5/26/2024 12:15:00 PM 17.36 63.248 0.066 7.35 0.8 9.56
5/26/2024 12:30:00 PM 17.65 63.77 0.066 7.35 0.75 9.51
5/26/2024 12:45:00 PM 17.88 64.184 0.066 7.34 0.69 9.45
5/26/2024 1:00:00 PM 18.06 64.508 0.066 7.35 0.8 9.4
5/26/2024 1:15:00 PM 18.32 64.976 0.066 7.34 0.75 9.36
5/26/2024 1:30:00 PM 18.62 65.516 0.066 7.34 0.68 9.3
5/26/2024 1:45:00 PM 18.94 66.092 0.066 7.34 0.78 9.24
5/26/2024 2:00:00 PM 19.23 66.614 0.066 7.35 0.62 9.18
5/26/2024 2:15:00 PM 19.53 67.154 0.066 7.35 0.73 9.12
5/26/2024 2:30:00 PM 19.81 67.658 0.066 7.34 0.6 9.06
5/26/2024 2:45:00 PM 20.06 68.108 0.066 7.34 0.66 9.01
5/26/2024 3:00:00 PM 20.29 68.522 0.066 7.36 0.68 8.97
5/26/2024 3:15:00 PM 20.5 68.9 0.066 7.38 0.73 8.91
5/26/2024 3:30:00 PM 20.71 69.278 0.066 7.39 0.59 8.87
5/26/2024 3:45:00 PM 20.89 69.602 0.066 7.33 0.82 8.82
5/26/2024 4:00:00 PM 21.06 69.908 0.066 7.38 0.73 8.76
5/26/2024 4:15:00 PM 21.17 70.106 0.066 7.34 0.59 8.73
5/26/2024 4:30:00 PM 21.25 70.25 0.067 7.36 0.76 8.69
5/26/2024 4:45:00 PM 21.28 70.304 0.067 7.35 0.75 8.66
5/26/2024 5:00:00 PM 21.26 70.268 0.067 7.36 0.69 8.63
5/26/2024 5:15:00 PM 21.23 70.214 0.067 7.37 0.79 8.61
5/26/2024 5:30:00 PM 21.18 70.124 0.067 7.33 0.66 8.59
5/26/2024 5:45:00 PM 21.16 70.088 0.067 7.34 0.8 8.56
5/26/2024 6:00:00 PM 21.13 70.034 0.067 7.32 0.62 8.53
5/26/2024 6:15:00 PM 21.1 69.98 0.067 7.31 0.59 8.5
5/26/2024 6:30:00 PM 21.07 69.926 0.067 7.34 0.74 8.48
5/26/2024 6:45:00 PM 21.01 69.818 0.067 7.29 0.65 8.44
5/26/2024 7:00:00 PM 20.93 69.674 0.067 7.29 0.69 8.41
5/26/2024 7:15:00 PM 20.83 69.494 0.067 7.28 0.63 8.37
5/26/2024 7:30:00 PM 20.73 69.314 0.068 7.25 0.62 8.34
5/26/2024 7:45:00 PM 20.63 69.134 0.068 7.26 0.79 8.3
5/26/2024 8:00:00 PM 20.52 68.936 0.068 7.22 0.73 8.27
5/26/2024 8:15:00 PM 20.42 68.756 0.068 7.21 0.72 8.25
5/26/2024 8:30:00 PM 20.32 68.576 0.068 7.23 0.68 8.22
5/26/2024 8:45:00 PM 20.22 68.396 0.069 7.17 0.77 8.21
5/26/2024 9:00:00 PM 20.12 68.216 0.069 7.19 0.78 8.2
5/26/2024 9:15:00 PM 20.03 68.054 0.069 7.15 0.89 8.19
5/26/2024 9:30:00 PM 19.93 67.874 0.069 7.2 0.87 8.19
5/26/2024 9:45:00 PM 19.85 67.73 0.069 7.19 0.99 8.2
5/26/2024 10:00:00 PM 19.76 67.568 0.069 7.13 1.03 8.21
5/26/2024 10:15:00 PM 19.67 67.406 0.069 7.13 1.09 8.22
5/26/2024 10:30:00 PM 19.59 67.262 0.07 7.12 1.04 8.22
5/26/2024 10:45:00 PM 19.51 67.118 0.07 7.13 1.09 8.24
5/26/2024 11:00:00 PM 19.44 66.992 0.07 7.12 1.22 8.24
5/26/2024 11:15:00 PM 19.38 66.884 0.07 7.12 1.11 8.26
5/26/2024 11:30:00 PM 19.31 66.758 0.07 7.12 1.3 8.27
5/26/2024 11:45:00 PM 19.24 66.632 0.07 7.12 1.48 8.28
5/27/2024 12:00:00 AM 19.17 66.506 0.07 7.11 1.37 8.27
5/27/2024 12:15:00 AM 19.1 66.38 0.07 7.11 1.56 8.28
5/27/2024 12:30:00 AM 19.03 66.254 0.07 7.09 1.52 8.28
5/27/2024 12:45:00 AM 18.97 66.146 0.07 7.1 1.59 8.29
5/27/2024 1:00:00 AM 18.91 66.038 0.07 7.11 1.48 8.3
5/27/2024 1:15:00 AM 18.84 65.912 0.07 7.1 1.4 8.31
5/27/2024 1:30:00 AM 18.76 65.768 0.07 7.1 1.42 8.33
5/27/2024 1:45:00 AM 18.69 65.642 0.07 7.1 1.6 8.35
5/27/2024 2:00:00 AM 18.62 65.516 0.07 7.13 1.42 8.37
5/27/2024 2:15:00 AM 18.55 65.39 0.07 7.1 1.55 8.38
5/27/2024 2:30:00 AM 18.48 65.264 0.07 7.13 1.36 8.4
5/27/2024 2:45:00 AM 18.43 65.174 0.071 7.1 1.38 8.42
5/27/2024 3:00:00 AM 18.37 65.066 0.071 7.11 1.47 8.43
5/27/2024 3:15:00 AM 18.31 64.958 0.071 7.11 1.39 8.44
5/27/2024 3:30:00 AM 18.26 64.868 0.071 7.11 1.44 8.46
5/27/2024 3:45:00 AM 18.19 64.742 0.071 7.11 1.51 8.46
5/27/2024 4:00:00 AM 18.14 64.652 0.071 7.14 1.4 8.48
5/27/2024 4:15:00 AM 18.09 64.562 0.071 7.14 1.55 8.49
5/27/2024 4:30:00 AM 18.04 64.472 0.071 7.13 1.43 8.5
5/27/2024 4:45:00 AM 18 64.4 0.071 7.11 1.41 8.51
5/27/2024 5:00:00 AM 17.95 64.31 0.071 7.12 1.41 8.52
5/27/2024 5:15:00 AM 17.9 64.22 0.071 7.13 1.44 8.53
5/27/2024 5:30:00 AM 17.85 64.13 0.071 7.1 1.53 8.54
5/27/2024 5:45:00 AM 17.81 64.058 0.071 7.13 1.42 8.56
5/27/2024 6:00:00 AM 17.76 63.968 0.071 7.12 1.43 8.58
5/27/2024 6:15:00 AM 17.71 63.878 0.071 7.1 1.3 8.61
5/27/2024 6:30:00 AM 17.68 63.824 0.071 7.15 1.17 8.64
5/27/2024 6:45:00 AM 17.66 63.788 0.071 7.11 1.22 8.68
5/27/2024 7:00:00 AM 17.66 63.788 0.071 7.14 1.26 8.74
5/27/2024 7:15:00 AM 17.66 63.788 0.071 7.15 1.21 8.8
5/27/2024 7:30:00 AM 17.65 63.77 0.071 7.15 1.18 8.81
5/27/2024 7:45:00 AM 17.65 63.77 0.071 7.16 1.28 8.85
5/27/2024 8:00:00 AM 17.65 63.77 0.071 7.19 1.17 8.87
5/27/2024 8:15:00 AM 17.61 63.698 0.071 7.16 1.06 8.82
5/27/2024 8:30:00 AM 17.62 63.716 0.071 7.2 1.11 8.86
5/27/2024 8:45:00 AM 17.64 63.752 0.071 7.18 1.08 8.91
5/27/2024 9:00:00 AM 17.64 63.752 0.07 7.19 2.58 8.91
5/27/2024 9:15:00 AM 17.65 63.77 0.07 7.22 1.13 8.93
5/27/2024 9:30:00 AM 17.68 63.824 0.07 7.21 1.12 8.96
5/27/2024 9:45:00 AM 17.69 63.842 0.07 7.24 1.03 8.96
5/27/2024 10:00:00 AM 17.74 63.932 0.07 7.22 1.13 9
5/27/2024 10:15:00 AM 17.87 64.166 0.07 7.25 1.13 9.06
5/27/2024 10:30:00 AM 17.94 64.292 0.07 7.29 1.16 9.08
5/27/2024 10:45:00 AM 17.88 64.184 0.07 7.25 1.09 9.02
5/27/2024 11:00:00 AM 17.86 64.148 0.07 7.28 1.14 9
5/27/2024 11:15:00 AM 17.94 64.292 0.07 7.29 1.12 9.05
5/27/2024 11:30:00 AM 17.97 64.346 0.07 7.25 1.19 9.04
5/27/2024 11:45:00 AM 17.97 64.346 0.07 7.3 1.18 9.03
5/27/2024 12:00:00 PM 18.03 64.454 0.069 7.3 1.2 9.04
5/27/2024 12:15:00 PM 18.06 64.508 0.07 7.26 1.18 9.01
5/27/2024 12:30:00 PM 18.12 64.616 0.07 7.28 1.2 9.04
5/27/2024 12:45:00 PM 18.18 64.724 0.07 7.31 1.11 9.05
5/27/2024 1:00:00 PM 18.2 64.76 0.07 7.29 1.1 9.03
5/27/2024 1:15:00 PM 18.21 64.778 0.07 7.29 1.12 8.99
5/27/2024 1:30:00 PM 18.3 64.94 0.07 7.32 1.1 9.03
5/27/2024 1:45:00 PM 18.43 65.174 0.069 7.31 1.11 9.06
5/27/2024 2:00:00 PM 18.53 65.354 0.069 7.32 1.16 9.07
5/27/2024 2:15:00 PM 18.73 65.714 0.069 7.34 1.02 9.08
5/27/2024 2:30:00 PM 18.87 65.966 0.069 7.34 1.1 9.07
5/27/2024 2:45:00 PM 19.07 66.326 0.069 7.35 1.12 9.06
5/27/2024 3:00:00 PM 19.23 66.614 0.069 7.36 1.16 9.04
5/27/2024 3:15:00 PM 19.25 66.65 0.069 7.36 1.1 9.01
5/27/2024 3:30:00 PM 19.4 66.92 0.069 7.39 1.15 8.99
5/27/2024 3:45:00 PM 19.59 67.262 0.069 7.39 1.33 8.97
5/27/2024 4:00:00 PM 19.69 67.442 0.069 7.36 1.26 8.93
5/27/2024 4:15:00 PM 19.77 67.586 0.069 7.37 1.2 8.89
5/27/2024 4:30:00 PM 19.83 67.694 0.069 7.39 1.22 8.87
5/27/2024 4:45:00 PM 19.93 67.874 0.07 7.38 1.08 8.85
5/27/2024 5:00:00 PM 20.11 68.198 0.069 7.36 1.04 8.81
5/27/2024 5:15:00 PM 20.12 68.216 0.069 7.41 1.22 8.76
5/27/2024 5:30:00 PM 20.12 68.216 0.069 7.33 1.25 8.72
5/27/2024 5:45:00 PM 20.12 68.216 0.07 7.35 1.27 8.68
5/27/2024 6:00:00 PM 20.14 68.252 0.07 7.35 1.48 8.66
5/27/2024 6:15:00 PM 20.12 68.216 0.07 7.33 1.29 8.6
5/27/2024 6:30:00 PM 20.09 68.162 0.07 7.32 1.21 8.56
5/27/2024 6:45:00 PM 20.06 68.108 0.07 7.3 1.14 8.52
5/27/2024 7:00:00 PM 20.02 68.036 0.07 7.28 1.2 8.5
5/27/2024 7:15:00 PM 19.96 67.92799 0.07 7.32 1.15 8.47
5/27/2024 7:30:00 PM 19.89 67.802 0.07 7.24 1.23 8.44
5/27/2024 7:45:00 PM 19.83 67.694 0.07 7.28 1.22 8.42
5/27/2024 8:00:00 PM 19.75 67.55 0.07 7.22 1.2 8.39
5/27/2024 8:15:00 PM 19.66 67.388 0.07 7.26 1.34 8.37
5/27/2024 8:30:00 PM 19.57 67.226 0.07 7.2 1.3 8.35
5/27/2024 8:45:00 PM 19.48 67.064 0.07 7.24 1.57 8.33
5/27/2024 9:00:00 PM 19.4 66.92 0.07 7.16 1.46 8.32
5/27/2024 9:15:00 PM 19.31 66.758 0.07 7.16 1.74 8.31
5/27/2024 9:30:00 PM 19.23 66.614 0.07 7.15 1.5 8.32
5/27/2024 9:45:00 PM 19.17 66.506 0.07 7.15 1.67 8.32
5/27/2024 10:00:00 PM 19.12 66.416 0.071 7.15 1.49 8.33
5/27/2024 10:15:00 PM 19.06 66.308 0.071 7.14 1.64 8.34
5/27/2024 10:30:00 PM 19 66.2 0.071 7.17 1.65 8.35
5/27/2024 10:45:00 PM 18.94 66.092 0.071 7.15 1.66 8.35
5/27/2024 11:00:00 PM 18.88 65.984 0.071 7.14 1.62 8.37
5/27/2024 11:15:00 PM 18.83 65.894 0.071 7.19 1.81 8.38
5/27/2024 11:30:00 PM 18.78 65.804 0.071 7.14 1.9 8.39
5/27/2024 11:45:00 PM 18.71 65.67799 0.071 7.13 1.79 8.4
5/28/2024 12:00:00 AM 18.64 65.552 0.071 7.13 2.39 8.41
5/28/2024 12:15:00 AM 18.56 65.408 0.071 7.14 2.17 8.43
5/28/2024 12:30:00 AM 18.49 65.282 0.071 7.15 1.8 8.45
5/28/2024 12:45:00 AM 18.43 65.174 0.071 7.17 1.69 8.46
5/28/2024 1:00:00 AM 18.38 65.084 0.071 7.17 1.76 8.47
5/28/2024 1:15:00 AM 18.31 64.958 0.071 7.14 1.76 8.49
5/28/2024 1:30:00 AM 18.25 64.85 0.071 7.17 1.85 8.5
5/28/2024 1:45:00 AM 18.19 64.742 0.071 7.18 1.7 8.52
5/28/2024 2:00:00 AM 18.13 64.634 0.071 7.16 1.75 8.53
5/28/2024 2:15:00 AM 18.07 64.526 0.071 7.16 1.69 8.54
5/28/2024 2:30:00 AM 18.01 64.418 0.071 7.18 1.73 8.55
5/28/2024 2:45:00 AM 17.95 64.31 0.071 7.13 1.87 8.56
5/28/2024 3:00:00 AM 17.9 64.22 0.071 7.17 1.77 8.57
5/28/2024 3:15:00 AM 17.84 64.112 0.071 7.17 1.72 8.59
5/28/2024 3:30:00 AM 17.79 64.022 0.071 7.14 1.73 8.6
5/28/2024 3:45:00 AM 17.74 63.932 0.071 7.18 1.75 8.61
5/28/2024 4:00:00 AM 17.69 63.842 0.071 7.16 1.74 8.62
5/28/2024 4:15:00 AM 17.64 63.752 0.071 7.19 1.75 8.63
5/28/2024 4:30:00 AM 17.59 63.662 0.071 7.19 1.79 8.65
5/28/2024 4:45:00 AM 17.54 63.572 0.071 7.19 1.75 8.66
5/28/2024 5:00:00 AM 17.49 63.482 0.072 7.15 1.79 8.67
5/28/2024 5:15:00 AM 17.44 63.392 0.072 7.18 1.74 8.69
5/28/2024 5:30:00 AM 17.39 63.302 0.072 7.19 1.83 8.7
5/28/2024 5:45:00 AM 17.34 63.212 0.072 7.19 1.82 8.71
5/28/2024 6:00:00 AM 17.29 63.122 0.072 7.21 1.75 8.73
5/28/2024 6:15:00 AM 17.24 63.032 0.072 7.2 1.69 8.75
5/28/2024 6:30:00 AM 17.19 62.942 0.072 7.21 1.64 8.78
5/28/2024 6:45:00 AM 17.15 62.87 0.072 7.23 1.47 8.81
5/28/2024 7:00:00 AM 17.12 62.816 0.072 7.22 1.58 8.86
5/28/2024 7:15:00 AM 17.08 62.744 0.072 7.18 1.56 8.89
5/28/2024 7:30:00 AM 17.05 62.69 0.072 7.24 1.47 8.92
5/28/2024 7:45:00 AM 17.01 62.618 0.072 7.22 1.59 8.94
5/28/2024 8:00:00 AM 16.98 62.564 0.072 7.24 1.44 8.96
5/28/2024 8:15:00 AM 16.95 62.51 0.072 7.24 1.37 8.97
5/28/2024 8:30:00 AM 16.94 62.492 0.072 7.2 1.36 9.02
5/28/2024 8:45:00 AM 16.96 62.528 0.072 7.25 1.25 9.08
5/28/2024 9:00:00 AM 17.01 62.618 0.072 7.28 1.4 9.15
5/28/2024 9:15:00 AM 17.04 62.672 0.072 7.27 1.19 9.19
5/28/2024 9:30:00 AM 17.02 62.636 0.071 7.3 1.21 9.19
5/28/2024 9:45:00 AM 17.03 62.654 0.071 7.31 1.28 9.21
5/28/2024 10:00:00 AM 17.15 62.87 0.072 7.28 1.22 9.26
5/28/2024 10:15:00 AM -100000 -179968 -100000 -100000 -100000 -100000
5/28/2024 10:30:00 AM -100000 -179968 -100000 -100000 -100000 -100000
5/28/2024 10:45:00 AM -100000 -179968 -100000 -100000 -100000 -100000
5/28/2024 11:00:00 AM -100000 -179968 -100000 -100000 -100000 -100000
5/28/2024 11:15:00 AM 17.41 63.338 0.071 7.19 0.85 9.28
5/28/2024 11:30:00 AM 17.65 63.77 0.071 7.28 0.97 9.31
5/28/2024 11:45:00 AM 17.78 64.004 0.071 7.3 0.85 9.32
5/28/2024 12:00:00 PM 17.73 63.914 0.071 7.31 0.91 9.29
5/28/2024 12:15:00 PM 17.85 64.13 0.071 7.34 0.83 9.29
5/28/2024 12:30:00 PM 17.92 64.256 0.071 7.34 0.81 9.26
5/28/2024 12:45:00 PM 18.02 64.436 0.071 7.36 0.8 9.28
5/28/2024 1:00:00 PM 18.13 64.634 0.071 7.37 0.87 9.26
5/28/2024 1:15:00 PM 18.45 65.21 0.071 7.38 0.8 9.26
5/28/2024 1:30:00 PM 18.39 65.102 0.071 7.38 0.79 9.18
5/28/2024 1:45:00 PM 18.21 64.778 0.071 7.36 0.92 9.1
5/28/2024 2:00:00 PM 18.09 64.562 0.071 7.37 1.12 9.09
5/28/2024 2:15:00 PM 18.09 64.562 0.071 7.37 1.1 9.11
5/28/2024 2:30:00 PM 18.38 65.084 0.071 7.39 1.11 9.15
5/28/2024 2:45:00 PM 18.59 65.462 0.071 7.4 1.13 9.13
5/28/2024 3:00:00 PM 18.46 65.228 0.071 7.4 1.09 9.1
5/28/2024 3:15:00 PM 18.39 65.102 0.071 7.4 1.09 9.07
5/28/2024 3:30:00 PM 18.65 65.57 0.071 7.41 1.11 9.1
5/28/2024 3:45:00 PM 18.82 65.876 0.071 7.41 0.93 9.1
5/28/2024 4:00:00 PM 18.91 66.038 0.071 7.43 0.86 9.09
5/28/2024 4:15:00 PM 19.04 66.272 0.071 7.43 0.86 9.07
5/28/2024 4:30:00 PM 18.93 66.074 0.071 7.41 0.91 9.03
5/28/2024 4:45:00 PM 18.96 66.128 0.071 7.42 0.81 9.04
5/28/2024 5:00:00 PM 19.06 66.308 0.071 7.42 0.9 9.02
5/28/2024 5:15:00 PM 18.99 66.182 0.071 7.42 0.89 8.99
5/28/2024 5:30:00 PM 18.98 66.164 0.071 7.41 0.78 8.99
5/28/2024 5:45:00 PM 19.1 66.38 0.071 7.42 0.81 8.97
5/28/2024 6:00:00 PM 19.08 66.344 0.071 7.41 0.79 8.93
5/28/2024 6:15:00 PM 19.03 66.254 0.072 7.4 0.72 8.86
5/28/2024 6:30:00 PM 19 66.2 0.072 7.38 0.93 8.8
5/28/2024 6:45:00 PM 18.93 66.074 0.072 7.36 0.87 8.76
5/28/2024 7:00:00 PM 18.89 66.002 0.072 7.36 0.92 8.76
5/28/2024 7:15:00 PM 18.84 65.912 0.072 7.35 0.93 8.76
5/28/2024 7:30:00 PM 18.76 65.768 0.073 7.34 0.85 8.73
5/28/2024 7:45:00 PM 18.66 65.588 0.073 7.33 0.89 8.7
5/28/2024 8:00:00 PM 18.56 65.408 0.073 7.32 0.89 8.68
5/28/2024 8:15:00 PM 18.47 65.246 0.073 7.32 0.99 8.67
5/28/2024 8:30:00 PM 18.37 65.066 0.074 7.29 0.86 8.66
5/28/2024 8:45:00 PM 18.28 64.904 0.074 7.28 0.84 8.65
5/28/2024 9:00:00 PM 18.2 64.76 0.074 7.28 0.94 8.64
5/28/2024 9:15:00 PM 18.12 64.616 0.074 7.27 1.11 8.63
5/28/2024 9:30:00 PM 18.05 64.49 0.074 7.26 1.03 8.64
5/28/2024 9:45:00 PM 17.96 64.328 0.075 7.26 1.12 8.64
5/28/2024 10:00:00 PM 17.89 64.202 0.075 7.26 1.06 8.65
5/28/2024 10:15:00 PM 17.82 64.076 0.075 7.27 1.11 8.66
5/28/2024 10:30:00 PM 17.75 63.95 0.075 7.25 1.06 8.67
5/28/2024 10:45:00 PM 17.66 63.788 0.075 7.26 1.16 8.69
5/28/2024 11:00:00 PM 17.57 63.626 0.075 7.24 1.08 8.7
5/28/2024 11:15:00 PM 17.5 63.5 0.076 7.26 1.33 8.72
5/28/2024 11:30:00 PM 17.41 63.338 0.076 7.24 1.14 8.73
5/28/2024 11:45:00 PM 17.32 63.176 0.076 7.25 1.12 8.75
5/29/2024 12:00:00 AM 17.24 63.032 0.076 7.24 1.17 8.77
5/29/2024 12:15:00 AM 17.15 62.87 0.076 7.25 1.24 8.78
5/29/2024 12:30:00 AM 17.06 62.708 0.076 7.24 1.22 8.8
5/29/2024 12:45:00 AM 16.97 62.546 0.076 7.24 1.18 8.82
5/29/2024 1:00:00 AM 16.88 62.384 0.076 7.25 1.19 8.84
5/29/2024 1:15:00 AM 16.78 62.204 0.077 7.24 1.07 8.86
5/29/2024 1:30:00 AM 16.7 62.06 0.077 7.25 1.16 8.88
5/29/2024 1:45:00 AM 16.61 61.898 0.077 7.24 1.35 8.9
5/29/2024 2:00:00 AM 16.54 61.772 0.077 7.24 1.18 8.92
5/29/2024 2:15:00 AM 16.47 61.646 0.077 7.22 1.15 8.93
5/29/2024 2:30:00 AM 16.4 61.52 0.077 7.22 1.12 8.95
5/29/2024 2:45:00 AM 16.32 61.376 0.077 7.22 1.09 8.97
5/29/2024 3:00:00 AM 16.25 61.25 0.078 7.23 1.18 8.98
5/29/2024 3:15:00 AM 16.18 61.124 0.078 7.23 1.17 9
5/29/2024 3:30:00 AM 16.12 61.016 0.078 7.24 1.13 9.02
5/29/2024 3:45:00 AM 16.05 60.89 0.078 7.23 1.12 9.03
5/29/2024 4:00:00 AM 15.99 60.782 0.078 7.24 1.28 9.04
5/29/2024 4:15:00 AM 15.92 60.656 0.078 7.22 1.49 9.06
5/29/2024 4:30:00 AM 15.86 60.548 0.079 7.23 1.19 9.07
5/29/2024 4:45:00 AM 15.8 60.44 0.079 7.23 1.15 9.09
5/29/2024 5:00:00 AM 15.74 60.332 0.079 7.23 1.24 9.11
5/29/2024 5:15:00 AM 15.69 60.242 0.079 7.23 1.09 9.11
5/29/2024 5:30:00 AM 15.64 60.152 0.079 7.23 1.18 9.13
5/29/2024 5:45:00 AM 15.59 60.062 0.079 7.23 1.08 9.15
5/29/2024 6:00:00 AM 15.54 59.972 0.079 7.23 1.12 9.16
5/29/2024 6:15:00 AM 15.5 59.9 0.079 7.23 1.06 9.19
5/29/2024 6:30:00 AM 15.46 59.828 0.079 7.22 1.05 9.21
5/29/2024 6:45:00 AM 15.43 59.774 0.079 7.23 1.05 9.25
5/29/2024 7:00:00 AM 15.4 59.72 0.079 7.24 0.96 9.28
5/29/2024 7:15:00 AM 15.37 59.666 0.079 7.25 0.95 9.31
5/29/2024 7:30:00 AM 15.35 59.63 0.079 7.26 0.94 9.35
5/29/2024 7:45:00 AM 15.34 59.612 0.079 7.27 1.03 9.39
5/29/2024 8:00:00 AM 15.34 59.612 0.079 7.29 0.9 9.45
5/29/2024 8:15:00 AM 15.35 59.63 0.079 7.31 0.85 9.49
5/29/2024 8:30:00 AM 15.35 59.63 0.079 7.3 0.87 9.52
5/29/2024 8:45:00 AM 15.39 59.702 0.079 7.32 1.01 9.57
5/29/2024 9:00:00 AM 15.42 59.756 0.079 7.34 0.86 9.6
5/29/2024 9:15:00 AM 15.43 59.774 0.078 7.34 1.03 9.61
5/29/2024 9:30:00 AM 15.45 59.81 0.078 7.35 0.89 9.64
5/29/2024 9:45:00 AM 15.49 59.882 0.078 7.35 0.89 9.66
5/29/2024 10:00:00 AM 15.57 60.026 0.078 7.36 0.77 9.68
5/29/2024 10:15:00 AM 15.63 60.134 0.078 7.38 0.81 9.7
5/29/2024 10:30:00 AM 15.73 60.314 0.078 7.39 0.76 9.71
5/29/2024 10:45:00 AM 16.05 60.89 0.078 7.4 0.73 9.71
5/29/2024 11:00:00 AM 16.1 60.98 0.078 7.4 0.73 9.68
5/29/2024 11:15:00 AM 16.06 60.908 0.077 7.4 0.79 9.66
5/29/2024 11:30:00 AM 16.2 61.16 0.077 7.41 0.73 9.66
5/29/2024 11:45:00 AM 16.54 61.772 0.077 7.41 0.8 9.66
5/29/2024 12:00:00 PM 16.77 62.186 0.077 7.42 0.74 9.63
5/29/2024 12:15:00 PM 17.04 62.672 0.077 7.42 0.7 9.6
5/29/2024 12:30:00 PM 17.34 63.212 0.077 7.42 0.68 9.56
5/29/2024 12:45:00 PM 17.36 63.248 0.077 7.42 0.73 9.52
5/29/2024 1:00:00 PM 17.39 63.302 0.077 7.43 0.87 9.5
5/29/2024 1:15:00 PM 17.48 63.464 0.077 7.43 0.69 9.47
5/29/2024 1:30:00 PM 17.44 63.392 0.077 7.42 0.77 9.37
5/29/2024 1:45:00 PM 17.35 63.23 0.077 7.38 0.67 9.24
5/29/2024 2:00:00 PM 17.25 63.05 0.075 7.36 1.48 9.18
5/29/2024 2:15:00 PM 16.93 62.474 0.071 7.31 3.18 9.19
5/29/2024 2:30:00 PM 16.94 62.492 0.072 7.27 6.73 9.11
5/29/2024 2:45:00 PM 16.89 62.402 0.072 7.26 17.18 9.07
5/29/2024 3:00:00 PM 16.81 62.258 0.073 7.25 15.08 9.06
5/29/2024 3:15:00 PM 16.71 62.078 0.072 7.25 12.47 9.09
5/29/2024 3:30:00 PM 16.63 61.934 0.072 7.25 9.46 9.11
5/29/2024 3:45:00 PM 16.55 61.79 0.072 7.25 8.2 9.12
5/29/2024 4:00:00 PM 16.5 61.7 0.072 7.24 7.57 9.12
5/29/2024 4:15:00 PM 16.46 61.628 0.073 7.24 7.47 9.12
5/29/2024 4:30:00 PM 16.4 61.52 0.073 7.24 8.72 9.13
5/29/2024 4:45:00 PM 16.33 61.394 0.073 7.24 10.94 9.13
5/29/2024 5:00:00 PM 16.28 61.304 0.073 7.24 10.88 9.14
5/29/2024 5:15:00 PM 16.23 61.214 0.073 7.23 9.61 9.15
5/29/2024 5:30:00 PM 16.19 61.142 0.073 7.23 8.24 9.15
5/29/2024 5:45:00 PM 16.15 61.07 0.073 7.24 6.88 9.15
5/29/2024 6:00:00 PM 16.12 61.016 0.073 7.24 5.76 9.16
5/29/2024 6:15:00 PM 16.09 60.962 0.073 7.23 5.49 9.16
5/29/2024 6:30:00 PM 16.07 60.926 0.073 7.23 5.46 9.16
5/29/2024 6:45:00 PM 16.04 60.872 0.073 7.22 5.33 9.17
5/29/2024 7:00:00 PM 16.01 60.818 0.073 7.23 5.11 9.18
5/29/2024 7:15:00 PM 15.98 60.764 0.073 7.24 5.11 9.18
5/29/2024 7:30:00 PM 15.94 60.692 0.073 7.23 5.03 9.18
5/29/2024 7:45:00 PM 15.89 60.602 0.073 7.23 5.2 9.18
5/29/2024 8:00:00 PM 15.84 60.512 0.073 7.24 5 9.19
5/29/2024 8:15:00 PM 15.79 60.422 0.073 7.24 5.03 9.2
5/29/2024 8:30:00 PM 15.73 60.314 0.073 7.24 4.86 9.19
5/29/2024 8:45:00 PM 15.67 60.206 0.073 7.22 4.76 9.2
5/29/2024 9:00:00 PM 15.61 60.098 0.073 7.24 4.46 9.2
5/29/2024 9:15:00 PM 15.56 60.008 0.073 7.23 4.51 9.2
5/29/2024 9:30:00 PM 15.51 59.918 0.073 7.23 5.01 9.2
5/29/2024 9:45:00 PM 15.48 59.864 0.073 7.22 7.44 9.21
5/29/2024 10:00:00 PM 15.44 59.792 0.076 7.2 8.06 9.19
5/29/2024 10:15:00 PM 15.4 59.72 0.077 7.21 7.87 9.18
5/29/2024 10:30:00 PM 15.36 59.648 0.075 7.19 7.18 9.2
5/29/2024 10:45:00 PM 15.32 59.576 0.073 7.21 6.81 9.24
5/29/2024 11:00:00 PM 15.27 59.486 0.074 7.23 6.57 9.25
5/29/2024 11:15:00 PM 15.21 59.378 0.073 7.23 6.37 9.27
5/29/2024 11:30:00 PM 15.16 59.288 0.074 7.23 6.46 9.28
5/29/2024 11:45:00 PM 15.1 59.18 0.073 7.22 6.55 9.31
5/30/2024 12:00:00 AM 15.04 59.072 0.073 7.23 6.49 9.32
5/30/2024 12:15:00 AM 14.98 58.964 0.073 7.22 6.42 9.33
5/30/2024 12:30:00 AM 14.92 58.856 0.074 7.22 6.56 9.34
5/30/2024 12:45:00 AM 14.86 58.748 0.073 7.22 7.34 9.36
5/30/2024 1:00:00 AM 14.8 58.64 0.073 7.23 7.43 9.38
5/30/2024 1:15:00 AM 14.75 58.55 0.073 7.23 7.29 9.39
5/30/2024 1:30:00 AM 14.7 58.46 0.073 7.23 7.06 9.41
5/30/2024 1:45:00 AM 14.65 58.37 0.073 7.22 7.39 9.42
5/30/2024 2:00:00 AM 14.6 58.28 0.073 7.23 7.17 9.44
5/30/2024 2:15:00 AM 14.55 58.19 0.073 7.23 6.82 9.45
5/30/2024 2:30:00 AM 14.5 58.1 0.073 7.24 6.86 9.47
5/30/2024 2:45:00 AM 14.45 58.01 0.073 7.23 6.91 9.48
5/30/2024 3:00:00 AM 14.41 57.938 0.073 7.22 6.63 9.49
5/30/2024 3:15:00 AM 14.36 57.848 0.073 7.23 6.6 9.5
5/30/2024 3:30:00 AM 14.31 57.758 0.073 7.22 6.46 9.52
5/30/2024 3:45:00 AM 14.25 57.65 0.073 7.22 6.25 9.53
5/30/2024 4:00:00 AM 14.2 57.56 0.073 7.22 5.92 9.54
5/30/2024 4:15:00 AM 14.14 57.452 0.072 7.22 6.58 9.56
5/30/2024 4:30:00 AM 14.08 57.344 0.072 7.23 5.78 9.57
5/30/2024 4:45:00 AM 14.02 57.236 0.071 7.22 6.51 9.58
5/30/2024 5:00:00 AM 13.96 57.128 0.071 7.24 6.66 9.6
5/30/2024 5:15:00 AM 13.89 57.002 0.07 7.24 7.05 9.61
5/30/2024 5:30:00 AM 13.82 56.876 0.07 7.24 7.42 9.63
5/30/2024 5:45:00 AM 13.75 56.75 0.069 7.23 7.08 9.64
5/30/2024 6:00:00 AM 13.69 56.642 0.069 7.24 7.61 9.66
5/30/2024 6:15:00 AM 13.62 56.516 0.068 7.23 7.51 9.69
5/30/2024 6:30:00 AM 13.56 56.408 0.068 7.25 7.54 9.72
5/30/2024 6:45:00 AM 13.51 56.318 0.068 7.25 7.47 9.74
5/30/2024 7:00:00 AM 13.46 56.228 0.068 7.24 7.07 9.77
5/30/2024 7:15:00 AM 13.41 56.138 0.068 7.25 7.25 9.81
5/30/2024 7:30:00 AM 13.38 56.084 0.067 7.26 6.7 9.86
5/30/2024 7:45:00 AM 13.38 56.084 0.067 7.28 6.35 9.91
5/30/2024 8:00:00 AM 13.34 56.012 0.067 7.27 5.98 9.93
5/30/2024 8:15:00 AM 13.33 55.994 0.067 7.3 5.81 9.97
5/30/2024 8:30:00 AM 13.38 56.084 0.067 7.29 5.54 10.01
5/30/2024 8:45:00 AM 13.38 56.084 0.067 7.3 5.1 10.03
5/30/2024 9:00:00 AM 13.41 56.138 0.067 7.31 5.3 10.05
5/30/2024 9:15:00 AM 13.4 56.12 0.067 7.31 5.04 10.05
5/30/2024 9:30:00 AM 13.47 56.246 0.066 7.32 5.14 10.06
5/30/2024 9:45:00 AM 13.61 56.498 0.066 7.33 4.62 10.07
5/30/2024 10:00:00 AM 13.78 56.804 0.066 7.33 4.26 10.07
5/30/2024 10:15:00 AM 13.92 57.056 0.066 7.34 4.38 10.07
5/30/2024 10:30:00 AM 14.01 57.218 0.066 7.34 3.97 10.07
5/30/2024 10:45:00 AM 14.12 57.416 0.066 7.34 3.99 10.07
5/30/2024 11:00:00 AM 14.26 57.668 0.066 7.35 3.98 10.06
5/30/2024 11:15:00 AM 14.42 57.956 0.066 7.36 3.76 10.05
5/30/2024 11:30:00 AM 14.48 58.064 0.066 7.37 3.7 10.03
5/30/2024 11:45:00 AM 14.54 58.172 0.066 7.37 3.46 10.02
5/30/2024 12:00:00 PM 14.81 58.658 0.066 7.37 3.54 10.01
5/30/2024 12:15:00 PM 14.91 58.838 0.066 7.37 3.3 10
5/30/2024 12:30:00 PM 14.93 58.874 0.066 7.37 3.2 9.97
5/30/2024 12:45:00 PM 15.15 59.27 0.066 7.38 3.52 9.95
5/30/2024 1:00:00 PM 15.24 59.432 0.066 7.38 3.13 9.91
5/30/2024 1:15:00 PM 15.44 59.792 0.066 7.38 3.12 9.9
5/30/2024 1:30:00 PM 15.66 60.188 0.066 7.39 2.86 9.87
5/30/2024 1:45:00 PM 15.79 60.422 0.066 7.38 2.75 9.83
5/30/2024 2:00:00 PM 15.81 60.458 0.066 7.39 2.95 9.78
5/30/2024 2:15:00 PM 15.82 60.476 0.066 7.39 2.72 9.78
5/30/2024 2:30:00 PM 15.85 60.53 0.066 7.38 2.6 9.76
5/30/2024 2:45:00 PM 15.97 60.746 0.067 7.38 2.47 9.72
5/30/2024 3:00:00 PM 16.28 61.304 0.067 7.39 2.51 9.71
5/30/2024 3:15:00 PM 16.45 61.61 0.067 7.38 2.18 9.66
5/30/2024 3:30:00 PM 16.5 61.7 0.067 7.38 2.3 9.62
5/30/2024 3:45:00 PM 16.68 62.024 0.067 7.39 2.38 9.61
5/30/2024 4:00:00 PM 16.65 61.97 0.068 7.37 2.37 9.56
5/30/2024 4:15:00 PM 16.61 61.898 0.068 7.39 2.33 9.55
5/30/2024 4:30:00 PM 16.58 61.844 0.068 7.38 2.2 9.53
5/30/2024 4:45:00 PM 16.77 62.186 0.068 7.38 2.11 9.53
5/30/2024 5:00:00 PM 16.87 62.366 0.068 7.38 2.13 9.49
5/30/2024 5:15:00 PM 16.83 62.294 0.069 7.38 2.23 9.45
5/30/2024 5:30:00 PM 16.88 62.384 0.069 7.38 2.09 9.41
5/30/2024 5:45:00 PM 16.96 62.528 0.069 7.37 2.09 9.38
5/30/2024 6:00:00 PM 17.1 62.78 0.069 7.37 2.16 9.35
5/30/2024 6:15:00 PM 17.15 62.87 0.069 7.37 2.03 9.31
5/30/2024 6:30:00 PM 17.17 62.906 0.07 7.36 2.04 9.27
5/30/2024 6:45:00 PM 17.15 62.87 0.07 7.35 2.18 9.24
5/30/2024 7:00:00 PM 17.1 62.78 0.07 7.34 2.07 9.22
5/30/2024 7:15:00 PM 17.05 62.69 0.07 7.33 2.13 9.19
5/30/2024 7:30:00 PM 16.98 62.564 0.071 7.32 1.99 9.16
5/30/2024 7:45:00 PM 16.89 62.402 0.071 7.32 2.14 9.15
5/30/2024 8:00:00 PM 16.78 62.204 0.071 7.3 2.16 9.14
5/30/2024 8:15:00 PM 16.65 61.97 0.072 7.3 2.14 9.13
5/30/2024 8:30:00 PM 16.52 61.736 0.072 7.28 1.97 9.13
5/30/2024 8:45:00 PM 16.4 61.52 0.072 7.28 1.98 9.12
5/30/2024 9:00:00 PM 16.27 61.286 0.072 7.27 2.11 9.13
5/30/2024 9:15:00 PM 16.14 61.052 0.072 7.27 2.18 9.14
5/30/2024 9:30:00 PM 16 60.8 0.073 7.26 2.4 9.15
5/30/2024 9:45:00 PM 15.87 60.566 0.073 7.26 2.37 9.17
5/30/2024 10:00:00 PM 15.73 60.314 0.073 7.26 2.49 9.2
5/30/2024 10:15:00 PM 15.59 60.062 0.073 7.25 2.35 9.22
5/30/2024 10:30:00 PM 15.44 59.792 0.073 7.25 2.33 9.26
5/30/2024 10:45:00 PM 15.29 59.522 0.074 7.26 2.38 9.29
5/30/2024 11:00:00 PM 15.15 59.27 0.074 7.25 2.67 9.32
5/30/2024 11:15:00 PM 15 59 0.074 7.25 2.3 9.35
5/30/2024 11:30:00 PM 14.86 58.748 0.074 7.25 2.43 9.38
5/30/2024 11:45:00 PM 14.73 58.514 0.074 7.25 2.29 9.41
5/31/2024 12:00:00 AM 14.6 58.28 0.074 7.26 2.32 9.44
5/31/2024 12:15:00 AM 14.47 58.046 0.074 7.25 2.32 9.47
5/31/2024 12:30:00 AM 14.34 57.812 0.074 7.24 2.29 9.5
5/31/2024 12:45:00 AM 14.22 57.596 0.074 7.24 2.21 9.53
5/31/2024 1:00:00 AM 14.1 57.38 0.074 7.25 2.16 9.55
5/31/2024 1:15:00 AM 13.98 57.164 0.074 7.25 2.13 9.58
5/31/2024 1:30:00 AM 13.87 56.966 0.074 7.25 2.08 9.61
5/31/2024 1:45:00 AM 13.76 56.768 0.075 7.23 2.24 9.64
5/31/2024 2:00:00 AM 13.65 56.57 0.075 7.24 2.17 9.66
5/31/2024 2:15:00 AM 13.55 56.39 0.075 7.24 2.16 9.69
5/31/2024 2:30:00 AM 13.44 56.192 0.075 7.24 2.23 9.72
5/31/2024 2:45:00 AM 13.34 56.012 0.075 7.24 2.06 9.74
5/31/2024 3:00:00 AM 13.24 55.832 0.075 7.25 2.51 9.77
5/31/2024 3:15:00 AM 13.15 55.67 0.075 7.25 2.32 9.79
5/31/2024 3:30:00 AM 13.06 55.508 0.075 7.24 2.73 9.81
5/31/2024 3:45:00 AM 12.98 55.364 0.075 7.24 2.13 9.83
5/31/2024 4:00:00 AM 12.9 55.22 0.075 7.25 1.9 9.86
5/31/2024 4:15:00 AM 12.84 55.112 0.075 7.25 1.93 9.88
5/31/2024 4:30:00 AM 12.77 54.986 0.075 7.25 1.93 9.89
5/31/2024 4:45:00 AM 12.69 54.842 0.075 7.25 1.87 9.92
5/31/2024 5:00:00 AM 12.62 54.716 0.075 7.25 2.02 9.93
5/31/2024 5:15:00 AM 12.55 54.59 0.075 7.24 1.96 9.95
5/31/2024 5:30:00 AM 12.48 54.464 0.075 7.24 1.89 9.98
5/31/2024 5:45:00 AM 12.41 54.338 0.075 7.25 1.85 10
5/31/2024 6:00:00 AM 12.35 54.23 0.075 7.24 1.73 10.02
5/31/2024 6:15:00 AM 12.29 54.122 0.075 7.24 1.79 10.05
5/31/2024 6:30:00 AM 12.22 53.996 0.075 7.26 1.63 10.09
5/31/2024 6:45:00 AM 12.17 53.906 0.075 7.27 1.64 10.13
5/31/2024 7:00:00 AM 12.12 53.816 0.075 7.26 1.77 10.17
5/31/2024 7:15:00 AM 12.09 53.762 0.075 7.27 1.72 10.23
5/31/2024 7:30:00 AM 12.03 53.654 0.075 7.28 1.62 10.27
5/31/2024 7:45:00 AM 12.03 53.654 0.075 7.3 1.55 10.32
5/31/2024 8:00:00 AM 12 53.6 0.075 7.29 1.51 10.36
5/31/2024 8:15:00 AM 12 53.6 0.075 7.31 1.51 10.38
5/31/2024 8:30:00 AM 12.01 53.618 0.076 7.31 1.42 10.4
5/31/2024 8:45:00 AM 12.05 53.69 0.076 7.31 1.43 10.42
5/31/2024 9:00:00 AM 12.12 53.816 0.076 7.32 1.33 10.44
5/31/2024 9:15:00 AM 12.21 53.978 0.075 7.32 1.28 10.45
5/31/2024 9:30:00 AM 12.32 54.176 0.075 7.34 1.26 10.46
5/31/2024 9:45:00 AM 12.46 54.428 0.076 7.34 1.27 10.46
5/31/2024 10:00:00 AM 12.62 54.716 0.075 7.33 1.21 10.46
5/31/2024 10:15:00 AM 12.81 55.058 0.076 7.35 1.13 10.45
5/31/2024 10:30:00 AM 12.98 55.364 0.076 7.36 1.18 10.43
5/31/2024 10:45:00 AM 13.19 55.742 0.075 7.37 1.21 10.42
5/31/2024 11:00:00 AM 13.4 56.12 0.075 7.36 1.02 10.4
5/31/2024 11:15:00 AM 13.56 56.408 0.075 7.37 1.08 10.38
5/31/2024 11:30:00 AM 13.79 56.822 0.075 7.39 1.04 10.35
5/31/2024 11:45:00 AM 14.02 57.236 0.075 7.38 1.2 10.31
5/31/2024 12:00:00 PM 14.25 57.65 0.076 7.39 1.05 10.26
5/31/2024 12:15:00 PM 14.47 58.046 0.075 7.38 0.99 10.22
5/31/2024 12:30:00 PM 14.73 58.514 0.076 7.38 1.01 10.16
5/31/2024 12:45:00 PM 14.96 58.928 0.076 7.39 1.01 10.13
5/31/2024 1:00:00 PM 15.19 59.342 0.076 7.39 1.05 10.08
5/31/2024 1:15:00 PM 15.46 59.828 0.076 7.39 1.02 10.03
5/31/2024 1:30:00 PM 15.73 60.314 0.076 7.39 0.97 9.97
5/31/2024 1:45:00 PM 16.02 60.836 0.076 7.4 0.95 9.91
5/31/2024 2:00:00 PM 16.3 61.34 0.076 7.39 0.98 9.86
5/31/2024 2:15:00 PM 16.56 61.808 0.076 7.39 0.87 9.8
5/31/2024 2:30:00 PM 16.83 62.294 0.076 7.39 1 9.74
5/31/2024 2:45:00 PM 17.07 62.726 0.076 7.4 1.05 9.68
5/31/2024 3:00:00 PM 17.31 63.158 0.076 7.39 0.89 9.63
5/31/2024 3:15:00 PM 17.53 63.554 0.076 7.4 0.9 9.57
5/31/2024 3:30:00 PM 17.74 63.932 0.076 7.4 1.01 9.51
5/31/2024 3:45:00 PM 17.93 64.274 0.076 7.39 0.93 9.46
5/31/2024 4:00:00 PM 18.09 64.562 0.076 7.4 0.83 9.41
5/31/2024 4:15:00 PM 18.23 64.814 0.076 7.4 0.94 9.36
5/31/2024 4:30:00 PM 18.36 65.048 0.076 7.39 0.9 9.31
5/31/2024 4:45:00 PM 18.45 65.21 0.076 7.39 0.86 9.26
5/31/2024 5:00:00 PM 18.51 65.318 0.076 7.39 0.97 9.22
5/31/2024 5:15:00 PM 18.56 65.408 0.076 7.39 0.85 9.18
5/31/2024 5:30:00 PM 18.57 65.426 0.076 7.38 0.89 9.14
5/31/2024 5:45:00 PM 18.58 65.444 0.076 7.38 0.93 9.1
5/31/2024 6:00:00 PM 18.57 65.426 0.076 7.37 0.93 9.06
5/31/2024 6:15:00 PM 18.54 65.372 0.076 7.37 1.05 9.03
5/31/2024 6:30:00 PM 18.5 65.3 0.076 7.36 1 8.99
5/31/2024 6:45:00 PM 18.43 65.174 0.076 7.35 1.04 8.97
5/31/2024 7:00:00 PM 18.37 65.066 0.076 7.34 0.99 8.95
5/31/2024 7:15:00 PM 18.29 64.922 0.076 7.33 1.08 8.93
5/31/2024 7:30:00 PM 18.19 64.742 0.076 7.33 1.01 8.92
5/31/2024 7:45:00 PM 18.06 64.508 0.077 7.31 1.04 8.9
5/31/2024 8:00:00 PM 17.94 64.292 0.077 7.31 1.07 8.9
5/31/2024 8:15:00 PM 17.81 64.058 0.077 7.3 1.06 8.89
5/31/2024 8:30:00 PM 17.68 63.824 0.077 7.29 1.06 8.89
5/31/2024 8:45:00 PM 17.53 63.554 0.077 7.28 1.04 8.88
5/31/2024 9:00:00 PM 17.37 63.266 0.078 7.27 1.11 8.88
5/31/2024 9:15:00 PM 17.23 63.014 0.077 7.26 1.15 8.89
5/31/2024 9:30:00 PM 17.08 62.744 0.077 7.26 1.22 8.91
5/31/2024 9:45:00 PM 16.94 62.492 0.077 7.25 1.25 8.93
5/31/2024 10:00:00 PM 16.8 62.24 0.077 7.25 1.27 8.95
5/31/2024 10:15:00 PM 16.67 62.006 0.077 7.25 1.36 8.97
5/31/2024 10:30:00 PM 16.52 61.736 0.078 7.24 1.25 8.99
5/31/2024 10:45:00 PM 16.39 61.502 0.078 7.25 1.3 9.02
5/31/2024 11:00:00 PM 16.26 61.268 0.077 7.25 1.41 9.05
5/31/2024 11:15:00 PM 16.13 61.034 0.078 7.25 1.32 9.08
5/31/2024 11:30:00 PM 16.01 60.818 0.078 7.24 1.34 9.11
5/31/2024 11:45:00 PM 15.88 60.584 0.078 7.24 1.32 9.13
6/1/2024 12:00:00 AM 15.76 60.368 0.078 7.24 1.32 9.16
6/1/2024 12:15:00 AM 15.64 60.152 0.078 7.25 1.44 9.19
6/1/2024 12:30:00 AM 15.52 59.936 0.078 7.24 1.38 9.22
6/1/2024 12:45:00 AM 15.4 59.72 0.078 7.24 1.5 9.25
6/1/2024 1:00:00 AM 15.28 59.504 0.078 7.23 1.57 9.28
6/1/2024 1:15:00 AM 15.16 59.288 0.078 7.23 1.37 9.3
6/1/2024 1:30:00 AM 15.05 59.09 0.078 7.23 1.5 9.33
6/1/2024 1:45:00 AM 14.93 58.874 0.078 7.23 1.27 9.36
6/1/2024 2:00:00 AM 14.81 58.658 0.078 7.23 1.47 9.39
6/1/2024 2:15:00 AM 14.7 58.46 0.078 7.24 1.53 9.41
6/1/2024 2:30:00 AM 14.59 58.262 0.078 7.23 1.45 9.45
6/1/2024 2:45:00 AM 14.47 58.046 0.078 7.23 1.21 9.47
6/1/2024 3:00:00 AM 14.36 57.848 0.078 7.23 1.23 9.5
6/1/2024 3:15:00 AM 14.25 57.65 0.078 7.23 1.3 9.52
6/1/2024 3:30:00 AM 14.14 57.452 0.078 7.23 1.24 9.56
6/1/2024 3:45:00 AM 14.05 57.29 0.078 7.24 1.27 9.58
6/1/2024 4:00:00 AM 13.96 57.128 0.078 7.23 1.17 9.6
6/1/2024 4:15:00 AM 13.89 57.002 0.078 7.23 1.33 9.62
6/1/2024 4:30:00 AM 13.81 56.858 0.078 7.23 1.27 9.64
6/1/2024 4:45:00 AM 13.74 56.732 0.078 7.23 1.29 9.66
6/1/2024 5:00:00 AM 13.67 56.606 0.078 7.23 1.23 9.68
6/1/2024 5:15:00 AM 13.6 56.48 0.078 7.24 1.3 9.7
6/1/2024 5:30:00 AM 13.53 56.354 0.078 7.23 1.21 9.71
6/1/2024 5:45:00 AM 13.47 56.246 0.079 7.24 1.13 9.73
6/1/2024 6:00:00 AM 13.42 56.156 0.078 7.24 1.21 9.76
6/1/2024 6:15:00 AM 13.36 56.048 0.078 7.24 1.26 9.78
6/1/2024 6:30:00 AM 13.31 55.958 0.078 7.24 1.08 9.81
6/1/2024 6:45:00 AM 13.26 55.868 0.078 7.25 1.14 9.85
6/1/2024 7:00:00 AM 13.23 55.814 0.078 7.26 0.96 9.89
6/1/2024 7:15:00 AM 13.2 55.76 0.078 7.26 1.04 9.94
6/1/2024 7:30:00 AM 13.18 55.724 0.078 7.27 1.05 9.98
6/1/2024 7:45:00 AM 13.16 55.688 0.078 7.28 1.07 10.02
6/1/2024 8:00:00 AM 13.15 55.67 0.078 7.29 0.97 10.05
6/1/2024 8:15:00 AM 13.16 55.688 0.078 7.3 0.94 10.11
6/1/2024 8:30:00 AM 13.19 55.742 0.078 7.31 0.88 10.16
6/1/2024 8:45:00 AM 13.26 55.868 0.077 7.32 1.02 10.18
6/1/2024 9:00:00 AM 13.32 55.976 0.077 7.33 0.91 10.19
6/1/2024 9:15:00 AM 13.4 56.12 0.077 7.33 0.85 10.18
6/1/2024 9:30:00 AM 13.51 56.318 0.077 7.33 0.89 10.19
6/1/2024 9:45:00 AM 13.64 56.552 0.078 7.33 0.83 10.18
6/1/2024 10:00:00 AM 13.8 56.84 0.078 7.33 0.77 10.16
6/1/2024 10:15:00 AM 13.95 57.11 0.077 7.34 0.86 10.16
6/1/2024 10:30:00 AM 14.15 57.47 0.077 7.35 0.82 10.14
6/1/2024 10:45:00 AM 14.38 57.884 0.077 7.35 0.76 10.11
6/1/2024 11:00:00 AM 14.65 58.37 0.077 7.36 0.75 10.08
6/1/2024 11:15:00 AM 14.93 58.874 0.077 7.36 0.89 10.04
6/1/2024 11:30:00 AM 15.18 59.324 0.077 7.37 0.7 10.01
6/1/2024 11:45:00 AM 15.42 59.756 0.077 7.38 0.72 9.97
6/1/2024 12:00:00 PM 15.69 60.242 0.077 7.38 0.72 9.94
6/1/2024 12:15:00 PM 15.97 60.746 0.077 7.39 0.74 9.9
6/1/2024 12:30:00 PM 16.2 61.16 0.077 7.39 0.8 9.86
6/1/2024 12:45:00 PM 16.46 61.628 0.077 7.4 0.73 9.82
6/1/2024 1:00:00 PM 16.72 62.096 0.077 7.4 0.68 9.77
6/1/2024 1:15:00 PM 16.96 62.528 0.076 7.4 0.76 9.72
6/1/2024 1:30:00 PM 17.19 62.942 0.076 7.41 0.81 9.68
6/1/2024 1:45:00 PM 17.46 63.428 0.076 7.41 0.71 9.63
6/1/2024 2:00:00 PM 17.69 63.842 0.076 7.41 0.72 9.57
6/1/2024 2:15:00 PM 17.86 64.148 0.077 7.42 0.67 9.53
6/1/2024 2:30:00 PM 18.01 64.418 0.077 7.42 0.8 9.5
6/1/2024 2:45:00 PM 18.23 64.814 0.076 7.43 0.68 9.46
6/1/2024 3:00:00 PM 18.52 65.336 0.076 7.43 0.73 9.41
6/1/2024 3:15:00 PM 18.79 65.82201 0.076 7.43 0.9 9.36
6/1/2024 3:30:00 PM 18.99 66.182 0.077 7.42 0.86 9.28
6/1/2024 3:45:00 PM 19.12 66.416 0.076 7.43 0.83 9.23
6/1/2024 4:00:00 PM 19.27 66.686 0.077 7.41 0.76 9.19
6/1/2024 4:15:00 PM 19.45 67.01 0.076 7.41 0.86 9.13
6/1/2024 4:30:00 PM 19.54 67.172 0.077 7.41 0.82 9.08
6/1/2024 4:45:00 PM 19.65 67.37 0.077 7.41 0.79 9.04
6/1/2024 5:00:00 PM 19.74 67.532 0.076 7.4 0.87 8.98
6/1/2024 5:15:00 PM 19.79 67.622 0.077 7.38 0.87 8.93
6/1/2024 5:30:00 PM 19.8 67.64 0.077 7.39 0.83 8.89
6/1/2024 5:45:00 PM 19.79 67.622 0.076 7.38 0.85 8.86
6/1/2024 6:00:00 PM 19.79 67.622 0.076 7.38 0.88 8.84
6/1/2024 6:15:00 PM 19.78 67.604 0.076 7.38 0.79 8.79
6/1/2024 6:30:00 PM 19.72 67.496 0.076 7.37 0.84 8.74
6/1/2024 6:45:00 PM 19.63 67.334 0.076 7.35 0.77 8.71
6/1/2024 7:00:00 PM 19.59 67.262 0.076 7.34 0.91 8.69
6/1/2024 7:15:00 PM 19.53 67.154 0.077 7.33 0.86 8.66
6/1/2024 7:30:00 PM 19.43 66.974 0.077 7.32 0.83 8.63
6/1/2024 7:45:00 PM 19.33 66.794 0.077 7.31 0.79 8.61
6/1/2024 8:00:00 PM 19.22 66.596 0.077 7.3 0.87 8.6
6/1/2024 8:15:00 PM 19.1 66.38 0.077 7.29 0.87 8.59
6/1/2024 8:30:00 PM 18.96 66.128 0.077 7.28 0.9 8.58
6/1/2024 8:45:00 PM 18.81 65.858 0.077 7.27 1 8.57
6/1/2024 9:00:00 PM 18.66 65.588 0.078 7.26 0.87 8.57
6/1/2024 9:15:00 PM 18.5 65.3 0.078 7.25 1.05 8.58
6/1/2024 9:30:00 PM 18.35 65.03 0.078 7.25 1.04 8.59
6/1/2024 9:45:00 PM 18.21 64.778 0.078 7.24 1.08 8.61
6/1/2024 10:00:00 PM 18.08 64.544 0.078 7.25 1.11 8.63
6/1/2024 10:15:00 PM 17.94 64.292 0.078 7.24 1.27 8.65
6/1/2024 10:30:00 PM 17.82 64.076 0.078 7.24 1.25 8.67
6/1/2024 10:45:00 PM 17.69 63.842 0.078 7.24 1.17 8.69
6/1/2024 11:00:00 PM 17.57 63.626 0.078 7.24 1.26 8.71
6/1/2024 11:15:00 PM 17.45 63.41 0.078 7.23 1.19 8.73
6/1/2024 11:30:00 PM 17.33 63.194 0.078 7.24 1.3 8.76
6/1/2024 11:45:00 PM 17.22 62.996 0.078 7.23 1.27 8.78
6/2/2024 12:00:00 AM 17.12 62.816 0.078 7.23 1.24 8.8
6/2/2024 12:15:00 AM 17.01 62.618 0.078 7.24 1.31 8.82
6/2/2024 12:30:00 AM 16.92 62.456 0.079 7.24 1.23 8.85
6/2/2024 12:45:00 AM 16.82 62.276 0.079 7.23 1.47 8.87
6/2/2024 1:00:00 AM 16.72 62.096 0.079 7.23 1.37 8.89
6/2/2024 1:15:00 AM 16.63 61.934 0.079 7.23 1.28 8.91
6/2/2024 1:30:00 AM 16.52 61.736 0.078 7.23 1.15 8.94
6/2/2024 1:45:00 AM 16.42 61.556 0.079 7.23 1.21 8.96
6/2/2024 2:00:00 AM 16.33 61.394 0.078 7.23 1.16 8.98
6/2/2024 2:15:00 AM 16.24 61.232 0.079 7.23 1.36 9
6/2/2024 2:30:00 AM 16.15 61.07 0.079 7.23 1.28 9.02
6/2/2024 2:45:00 AM 16.06 60.908 0.079 7.23 1.19 9.05
6/2/2024 3:00:00 AM 15.96 60.728 0.079 7.22 1.27 9.07
6/2/2024 3:15:00 AM 15.85 60.53 0.079 7.23 1.19 9.09
6/2/2024 3:30:00 AM 15.76 60.368 0.078 7.23 1.26 9.11
6/2/2024 3:45:00 AM 15.66 60.188 0.079 7.23 1.33 9.13
6/2/2024 4:00:00 AM 15.56 60.008 0.078 7.23 1.23 9.16
6/2/2024 4:15:00 AM 15.46 59.828 0.079 7.23 1.32 9.18
6/2/2024 4:30:00 AM 15.37 59.666 0.079 7.23 1.22 9.2
6/2/2024 4:45:00 AM 15.27 59.486 0.079 7.22 1.25 9.22
6/2/2024 5:00:00 AM 15.18 59.324 0.079 7.23 1.3 9.25
6/2/2024 5:15:00 AM 15.1 59.18 0.079 7.22 1.23 9.26
6/2/2024 5:30:00 AM 15.02 59.036 0.079 7.22 1.5 9.29
6/2/2024 5:45:00 AM 14.94 58.892 0.079 7.23 1.36 9.31
6/2/2024 6:00:00 AM 14.87 58.766 0.079 7.23 1.16 9.33
6/2/2024 6:15:00 AM 14.82 58.676 0.078 7.23 1.13 9.37
6/2/2024 6:30:00 AM 14.76 58.568 0.079 7.24 1.17 9.4
6/2/2024 6:45:00 AM 14.72 58.496 0.079 7.25 1.13 9.45
6/2/2024 7:00:00 AM 14.7 58.46 0.078 7.26 1.02 9.51
6/2/2024 7:15:00 AM 14.67 58.406 0.078 7.26 1.03 9.55
6/2/2024 7:30:00 AM 14.65 58.37 0.079 7.27 0.97 9.59
6/2/2024 7:45:00 AM 14.65 58.37 0.078 7.28 0.88 9.64
6/2/2024 8:00:00 AM 14.66 58.388 0.078 7.29 0.89 9.68
6/2/2024 8:15:00 AM 14.67 58.406 0.078 7.3 0.82 9.72
6/2/2024 8:30:00 AM 14.69 58.442 0.078 7.31 0.93 9.74
6/2/2024 8:45:00 AM 14.73 58.514 0.078 7.32 0.88 9.78
6/2/2024 9:00:00 AM 14.79 58.622 0.078 7.33 0.9 9.81
6/2/2024 9:15:00 AM 14.84 58.712 0.078 7.33 0.84 9.82
6/2/2024 9:30:00 AM 14.88 58.784 0.078 7.34 0.79 9.83
6/2/2024 9:45:00 AM 14.97 58.946 0.077 7.35 0.93 9.85
6/2/2024 10:00:00 AM 15.05 59.09 0.078 7.35 0.89 9.86
6/2/2024 10:15:00 AM 15.11 59.198 0.078 7.36 0.84 9.85
6/2/2024 10:30:00 AM 15.17 59.306 0.077 7.37 0.81 9.84
6/2/2024 10:45:00 AM 15.22 59.396 0.078 7.37 0.85 9.83
6/2/2024 11:00:00 AM 15.3 59.54 0.077 7.38 0.96 9.83
6/2/2024 11:15:00 AM 15.4 59.72 0.078 7.38 0.84 9.82
6/2/2024 11:30:00 AM 15.58 60.044 0.077 7.39 0.83 9.83
6/2/2024 11:45:00 AM 15.72 60.296 0.077 7.4 0.7 9.81
6/2/2024 12:00:00 PM 15.79 60.422 0.077 7.41 0.85 9.8
6/2/2024 12:15:00 PM 15.85 60.53 0.077 7.41 0.76 9.78
6/2/2024 12:30:00 PM 15.88 60.584 0.077 7.4 0.73 9.75
6/2/2024 12:45:00 PM 15.95 60.71 0.077 7.41 0.78 9.74
6/2/2024 1:00:00 PM 16.06 60.908 0.077 7.41 0.78 9.73
6/2/2024 1:15:00 PM 16.13 61.034 0.076 7.42 0.79 9.71
6/2/2024 1:30:00 PM 16.2 61.16 0.077 7.42 0.75 9.68
6/2/2024 1:45:00 PM 16.38 61.484 0.077 7.42 0.78 9.68
6/2/2024 2:00:00 PM 16.5 61.7 0.076 7.43 0.73 9.66
6/2/2024 2:15:00 PM 16.66 61.988 0.076 7.44 0.76 9.64
6/2/2024 2:30:00 PM 16.73 62.114 0.076 7.43 0.75 9.61
6/2/2024 2:45:00 PM 16.86 62.348 0.076 7.44 0.74 9.6
6/2/2024 3:00:00 PM 17.02 62.636 0.076 7.45 0.75 9.58
6/2/2024 3:15:00 PM 17.06 62.708 0.076 7.44 0.72 9.54
6/2/2024 3:30:00 PM 17.05 62.69 0.076 7.43 0.74 9.5
6/2/2024 3:45:00 PM 17.09 62.762 0.076 7.43 0.73 9.47
6/2/2024 4:00:00 PM 17.16 62.888 0.076 7.43 0.71 9.45
6/2/2024 4:15:00 PM 17.2 62.96 0.076 7.42 0.77 9.41
6/2/2024 4:30:00 PM 17.2 62.96 0.076 7.41 0.66 9.35
6/2/2024 4:45:00 PM 17.21 62.978 0.076 7.39 0.81 9.3
6/2/2024 5:00:00 PM 17.24 63.032 0.076 7.38 0.73 9.27
6/2/2024 5:15:00 PM 17.24 63.032 0.076 7.38 0.96 9.22
6/2/2024 5:30:00 PM 17.22 62.996 0.076 7.36 0.85 9.17
6/2/2024 5:45:00 PM 17.23 63.014 0.076 7.35 0.77 9.16
6/2/2024 6:00:00 PM 17.21 62.978 0.076 7.35 0.9 9.13
6/2/2024 6:15:00 PM 17.18 62.924 0.076 7.34 0.78 9.09
6/2/2024 6:30:00 PM 17.16 62.888 0.077 7.32 0.79 9.07
6/2/2024 6:45:00 PM 17.14 62.852 0.077 7.31 0.69 9.05
6/2/2024 7:00:00 PM 17.13 62.834 0.077 7.31 0.84 9.06
6/2/2024 7:15:00 PM 17.11 62.798 0.077 7.31 0.82 9.05
6/2/2024 7:30:00 PM 17.08 62.744 0.077 7.29 0.77 9.03
6/2/2024 7:45:00 PM 17.05 62.69 0.078 7.29 0.77 9.02
6/2/2024 8:00:00 PM 17.02 62.636 0.077 7.27 0.79 8.99
6/2/2024 8:15:00 PM 16.99 62.582 0.078 7.27 0.75 8.97
6/2/2024 8:30:00 PM 16.96 62.528 0.078 7.26 0.78 8.95
6/2/2024 8:45:00 PM 16.93 62.474 0.078 7.25 0.77 8.94
6/2/2024 9:00:00 PM 16.9 62.42 0.078 7.24 0.95 8.92
6/2/2024 9:15:00 PM 16.87 62.366 0.078 7.23 1.05 8.92
6/2/2024 9:30:00 PM 16.84 62.312 0.078 7.22 1.13 8.91
6/2/2024 9:45:00 PM 16.82 62.276 0.078 7.21 1.07 8.9
6/2/2024 10:00:00 PM 16.79 62.222 0.078 7.21 1.19 8.9
6/2/2024 10:15:00 PM 16.77 62.186 0.078 7.2 1.04 8.89
6/2/2024 10:30:00 PM 16.75 62.15 0.078 7.2 1.33 8.89
6/2/2024 10:45:00 PM 16.72 62.096 0.079 7.19 1.3 8.89
6/2/2024 11:00:00 PM 16.7 62.06 0.079 7.19 1.11 8.89
6/2/2024 11:15:00 PM 16.68 62.024 0.079 7.18 1.03 8.89
6/2/2024 11:30:00 PM 16.66 61.988 0.079 7.18 1.12 8.89
6/2/2024 11:45:00 PM 16.64 61.952 0.079 7.18 1.28 8.9
6/3/2024 12:00:00 AM 16.62 61.916 0.079 7.18 1.13 8.9
6/3/2024 12:15:00 AM 16.6 61.88 0.08 7.18 1.15 8.91
6/3/2024 12:30:00 AM 16.58 61.844 0.08 7.18 1.23 8.92
6/3/2024 12:45:00 AM 16.55 61.79 0.08 7.19 1.1 8.92
6/3/2024 1:00:00 AM 16.52 61.736 0.08 7.19 1.09 8.93
6/3/2024 1:15:00 AM 16.49 61.682 0.08 7.18 1.17 8.94
6/3/2024 1:30:00 AM 16.46 61.628 0.08 7.18 1.09 8.94
6/3/2024 1:45:00 AM 16.43 61.574 0.08 7.18 1.12 8.95
6/3/2024 2:00:00 AM 16.4 61.52 0.08 7.18 1.22 8.96
6/3/2024 2:15:00 AM 16.38 61.484 0.08 7.18 1.08 8.96
6/3/2024 2:30:00 AM 16.35 61.43 0.08 7.18 1.03 8.97
6/3/2024 2:45:00 AM 16.32 61.376 0.08 7.19 1.13 8.98
6/3/2024 3:00:00 AM 16.3 61.34 0.081 7.18 1.1 8.98
6/3/2024 3:15:00 AM 16.27 61.286 0.081 7.18 1.26 8.99
6/3/2024 3:30:00 AM 16.25 61.25 0.081 7.18 1.22 9
6/3/2024 3:45:00 AM 16.22 61.196 0.081 7.19 1.28 9
6/3/2024 4:00:00 AM 16.19 61.142 0.081 7.18 1.13 9.01
6/3/2024 4:15:00 AM 16.16 61.088 0.081 7.19 1.22 9.02
6/3/2024 4:30:00 AM 16.14 61.052 0.081 7.18 1.15 9.03
6/3/2024 4:45:00 AM 16.12 61.016 0.081 7.18 1.26 9.03
6/3/2024 5:00:00 AM 16.09 60.962 0.081 7.18 1.17 9.04
6/3/2024 5:15:00 AM 16.07 60.926 0.082 7.18 1.27 9.04
6/3/2024 5:30:00 AM 16.04 60.872 0.081 7.18 1.2 9.06
6/3/2024 5:45:00 AM 16.01 60.818 0.082 7.18 1.16 9.06
6/3/2024 6:00:00 AM 15.99 60.782 0.082 7.18 1.16 9.08
6/3/2024 6:15:00 AM 15.98 60.764 0.082 7.2 1.14 9.1
6/3/2024 6:30:00 AM 15.96 60.728 0.082 7.19 1.11 9.13
6/3/2024 6:45:00 AM 15.96 60.728 0.082 7.2 1.05 9.16
6/3/2024 7:00:00 AM 15.95 60.71 0.082 7.2 1.09 9.19
6/3/2024 7:15:00 AM 15.94 60.692 0.082 7.21 1.22 9.22
6/3/2024 7:30:00 AM 15.93 60.674 0.082 7.21 1.02 9.22
6/3/2024 7:45:00 AM 15.93 60.674 0.082 7.22 1.26 9.23
6/3/2024 8:00:00 AM 15.96 60.728 0.082 7.24 0.93 9.3
6/3/2024 8:15:00 AM 16 60.8 0.082 7.25 0.89 9.36
6/3/2024 8:30:00 AM 16.03 60.854 0.082 7.27 0.86 9.39
6/3/2024 8:45:00 AM 16.03 60.854 0.082 7.28 0.88 9.39
6/3/2024 9:00:00 AM 16.03 60.854 0.082 7.27 0.83 9.38
6/3/2024 9:15:00 AM 16.06 60.908 0.082 7.28 0.84 9.41
6/3/2024 9:30:00 AM 16.12 61.016 0.082 7.29 0.81 9.45
6/3/2024 9:45:00 AM 16.18 61.124 0.082 7.3 0.85 9.48
6/3/2024 10:00:00 AM 16.25 61.25 0.082 7.32 0.8 9.5
6/3/2024 10:15:00 AM 16.29 61.322 0.082 7.32 0.85 9.5
6/3/2024 10:30:00 AM 16.47 61.646 0.082 7.34 0.88 9.52
6/3/2024 10:45:00 AM 16.74 62.132 0.082 7.35 0.82 9.54
6/3/2024 11:00:00 AM 17.08 62.744 0.082 7.37 0.86 9.53
6/3/2024 11:15:00 AM 17.24 63.032 0.081 7.37 0.77 9.52
6/3/2024 11:30:00 AM 17.29 63.122 0.081 7.38 0.85 9.49
6/3/2024 11:45:00 AM 17.62 63.716 0.081 7.39 0.75 9.48
6/3/2024 12:00:00 PM 17.67 63.806 0.081 7.4 0.85 9.45
6/3/2024 12:15:00 PM 18 64.4 0.081 7.4 0.77 9.43
6/3/2024 12:30:00 PM 18.34 65.012 0.081 7.4 0.86 9.38
6/3/2024 12:45:00 PM 18.44 65.192 0.081 7.39 0.68 9.32
6/3/2024 1:00:00 PM 18.77 65.786 0.081 7.4 0.69 9.28
6/3/2024 1:15:00 PM 19.16 66.488 0.081 7.4 0.71 9.23
6/3/2024 1:30:00 PM 19.33 66.794 0.081 7.4 0.73 9.15
6/3/2024 1:45:00 PM 19.44 66.992 0.081 7.4 0.62 9.11
6/3/2024 2:00:00 PM 19.61 67.298 0.081 7.4 0.71 9.09
6/3/2024 2:15:00 PM 19.98 67.964 0.081 7.4 0.61 9.05
6/3/2024 2:30:00 PM 20.42 68.756 0.08 7.41 0.66 8.99
6/3/2024 2:45:00 PM 20.61 69.098 0.08 7.41 0.62 8.93
6/3/2024 3:00:00 PM 20.52 68.936 0.08 7.41 0.73 8.87
6/3/2024 3:15:00 PM 20.73 69.314 0.08 7.4 0.64 8.85
6/3/2024 3:30:00 PM 20.75 69.35 0.08 7.4 0.64 8.79
6/3/2024 3:45:00 PM 20.66 69.188 0.08 7.39 0.77 8.74
6/3/2024 4:00:00 PM 21.01 69.818 0.08 7.39 0.83 8.74
6/3/2024 4:15:00 PM 21.39 70.502 0.08 7.39 0.64 8.68
6/3/2024 4:30:00 PM 21.51 70.718 0.08 7.39 0.82 8.6
6/3/2024 4:45:00 PM 21.52 70.736 0.08 7.38 0.76 8.54
6/3/2024 5:00:00 PM 21.5 70.7 0.08 7.36 0.82 8.5
6/3/2024 5:15:00 PM 21.52 70.736 0.079 7.36 0.76 8.48
6/3/2024 5:30:00 PM 21.63 70.934 0.079 7.36 0.77 8.44
6/3/2024 5:45:00 PM 21.75 71.15 0.079 7.35 0.74 8.41
6/3/2024 6:00:00 PM 21.76 71.168 0.08 7.35 0.7 8.35
6/3/2024 6:15:00 PM 21.74 71.132 0.08 7.34 0.75 8.32
6/3/2024 6:30:00 PM 21.76 71.168 0.079 7.34 0.71 8.31
6/3/2024 6:45:00 PM 21.75 71.15 0.079 7.33 0.83 8.27
6/3/2024 7:00:00 PM 21.68 71.024 0.08 7.32 0.82 8.24
6/3/2024 7:15:00 PM 21.59 70.862 0.08 7.31 0.81 8.21
6/3/2024 7:30:00 PM 21.46 70.628 0.08 7.3 0.89 8.19
6/3/2024 7:45:00 PM 21.34 70.412 0.08 7.29 0.86 8.18
6/3/2024 8:00:00 PM 21.2 70.16 0.08 7.28 0.87 8.16
6/3/2024 8:15:00 PM 21.05 69.89 0.08 7.28 0.79 8.16
6/3/2024 8:30:00 PM 20.9 69.62 0.08 7.26 0.89 8.15
6/3/2024 8:45:00 PM 20.73 69.314 0.08 7.25 0.88 8.14
6/3/2024 9:00:00 PM 20.57 69.026 0.08 7.24 0.88 8.14
6/3/2024 9:15:00 PM 20.4 68.72 0.08 7.23 1.18 8.15
6/3/2024 9:30:00 PM 20.23 68.414 0.08 7.23 1.28 8.16
6/3/2024 9:45:00 PM 20.07 68.126 0.08 7.23 1.21 8.18
6/3/2024 10:00:00 PM 19.93 67.874 0.08 7.22 1.31 8.2
6/3/2024 10:15:00 PM 19.8 67.64 0.08 7.22 1.27 8.22
6/3/2024 10:30:00 PM 19.66 67.388 0.081 7.22 1.3 8.24
6/3/2024 10:45:00 PM 19.55 67.19 0.08 7.22 1.32 8.26
6/3/2024 11:00:00 PM 19.45 67.01 0.081 7.21 1.27 8.28
6/3/2024 11:15:00 PM 19.36 66.848 0.081 7.21 1.29 8.3
6/3/2024 11:30:00 PM 19.27 66.686 0.081 7.21 1.26 8.31
6/3/2024 11:45:00 PM 19.19 66.542 0.081 7.21 1.28 8.32
6/4/2024 12:00:00 AM 19.11 66.398 0.081 7.21 1.31 8.34
6/4/2024 12:15:00 AM 19.04 66.272 0.081 7.21 1.29 8.35
6/4/2024 12:30:00 AM 18.98 66.164 0.081 7.21 1.21 8.37
6/4/2024 12:45:00 AM 18.91 66.038 0.081 7.21 1.36 8.38
6/4/2024 1:00:00 AM 18.84 65.912 0.081 7.21 1.42 8.39
6/4/2024 1:15:00 AM 18.77 65.786 0.081 7.21 1.3 8.41
6/4/2024 1:30:00 AM 18.68 65.624 0.081 7.21 1.35 8.43
6/4/2024 1:45:00 AM 18.61 65.498 0.081 7.21 1.35 8.45
6/4/2024 2:00:00 AM 18.53 65.354 0.081 7.21 1.39 8.46
6/4/2024 2:15:00 AM 18.45 65.21 0.082 7.21 1.31 8.48
6/4/2024 2:30:00 AM 18.36 65.048 0.081 7.21 1.35 8.5
6/4/2024 2:45:00 AM 18.28 64.904 0.082 7.21 1.36 8.51
6/4/2024 3:00:00 AM 18.22 64.796 0.082 7.21 1.33 8.53
6/4/2024 3:15:00 AM 18.16 64.688 0.082 7.21 1.22 8.54
6/4/2024 3:30:00 AM 18.11 64.598 0.081 7.22 1.33 8.56
6/4/2024 3:45:00 AM 18.05 64.49 0.081 7.21 1.35 8.58
6/4/2024 4:00:00 AM 17.99 64.382 0.082 7.21 1.32 8.59
6/4/2024 4:15:00 AM 17.93 64.274 0.082 7.22 1.3 8.6
6/4/2024 4:30:00 AM 17.87 64.166 0.082 7.22 1.33 8.62
6/4/2024 4:45:00 AM 17.82 64.076 0.082 7.21 1.35 8.63
6/4/2024 5:00:00 AM 17.76 63.968 0.082 7.22 1.34 8.65
6/4/2024 5:15:00 AM 17.7 63.86 0.082 7.22 1.36 8.66
6/4/2024 5:30:00 AM 17.64 63.752 0.082 7.23 1.34 8.68
6/4/2024 5:45:00 AM 17.58 63.644 0.082 7.22 1.43 8.69
6/4/2024 6:00:00 AM 17.52 63.536 0.082 7.23 1.25 8.72
6/4/2024 6:15:00 AM 17.47 63.446 0.082 7.23 1.23 8.74
6/4/2024 6:30:00 AM 17.42 63.356 0.082 7.24 1.2 8.78
6/4/2024 6:45:00 AM 17.38 63.284 0.082 7.24 1.37 8.82
6/4/2024 7:00:00 AM 17.34 63.212 0.082 7.26 1.16 8.87
6/4/2024 7:15:00 AM 17.31 63.158 0.082 7.26 1.16 8.9
6/4/2024 7:30:00 AM 17.28 63.104 0.081 7.27 1.19 8.95
6/4/2024 7:45:00 AM 17.27 63.086 0.082 7.28 1.1 9.01
6/4/2024 8:00:00 AM 17.27 63.086 0.081 7.29 1.09 9.06
6/4/2024 8:15:00 AM 17.29 63.122 0.081 7.3 1.12 9.12
6/4/2024 8:30:00 AM 17.32 63.176 0.081 7.31 1.03 9.16
6/4/2024 8:45:00 AM 17.35 63.23 0.081 7.32 1.05 9.18
6/4/2024 9:00:00 AM 17.42 63.356 0.081 7.32 1.06 9.19
6/4/2024 9:15:00 AM 17.54 63.572 0.081 7.33 0.92 9.19
6/4/2024 9:30:00 AM 17.67 63.806 0.081 7.35 1.14 9.2
6/4/2024 9:45:00 AM 17.81 64.058 0.081 7.34 0.84 9.21
6/4/2024 10:00:00 AM 17.98 64.364 0.081 7.35 1.04 9.2
6/4/2024 10:15:00 AM 18.15 64.67 0.081 7.35 0.86 9.19
6/4/2024 10:30:00 AM 18.35 65.03 0.081 7.36 0.85 9.17
6/4/2024 10:45:00 AM 18.58 65.444 0.081 7.36 1.06 9.15
6/4/2024 11:00:00 AM 18.83 65.894 0.081 7.37 0.85 9.13
6/4/2024 11:15:00 AM 19.07 66.326 0.08 7.38 0.87 9.11
6/4/2024 11:30:00 AM 19.26 66.668 0.08 7.39 0.92 9.09
6/4/2024 11:45:00 AM 19.59 67.262 0.08 7.39 0.84 9.07
6/4/2024 12:00:00 PM 19.86 67.748 0.08 7.4 0.81 9.01
6/4/2024 12:15:00 PM 20.14 68.252 0.08 7.41 0.76 8.98
6/4/2024 12:30:00 PM 20.33 68.594 0.08 7.42 0.78 8.95
6/4/2024 12:45:00 PM 20.47 68.846 0.08 7.42 0.8 8.92
6/4/2024 1:00:00 PM 20.57 69.026 0.08 7.43 0.81 8.9
6/4/2024 1:15:00 PM 20.76 69.368 0.08 7.42 0.87 8.86
6/4/2024 1:30:00 PM 20.89 69.602 0.08 7.44 0.84 8.84
6/4/2024 1:45:00 PM 21.06 69.908 0.08 7.43 0.84 8.82
6/4/2024 2:00:00 PM 21.43 70.574 0.08 7.44 0.75 8.79
6/4/2024 2:15:00 PM 21.72 71.096 0.08 7.45 0.83 8.74
6/4/2024 2:30:00 PM 21.85 71.33 0.08 7.45 0.76 8.69
6/4/2024 2:45:00 PM 22.05 71.69 0.08 7.45 0.72 8.67
6/4/2024 3:00:00 PM 22.18 71.924 0.08 7.45 0.79 8.63
6/4/2024 3:15:00 PM 22.42 72.356 0.079 7.45 0.8 8.59
6/4/2024 3:30:00 PM 22.47 72.446 0.079 7.45 0.71 8.54
6/4/2024 3:45:00 PM 22.63 72.734 0.08 7.44 0.75 8.51
6/4/2024 4:00:00 PM 22.72 72.896 0.079 7.44 0.82 8.49
6/4/2024 4:15:00 PM 22.81 73.058 0.079 7.44 0.73 8.44
6/4/2024 4:30:00 PM 22.82 73.076 0.08 7.44 0.84 8.41
6/4/2024 4:45:00 PM 22.85 73.13 0.079 7.44 0.77 8.4
6/4/2024 5:00:00 PM 22.86 73.148 0.079 7.44 0.91 8.38
6/4/2024 5:15:00 PM 22.86 73.148 0.079 7.43 0.66 8.35
6/4/2024 5:30:00 PM 22.84 73.112 0.079 7.43 0.73 8.31
6/4/2024 5:45:00 PM 22.76 72.968 0.08 7.41 0.76 8.25
6/4/2024 6:00:00 PM 22.71 72.878 0.079 7.4 0.87 8.23
6/4/2024 6:15:00 PM 22.7 72.86 0.08 7.39 0.84 8.2
6/4/2024 6:30:00 PM 22.67 72.806 0.08 7.38 0.84 8.16
6/4/2024 6:45:00 PM 22.63 72.734 0.08 7.37 0.75 8.13
6/4/2024 7:00:00 PM 22.6 72.68 0.08 7.36 0.91 8.11
6/4/2024 7:15:00 PM 22.54 72.57201 0.08 7.34 0.88 8.07
6/4/2024 7:30:00 PM 22.47 72.446 0.08 7.33 0.85 8.03
6/4/2024 7:45:00 PM 22.4 72.32 0.08 7.32 0.9 8.01
6/4/2024 8:00:00 PM 22.32 72.176 0.08 7.31 0.87 7.98
6/4/2024 8:15:00 PM 22.22 71.996 0.08 7.3 0.88 7.96
6/4/2024 8:30:00 PM 22.11 71.798 0.08 7.28 0.79 7.93
6/4/2024 8:45:00 PM 22 71.6 0.08 7.27 1.02 7.9
6/4/2024 9:00:00 PM 21.89 71.402 0.081 7.26 1.04 7.88
6/4/2024 9:15:00 PM 21.77 71.186 0.081 7.25 1.06 7.87
6/4/2024 9:30:00 PM 21.65 70.97 0.081 7.24 1.12 7.88
6/4/2024 9:45:00 PM 21.54 70.772 0.081 7.24 1.29 7.88
6/4/2024 10:00:00 PM 21.42 70.556 0.081 7.23 1.48 7.89
6/4/2024 10:15:00 PM 21.32 70.376 0.081 7.23 1.27 7.9
6/4/2024 10:30:00 PM 21.21 70.17799 0.081 7.22 1.34 7.91
6/4/2024 10:45:00 PM 21.11 69.998 0.081 7.22 1.39 7.93
6/4/2024 11:00:00 PM 21.01 69.818 0.081 7.22 1.28 7.94
6/4/2024 11:15:00 PM 20.9 69.62 0.081 7.22 1.2 7.95
6/4/2024 11:30:00 PM 20.81 69.458 0.081 7.22 1.27 7.97
6/4/2024 11:45:00 PM 20.71 69.278 0.081 7.22 1.35 7.99
6/5/2024 12:00:00 AM 20.61 69.098 0.082 7.22 1.67 8.01
6/5/2024 12:15:00 AM 20.52 68.936 0.082 7.21 1.45 8.03
6/5/2024 12:30:00 AM 20.42 68.756 0.082 7.22 1.51 8.05
6/5/2024 12:45:00 AM 20.32 68.576 0.082 7.21 1.34 8.06
6/5/2024 1:00:00 AM 20.23 68.414 0.082 7.21 1.46 8.08
6/5/2024 1:15:00 AM 20.14 68.252 0.082 7.21 1.37 8.1
6/5/2024 1:30:00 AM 20.05 68.09 0.082 7.21 1.46 8.11
6/5/2024 1:45:00 AM 19.95 67.91 0.082 7.21 1.31 8.14
6/5/2024 2:00:00 AM 19.86 67.748 0.082 7.21 1.36 8.16
6/5/2024 2:15:00 AM 19.77 67.586 0.082 7.21 1.25 8.17
6/5/2024 2:30:00 AM 19.67 67.406 0.082 7.21 1.26 8.19
6/5/2024 2:45:00 AM 19.58 67.244 0.082 7.22 1.32 8.21
6/5/2024 3:00:00 AM 19.49 67.082 0.082 7.21 1.41 8.23
6/5/2024 3:15:00 AM 19.4 66.92 0.083 7.21 1.19 8.25
6/5/2024 3:30:00 AM 19.32 66.776 0.083 7.22 1.28 8.27
6/5/2024 3:45:00 AM 19.24 66.632 0.083 7.21 1.29 8.28
6/5/2024 4:00:00 AM 19.15 66.47 0.083 7.21 1.26 8.3
6/5/2024 4:15:00 AM 19.07 66.326 0.083 7.21 1.3 8.32
6/5/2024 4:30:00 AM 18.98 66.164 0.083 7.22 1.35 8.34
6/5/2024 4:45:00 AM 18.9 66.02 0.083 7.21 1.37 8.35
6/5/2024 5:00:00 AM 18.82 65.876 0.083 7.21 1.45 8.37
6/5/2024 5:15:00 AM 18.74 65.732 0.083 7.21 1.36 8.39
6/5/2024 5:30:00 AM 18.67 65.606 0.083 7.22 1.3 8.41
6/5/2024 5:45:00 AM 18.61 65.498 0.083 7.21 1.29 8.42
6/5/2024 6:00:00 AM 18.55 65.39 0.083 7.21 1.36 8.45
6/5/2024 6:15:00 AM 18.5 65.3 0.083 7.22 1.35 8.47
6/5/2024 6:30:00 AM 18.45 65.21 0.083 7.22 1.32 8.51
6/5/2024 6:45:00 AM 18.42 65.156 0.083 7.24 1.27 8.57
6/5/2024 7:00:00 AM 18.4 65.12 0.083 7.25 1.29 8.62
6/5/2024 7:15:00 AM 18.39 65.102 0.083 7.27 1.19 8.68
6/5/2024 7:30:00 AM 18.37 65.066 0.083 7.27 1.23 8.73
6/5/2024 7:45:00 AM 18.37 65.066 0.083 7.28 1.19 8.78
6/5/2024 8:00:00 AM 18.38 65.084 0.083 7.29 1.03 8.83
6/5/2024 8:15:00 AM 18.42 65.156 0.083 7.31 1.12 8.89
6/5/2024 8:30:00 AM 18.46 65.228 0.083 7.32 1.06 8.92
6/5/2024 8:45:00 AM 18.5 65.3 0.082 7.33 1.2 8.94
6/5/2024 9:00:00 AM 18.56 65.408 0.083 7.33 1.09 8.97
6/5/2024 9:15:00 AM 18.63 65.534 0.082 7.34 1.28 9
6/5/2024 9:30:00 AM 18.69 65.642 0.082 7.36 1.04 9.01
6/5/2024 9:45:00 AM 18.76 65.768 0.082 7.36 0.99 9.02
6/5/2024 10:00:00 AM 18.84 65.912 0.082 7.37 1 9.03
6/5/2024 10:15:00 AM 18.92 66.056 0.082 7.38 1.05 9.03
6/5/2024 10:30:00 AM 19.02 66.236 0.082 7.4 0.96 9.04
6/5/2024 10:45:00 AM 19.15 66.47 0.081 7.4 1 9.04
6/5/2024 11:00:00 AM 19.26 66.668 0.082 7.41 0.98 9.03
6/5/2024 11:15:00 AM 19.34 66.812 0.082 7.42 0.98 9.02
6/5/2024 11:30:00 AM 19.39 66.902 0.081 7.42 1.04 8.98
6/5/2024 11:45:00 AM 19.47 67.046 0.081 7.42 0.98 8.97
6/5/2024 12:00:00 PM 19.64 67.352 0.081 7.44 1.05 8.99
6/5/2024 12:15:00 PM 19.81 67.658 0.081 7.44 0.85 8.97
6/5/2024 12:30:00 PM 19.91 67.838 0.081 7.45 0.99 8.97
6/5/2024 12:45:00 PM 19.98 67.964 0.081 7.44 0.91 8.93
6/5/2024 1:00:00 PM 20.01 68.018 0.081 7.45 0.9 8.9
6/5/2024 1:15:00 PM 20.02 68.036 0.081 7.45 1.06 8.87
6/5/2024 1:30:00 PM 20.07 68.126 0.081 7.45 0.91 8.85
6/5/2024 1:45:00 PM 20.14 68.252 0.081 7.45 0.89 8.83
6/5/2024 2:00:00 PM 20.26 68.468 0.081 7.45 0.93 8.83
6/5/2024 2:15:00 PM 20.39 68.702 0.081 7.46 1.01 8.82
6/5/2024 2:30:00 PM 20.49 68.882 0.081 7.46 0.82 8.81
6/5/2024 2:45:00 PM 20.56 69.008 0.08 7.46 0.86 8.79
6/5/2024 3:00:00 PM 20.57 69.026 0.08 7.46 0.94 8.74
6/5/2024 3:15:00 PM 20.65 69.17 0.08 7.46 0.97 8.74
6/5/2024 3:30:00 PM 20.67 69.206 0.08 7.45 0.95 8.69
6/5/2024 3:45:00 PM 20.64 69.152 0.08 7.44 0.96 8.63
6/5/2024 4:00:00 PM 20.61 69.098 0.08 7.42 0.88 8.58
6/5/2024 4:15:00 PM 20.65 69.17 0.081 7.41 0.88 8.58
6/5/2024 4:30:00 PM 20.73 69.314 0.08 7.42 1.29 8.62
6/5/2024 4:45:00 PM 20.76 69.368 0.08 7.42 0.97 8.61
6/5/2024 5:00:00 PM 20.76 69.368 0.08 7.41 0.96 8.57
6/5/2024 5:15:00 PM 20.81 69.458 0.08 7.42 0.81 8.57
6/5/2024 5:30:00 PM 20.83 69.494 0.08 7.42 0.85 8.56
6/5/2024 5:45:00 PM 20.83 69.494 0.08 7.41 0.97 8.53
6/5/2024 6:00:00 PM 20.84 69.512 0.08 7.41 0.86 8.52
6/5/2024 6:15:00 PM 20.83 69.494 0.08 7.4 0.9 8.49
6/5/2024 6:30:00 PM 20.8 69.44 0.08 7.39 0.94 8.46
6/5/2024 6:45:00 PM 20.76 69.368 0.08 7.38 0.81 8.41
6/5/2024 7:00:00 PM 20.73 69.314 0.08 7.36 0.92 8.36
6/5/2024 7:15:00 PM 20.7 69.26 0.08 7.34 0.78 8.31
6/5/2024 7:30:00 PM 20.67 69.206 0.08 7.33 0.97 8.27
6/5/2024 7:45:00 PM 20.63 69.134 0.08 7.31 0.9 8.23
6/5/2024 8:00:00 PM 20.59 69.062 0.08 7.3 0.91 8.2
6/5/2024 8:15:00 PM 20.54 68.972 0.081 7.28 0.97 8.17
6/5/2024 8:30:00 PM 20.49 68.882 0.081 7.26 1.16 8.14
6/5/2024 8:45:00 PM 20.44 68.792 0.081 7.25 1.23 8.12
6/5/2024 9:00:00 PM 20.39 68.702 0.081 7.24 1.11 8.1
6/5/2024 9:15:00 PM 20.34 68.612 0.081 7.23 1.26 8.09
6/5/2024 9:30:00 PM 20.3 68.54 0.081 7.22 1.27 8.09
6/5/2024 9:45:00 PM 20.26 68.468 0.082 7.21 1.3 8.09
6/5/2024 10:00:00 PM 20.21 68.378 0.082 7.2 1.21 8.09
6/5/2024 10:15:00 PM 20.17 68.306 0.082 7.2 1.31 8.09
6/5/2024 10:30:00 PM 20.12 68.216 0.082 7.2 1.24 8.09
6/5/2024 10:45:00 PM 20.08 68.144 0.082 7.2 1.41 8.1
6/5/2024 11:00:00 PM 20.04 68.07201 0.082 7.19 1.34 8.1
6/5/2024 11:15:00 PM 19.99 67.982 0.082 7.18 1.38 8.11
6/5/2024 11:30:00 PM 19.95 67.91 0.082 7.19 1.35 8.11
6/5/2024 11:45:00 PM 19.91 67.838 0.082 7.18 1.28 8.12
6/6/2024 12:00:00 AM 19.86 67.748 0.082 7.18 1.32 8.12
6/6/2024 12:15:00 AM 19.82 67.676 0.082 7.17 1.31 8.13
6/6/2024 12:30:00 AM 19.78 67.604 0.082 7.17 1.42 8.13
6/6/2024 12:45:00 AM 19.75 67.55 0.082 7.18 1.38 8.14
6/6/2024 1:00:00 AM 19.71 67.478 0.083 7.18 1.34 8.14
6/6/2024 1:15:00 AM 19.66 67.388 0.083 7.17 1.48 8.15
6/6/2024 1:30:00 AM 19.63 67.334 0.083 7.17 1.35 8.16
6/6/2024 1:45:00 AM 19.59 67.262 0.083 7.17 1.37 8.17
6/6/2024 2:00:00 AM 19.56 67.208 0.083 7.17 1.36 8.17
6/6/2024 2:15:00 AM 19.53 67.154 0.083 7.17 1.38 8.18
6/6/2024 2:30:00 AM 19.49 67.082 0.083 7.17 1.36 8.19
6/6/2024 2:45:00 AM 19.46 67.028 0.083 7.16 1.38 8.19
6/6/2024 3:00:00 AM 19.43 66.974 0.083 7.17 1.35 8.19
6/6/2024 3:15:00 AM 19.41 66.938 0.083 7.16 1.34 8.2
6/6/2024 3:30:00 AM 19.38 66.884 0.084 7.16 1.35 8.2
6/6/2024 3:45:00 AM 19.35 66.83 0.083 7.16 1.34 8.21
6/6/2024 4:00:00 AM 19.32 66.776 0.084 7.16 1.33 8.21
6/6/2024 4:15:00 AM 19.3 66.74 0.083 7.16 1.38 8.22
6/6/2024 4:30:00 AM 19.27 66.686 0.083 7.16 1.64 8.22
6/6/2024 4:45:00 AM 19.24 66.632 0.082 7.16 1.89 8.24
6/6/2024 5:00:00 AM 19.21 66.578 0.083 7.14 2.05 8.21
6/6/2024 5:15:00 AM 19.18 66.524 0.082 7.14 1.98 8.19
6/6/2024 5:30:00 AM 19.15 66.47 0.083 7.14 2.75 8.19
6/6/2024 5:45:00 AM 19.12 66.416 0.083 7.15 2.75 8.2
6/6/2024 6:00:00 AM 19.1 66.38 0.083 7.15 2.57 8.2
6/6/2024 6:15:00 AM 19.08 66.344 0.083 7.15 2.38 8.21
6/6/2024 6:30:00 AM 19.06 66.308 0.083 7.16 2.1 8.22
6/6/2024 6:45:00 AM 19.05 66.29 0.083 7.15 2.18 8.23
6/6/2024 7:00:00 AM 19.04 66.272 0.083 7.16 2 8.26
6/6/2024 7:15:00 AM 19.02 66.236 0.083 7.17 1.82 8.28
6/6/2024 7:30:00 AM 19.01 66.218 0.083 7.18 2.03 8.31
6/6/2024 7:45:00 AM 19 66.2 0.083 7.18 1.83 8.33
6/6/2024 8:00:00 AM 19.01 66.218 0.083 7.19 1.74 8.36
6/6/2024 8:15:00 AM 19.01 66.218 0.083 7.2 1.82 8.4
6/6/2024 8:30:00 AM 19.02 66.236 0.083 7.21 1.77 8.42
6/6/2024 8:45:00 AM 19.02 66.236 0.082 7.22 1.81 8.45
6/6/2024 9:00:00 AM 19.04 66.272 0.083 7.23 1.9 8.49
6/6/2024 9:15:00 AM 19.06 66.308 0.082 7.25 1.5 8.53
6/6/2024 9:30:00 AM 19.1 66.38 0.082 7.27 1.6 8.56
6/6/2024 9:45:00 AM 19.14 66.452 0.082 7.28 1.6 8.61
6/6/2024 10:00:00 AM 19.19 66.542 0.082 7.29 1.45 8.65
6/6/2024 10:15:00 AM 19.21 66.578 0.082 7.3 1.48 8.66
6/6/2024 10:30:00 AM 19.27 66.686 0.082 7.31 1.63 8.69
6/6/2024 10:45:00 AM 19.38 66.884 0.082 7.33 1.48 8.75
6/6/2024 11:00:00 AM 19.51 67.118 0.081 7.35 1.58 8.8
6/6/2024 11:15:00 AM 19.61 67.298 0.082 7.35 1.57 8.81
6/6/2024 11:30:00 AM 19.73 67.514 0.081 7.36 1.64 8.8
6/6/2024 11:45:00 AM 19.85 67.73 0.081 7.38 1.65 8.8
6/6/2024 12:00:00 PM 20.07 68.126 0.081 7.38 1.59 8.8
6/6/2024 12:15:00 PM 20.11 68.198 0.081 7.38 1.51 8.76
6/6/2024 12:30:00 PM 20.06 68.108 0.081 7.38 1.63 8.74
6/6/2024 12:45:00 PM 20.13 68.234 0.081 7.39 1.64 8.74
6/6/2024 1:00:00 PM 20.59 69.062 0.081 7.4 1.59 8.75
6/6/2024 1:15:00 PM 21.08 69.944 0.081 7.41 1.39 8.71
6/6/2024 1:30:00 PM 21.44 70.592 0.081 7.42 1.42 8.65
6/6/2024 1:45:00 PM 21.59 70.862 0.081 7.41 1.55 8.59
6/6/2024 2:00:00 PM 21.76 71.168 0.081 7.41 1.45 8.55
6/6/2024 2:15:00 PM 22.03 71.654 0.081 7.41 1.46 8.53
6/6/2024 2:30:00 PM 22.21 71.978 0.081 7.42 1.45 8.49
6/6/2024 2:45:00 PM 22.35 72.23 0.081 7.42 1.63 8.47
6/6/2024 3:00:00 PM 22.44 72.392 0.081 7.42 1.47 8.44
6/6/2024 3:15:00 PM 22.52 72.536 0.081 7.43 1.55 8.42
6/6/2024 3:30:00 PM 22.72 72.896 0.081 7.43 1.56 8.39
6/6/2024 3:45:00 PM 22.93 73.274 0.081 7.43 1.44 8.36
6/6/2024 4:00:00 PM 22.93 73.274 0.081 7.43 1.63 8.29
6/6/2024 4:15:00 PM 22.86 73.148 0.081 7.42 1.66 8.28
6/6/2024 4:30:00 PM 22.95 73.31 0.081 7.43 1.64 8.27
6/6/2024 4:45:00 PM 23.09 73.562 0.08 7.43 1.55 8.24
6/6/2024 5:00:00 PM 23.13 73.634 0.081 7.42 1.42 8.19
6/6/2024 5:15:00 PM 23.16 73.688 0.081 7.42 1.63 8.17
6/6/2024 5:30:00 PM 23.14 73.652 0.081 7.42 1.7 8.14
6/6/2024 5:45:00 PM 23.1 73.58 0.081 7.41 1.6 8.1
6/6/2024 6:00:00 PM 23.06 73.508 0.081 7.4 1.7 8.07
6/6/2024 6:15:00 PM 22.94 73.292 0.081 7.4 1.81 8.03
6/6/2024 6:30:00 PM 22.78 73.004 0.081 7.37 1.84 7.96
6/6/2024 6:45:00 PM 22.67 72.806 0.081 7.35 1.75 7.91
6/6/2024 7:00:00 PM 22.54 72.57201 0.081 7.35 1.83 7.89
6/6/2024 7:15:00 PM 22.46 72.42799 0.081 7.34 1.87 7.88
6/6/2024 7:30:00 PM 22.36 72.248 0.081 7.34 2.25 7.89
6/6/2024 7:45:00 PM 22.24 72.032 0.081 7.33 2.44 7.88
6/6/2024 8:00:00 PM 22.11 71.798 0.081 7.33 2.25 7.89
6/6/2024 8:15:00 PM 21.95 71.51 0.081 7.32 2.45 7.91
6/6/2024 8:30:00 PM 21.8 71.24 0.081 7.32 2.32 7.91
6/6/2024 8:45:00 PM 21.65 70.97 0.081 7.31 2.43 7.9
6/6/2024 9:00:00 PM 21.51 70.718 0.081 7.3 2.7 7.91
6/6/2024 9:15:00 PM 21.36 70.448 0.081 7.29 2.74 7.91
6/6/2024 9:30:00 PM 21.21 70.17799 0.081 7.29 3 7.93
6/6/2024 9:45:00 PM 21.07 69.926 0.081 7.28 3.38 7.94
6/6/2024 10:00:00 PM 20.92 69.656 0.081 7.28 3.02 7.97
6/6/2024 10:15:00 PM 20.77 69.386 0.081 7.29 3.35 7.99
6/6/2024 10:30:00 PM 20.63 69.134 0.081 7.28 3.28 8.02
6/6/2024 10:45:00 PM 20.48 68.864 0.081 7.28 3.59 8.04
6/6/2024 11:00:00 PM 20.33 68.594 0.081 7.28 3.39 8.06
6/6/2024 11:15:00 PM 20.19 68.342 0.081 7.28 3.25 8.09
6/6/2024 11:30:00 PM 20.05 68.09 0.081 7.28 3.24 8.12
6/6/2024 11:45:00 PM 19.92 67.856 0.081 7.28 3.17 8.14
6/7/2024 12:00:00 AM 19.8 67.64 0.081 7.27 3.27 8.16
6/7/2024 12:15:00 AM 19.67 67.406 0.081 7.27 2.96 8.19
6/7/2024 12:30:00 AM 19.55 67.19 0.081 7.27 3.19 8.21
6/7/2024 12:45:00 AM 19.45 67.01 0.081 7.27 2.82 8.24
6/7/2024 1:00:00 AM 19.35 66.83 0.081 7.27 2.94 8.25
6/7/2024 1:15:00 AM 19.27 66.686 0.081 7.27 2.79 8.28
6/7/2024 1:30:00 AM 19.18 66.524 0.081 7.27 2.93 8.29
6/7/2024 1:45:00 AM 19.09 66.362 0.081 7.26 3.4 8.32
6/7/2024 2:00:00 AM 19 66.2 0.081 7.27 2.78 8.33
6/7/2024 2:15:00 AM 18.92 66.056 0.081 7.26 2.77 8.35
6/7/2024 2:30:00 AM 18.84 65.912 0.081 7.27 2.63 8.37
6/7/2024 2:45:00 AM 18.76 65.768 0.081 7.26 2.79 8.38
6/7/2024 3:00:00 AM 18.68 65.624 0.081 7.27 2.47 8.4
6/7/2024 3:15:00 AM 18.6 65.48 0.081 7.26 2.56 8.41
6/7/2024 3:30:00 AM 18.54 65.372 0.081 7.26 2.44 8.43
6/7/2024 3:45:00 AM 18.46 65.228 0.081 7.25 2.56 8.44
6/7/2024 4:00:00 AM 18.39 65.102 0.081 7.26 2.65 8.45
6/7/2024 4:15:00 AM 18.32 64.976 0.081 7.26 2.51 8.47
6/7/2024 4:30:00 AM 18.25 64.85 0.081 7.26 2.49 8.48
6/7/2024 4:45:00 AM 18.18 64.724 0.081 7.25 2.64 8.49
6/7/2024 5:00:00 AM 18.12 64.616 0.081 7.26 2.31 8.5
6/7/2024 5:15:00 AM 18.05 64.49 0.081 7.25 2.61 8.52
6/7/2024 5:30:00 AM 17.99 64.382 0.081 7.25 2.3 8.53
6/7/2024 5:45:00 AM 17.92 64.256 0.081 7.25 2.39 8.54
6/7/2024 6:00:00 AM 17.87 64.166 0.081 7.25 2.32 8.57
6/7/2024 6:15:00 AM 17.8 64.04 0.081 7.26 2.24 8.59
6/7/2024 6:30:00 AM 17.74 63.932 0.081 7.26 2.19 8.61
6/7/2024 6:45:00 AM 17.68 63.824 0.081 7.27 2.12 8.65
6/7/2024 7:00:00 AM 17.63 63.734 0.081 7.26 2.13 8.67
6/7/2024 7:15:00 AM 17.58 63.644 0.082 7.27 2.12 8.69
6/7/2024 7:30:00 AM 17.54 63.572 0.081 7.27 1.97 8.72
6/7/2024 7:45:00 AM 17.51 63.518 0.081 7.28 2.01 8.76
6/7/2024 8:00:00 AM 17.5 63.5 0.081 7.28 1.9 8.83
6/7/2024 8:15:00 AM 17.51 63.518 0.081 7.31 1.81 8.92
6/7/2024 8:30:00 AM 17.53 63.554 0.081 7.32 1.77 8.98
6/7/2024 8:45:00 AM 17.55 63.59 0.081 7.34 1.93 9.01
6/7/2024 9:00:00 AM 17.6 63.68 0.081 7.35 1.83 9.05
6/7/2024 9:15:00 AM 17.62 63.716 0.081 7.36 1.74 9.08
6/7/2024 9:30:00 AM 17.69 63.842 0.081 7.37 1.63 9.11
6/7/2024 9:45:00 AM 17.77 63.986 0.081 7.38 1.66 9.13
6/7/2024 10:00:00 AM 17.89 64.202 0.081 7.39 1.57 9.13
6/7/2024 10:15:00 AM 18.14 64.652 0.08 7.4 1.55 9.14
6/7/2024 10:30:00 AM 18.13 64.634 0.08 7.39 1.55 9.11
6/7/2024 10:45:00 AM 18.18 64.724 0.08 7.41 1.77 9.12
6/7/2024 11:00:00 AM 18.21 64.778 0.081 7.41 1.47 9.07
6/7/2024 11:15:00 AM 18.19 64.742 0.08 7.4 1.5 9.04
6/7/2024 11:30:00 AM 18.49 65.282 0.08 7.4 1.59 9.06
6/7/2024 11:45:00 AM 18.53 65.354 0.08 7.41 1.52 9.05
6/7/2024 12:00:00 PM 18.45 65.21 0.08 7.42 1.52 9.04
6/7/2024 12:15:00 PM 18.44 65.192 0.08 7.42 1.42 9.03
6/7/2024 12:30:00 PM 18.39 65.102 0.079 7.42 1.52 9.01
6/7/2024 12:45:00 PM 18.41 65.138 0.079 7.43 1.47 9.03
6/7/2024 1:00:00 PM 18.73 65.714 0.079 7.43 1.47 9.05
6/7/2024 1:15:00 PM 18.98 66.164 0.08 7.44 1.38 9.05
6/7/2024 1:30:00 PM 18.92 66.056 0.079 7.45 1.39 9.01
6/7/2024 1:45:00 PM 18.89 66.002 0.079 7.45 1.36 9.01
6/7/2024 2:00:00 PM 18.84 65.912 0.079 7.45 1.36 8.99
6/7/2024 2:15:00 PM 18.71 65.67799 0.079 7.44 1.48 8.96
6/7/2024 2:30:00 PM 18.61 65.498 0.079 7.42 1.38 8.94
6/7/2024 2:45:00 PM 18.68 65.624 0.079 7.43 1.3 8.97
6/7/2024 3:00:00 PM 18.88 65.984 0.079 7.45 1.37 9.02
6/7/2024 3:15:00 PM 19.03 66.254 0.079 7.46 1.38 9.03
6/7/2024 3:30:00 PM 19 66.2 0.079 7.46 1.32 9.01
6/7/2024 3:45:00 PM 19.24 66.632 0.079 7.47 1.29 9
6/7/2024 4:00:00 PM 19.42 66.956 0.079 7.48 1.36 8.99
6/7/2024 4:15:00 PM 19.46 67.028 0.079 7.48 1.35 8.96
6/7/2024 4:30:00 PM 19.32 66.776 0.079 7.46 1.26 8.89
6/7/2024 4:45:00 PM 19.4 66.92 0.079 7.45 1.31 8.91
6/7/2024 5:00:00 PM 19.58 67.244 0.079 7.46 1.25 8.9
6/7/2024 5:15:00 PM 19.66 67.388 0.079 7.45 1.43 8.87
6/7/2024 5:30:00 PM 19.63 67.334 0.079 7.45 1.28 8.86
6/7/2024 5:45:00 PM 19.67 67.406 0.079 7.45 1.3 8.83
6/7/2024 6:00:00 PM 19.63 67.334 0.079 7.45 1.44 8.79
6/7/2024 6:15:00 PM 19.53 67.154 0.079 7.42 1.32 8.72
6/7/2024 6:30:00 PM 19.44 66.992 0.08 7.41 1.3 8.68
6/7/2024 6:45:00 PM 19.35 66.83 0.08 7.39 1.41 8.63
6/7/2024 7:00:00 PM 19.32 66.776 0.08 7.39 1.37 8.63
6/7/2024 7:15:00 PM 19.31 66.758 0.08 7.39 1.43 8.64
6/7/2024 7:30:00 PM 19.28 66.704 0.08 7.39 1.31 8.63
6/7/2024 7:45:00 PM 19.23 66.614 0.08 7.38 1.45 8.6
6/7/2024 8:00:00 PM 19.15 66.47 0.081 7.37 1.26 8.56
6/7/2024 8:15:00 PM 19.07 66.326 0.081 7.35 1.25 8.52
6/7/2024 8:30:00 PM 18.97 66.146 0.081 7.34 1.39 8.51
6/7/2024 8:45:00 PM 18.85 65.93 0.081 7.33 1.42 8.49
6/7/2024 9:00:00 PM 18.75 65.75 0.081 7.31 1.31 8.48
6/7/2024 9:15:00 PM 18.64 65.552 0.082 7.32 1.51 8.48
6/7/2024 9:30:00 PM 18.54 65.372 0.082 7.3 1.68 8.48
6/7/2024 9:45:00 PM 18.45 65.21 0.082 7.29 1.59 8.49
6/7/2024 10:00:00 PM 18.35 65.03 0.082 7.29 1.78 8.49
6/7/2024 10:15:00 PM 18.26 64.868 0.083 7.29 1.73 8.5
6/7/2024 10:30:00 PM 18.17 64.706 0.083 7.28 1.82 8.52
6/7/2024 10:45:00 PM 18.07 64.526 0.083 7.28 1.83 8.53
6/7/2024 11:00:00 PM 17.98 64.364 0.083 7.28 1.92 8.54
6/7/2024 11:15:00 PM 17.89 64.202 0.083 7.27 1.76 8.56
6/7/2024 11:30:00 PM 17.78 64.004 0.084 7.27 1.79 8.58
6/7/2024 11:45:00 PM 17.67 63.806 0.084 7.27 1.83 8.6
6/8/2024 12:00:00 AM 17.56 63.608 0.084 7.27 1.89 8.62
6/8/2024 12:15:00 AM 17.46 63.428 0.084 7.27 1.75 8.64
6/8/2024 12:30:00 AM 17.36 63.248 0.084 7.27 1.82 8.66
6/8/2024 12:45:00 AM 17.28 63.104 0.085 7.27 1.65 8.67
6/8/2024 1:00:00 AM 17.19 62.942 0.085 7.27 1.71 8.7
6/8/2024 1:15:00 AM 17.09 62.762 0.085 7.27 1.78 8.72
6/8/2024 1:30:00 AM 17 62.6 0.085 7.26 1.75 8.74
6/8/2024 1:45:00 AM 16.9 62.42 0.085 7.26 1.85 8.76
6/8/2024 2:00:00 AM 16.81 62.258 0.085 7.26 1.8 8.78
6/8/2024 2:15:00 AM 16.72 62.096 0.086 7.26 1.85 8.8
6/8/2024 2:30:00 AM 16.64 61.952 0.086 7.26 1.75 8.81
6/8/2024 2:45:00 AM 16.57 61.826 0.086 7.26 1.8 8.83
6/8/2024 3:00:00 AM 16.49 61.682 0.086 7.26 1.72 8.85
6/8/2024 3:15:00 AM 16.41 61.538 0.086 7.26 1.76 8.87
6/8/2024 3:30:00 AM 16.33 61.394 0.086 7.27 1.78 8.88
6/8/2024 3:45:00 AM 16.26 61.268 0.086 7.26 1.7 8.9
6/8/2024 4:00:00 AM 16.16 61.088 0.087 7.26 1.64 8.92
6/8/2024 4:15:00 AM 16.06 60.908 0.087 7.26 1.82 8.95
6/8/2024 4:30:00 AM 15.96 60.728 0.087 7.27 1.69 8.97
6/8/2024 4:45:00 AM 15.88 60.584 0.087 7.26 1.67 8.99
6/8/2024 5:00:00 AM 15.79 60.422 0.087 7.27 1.84 9.01
6/8/2024 5:15:00 AM 15.7 60.26 0.087 7.27 1.67 9.03
6/8/2024 5:30:00 AM 15.6 60.08 0.088 7.26 1.64 9.05
6/8/2024 5:45:00 AM 15.52 59.936 0.088 7.27 1.7 9.08
6/8/2024 6:00:00 AM 15.43 59.774 0.088 7.27 1.6 9.12
6/8/2024 6:15:00 AM 15.36 59.648 0.088 7.28 1.54 9.16
6/8/2024 6:30:00 AM 15.3 59.54 0.088 7.28 1.47 9.2
6/8/2024 6:45:00 AM 15.24 59.432 0.088 7.28 1.49 9.24
6/8/2024 7:00:00 AM 15.19 59.342 0.088 7.29 1.52 9.28
6/8/2024 7:15:00 AM 15.16 59.288 0.088 7.3 1.4 9.32
6/8/2024 7:30:00 AM 15.14 59.252 0.088 7.31 1.43 9.37
6/8/2024 7:45:00 AM 15.15 59.27 0.088 7.32 1.37 9.41
6/8/2024 8:00:00 AM 15.19 59.342 0.088 7.33 1.34 9.45
6/8/2024 8:15:00 AM 15.26 59.468 0.088 7.34 1.29 9.49
6/8/2024 8:30:00 AM 15.34 59.612 0.088 7.36 1.29 9.51
6/8/2024 8:45:00 AM 15.42 59.756 0.088 7.37 1.26 9.53
6/8/2024 9:00:00 AM 15.51 59.918 0.088 7.37 1.26 9.54
6/8/2024 9:15:00 AM 15.66 60.188 0.088 7.39 1.14 9.56
6/8/2024 9:30:00 AM 15.83 60.494 0.088 7.39 1.12 9.58
6/8/2024 9:45:00 AM 15.94 60.692 0.088 7.4 1.12 9.59
6/8/2024 10:00:00 AM 16.07 60.926 0.088 7.41 1.11 9.6
6/8/2024 10:15:00 AM 16.14 61.052 0.088 7.42 1.16 9.59
6/8/2024 10:30:00 AM 16.25 61.25 0.088 7.43 1.15 9.6
6/8/2024 10:45:00 AM 16.45 61.61 0.088 7.44 1.12 9.6
6/8/2024 11:00:00 AM 16.62 61.916 0.088 7.45 1.09 9.59
6/8/2024 11:15:00 AM 16.7 62.06 0.088 7.45 1.1 9.57
6/8/2024 11:30:00 AM 16.84 62.312 0.088 7.46 1.1 9.54
6/8/2024 11:45:00 AM 17.06 62.708 0.088 7.46 1.06 9.53
6/8/2024 12:00:00 PM 17.1 62.78 0.088 7.47 1.01 9.5
6/8/2024 12:15:00 PM 17.2 62.96 0.088 7.48 1.07 9.5
6/8/2024 12:30:00 PM 17.44 63.392 0.088 7.48 1.13 9.47
6/8/2024 12:45:00 PM 17.57 63.626 0.088 7.48 1.03 9.43
6/8/2024 1:00:00 PM 17.74 63.932 0.088 7.48 1.12 9.41
6/8/2024 1:15:00 PM 18.04 64.472 0.088 7.49 1.04 9.4
6/8/2024 1:30:00 PM 18.41 65.138 0.088 7.49 1.08 9.35
6/8/2024 1:45:00 PM 18.69 65.642 0.088 7.49 0.96 9.3
6/8/2024 2:00:00 PM 18.87 65.966 0.088 7.49 1 9.26
6/8/2024 2:15:00 PM 18.95 66.11 0.088 7.49 0.99 9.2
6/8/2024 2:30:00 PM 19.25 66.65 0.088 7.48 0.97 9.18
6/8/2024 2:45:00 PM 19.38 66.884 0.088 7.48 1.02 9.12
6/8/2024 3:00:00 PM 19.58 67.244 0.088 7.48 1.02 9.07
6/8/2024 3:15:00 PM 19.45 67.01 0.088 7.47 1.2 9.04
6/8/2024 3:30:00 PM 19.71 67.478 0.088 7.48 1.06 9.01
6/8/2024 3:45:00 PM 19.71 67.478 0.088 7.48 1.01 8.99
6/8/2024 4:00:00 PM 19.93 67.874 0.088 7.48 1.05 8.96
6/8/2024 4:15:00 PM 20.22 68.396 0.088 7.48 0.99 8.93
6/8/2024 4:30:00 PM 20.39 68.702 0.089 7.48 1.07 8.87
6/8/2024 4:45:00 PM 20.43 68.774 0.088 7.47 1.03 8.84
6/8/2024 5:00:00 PM 20.37 68.666 0.089 7.47 0.98 8.8
6/8/2024 5:15:00 PM 20.34 68.612 0.089 7.46 1.06 8.77
6/8/2024 5:30:00 PM 20.35 68.63 0.089 7.46 0.99 8.75
6/8/2024 5:45:00 PM 20.34 68.612 0.089 7.45 1.13 8.71
6/8/2024 6:00:00 PM 20.29 68.522 0.089 7.44 1.05 8.67
6/8/2024 6:15:00 PM 20.23 68.414 0.089 7.43 1.14 8.63
6/8/2024 6:30:00 PM 20.19 68.342 0.089 7.43 1 8.61
6/8/2024 6:45:00 PM 20.13 68.234 0.089 7.41 1 8.56
6/8/2024 7:00:00 PM 20.12 68.216 0.089 7.4 1.03 8.53
6/8/2024 7:15:00 PM 20.07 68.126 0.089 7.39 1.09 8.49
6/8/2024 7:30:00 PM 20.03 68.054 0.089 7.37 1.07 8.46
6/8/2024 7:45:00 PM 19.96 67.92799 0.09 7.36 1.11 8.42
6/8/2024 8:00:00 PM 19.9 67.82 0.09 7.34 1.2 8.39
6/8/2024 8:15:00 PM 19.83 67.694 0.09 7.33 1.09 8.36
6/8/2024 8:30:00 PM 19.76 67.568 0.09 7.32 1.18 8.34
6/8/2024 8:45:00 PM 19.64 67.352 0.09 7.3 1.18 8.32
6/8/2024 9:00:00 PM 19.53 67.154 0.09 7.3 1.28 8.31
6/8/2024 9:15:00 PM 19.4 66.92 0.09 7.29 1.4 8.3
6/8/2024 9:30:00 PM 19.29 66.722 0.091 7.29 1.43 8.3
6/8/2024 9:45:00 PM 19.18 66.524 0.091 7.29 1.5 8.31
6/8/2024 10:00:00 PM 19.08 66.344 0.091 7.27 1.57 8.32
6/8/2024 10:15:00 PM 18.98 66.164 0.091 7.27 1.5 8.33
6/8/2024 10:30:00 PM 18.89 66.002 0.091 7.27 1.51 8.34
6/8/2024 10:45:00 PM 18.8 65.84 0.091 7.26 1.46 8.36
6/8/2024 11:00:00 PM 18.72 65.696 0.092 7.27 1.8 8.36
6/8/2024 11:15:00 PM 18.64 65.552 0.091 7.27 1.68 8.38
6/8/2024 11:30:00 PM 18.57 65.426 0.092 7.28 1.59 8.39
6/8/2024 11:45:00 PM 18.5 65.3 0.092 7.27 1.55 8.4
6/9/2024 12:00:00 AM 18.43 65.174 0.092 7.27 1.64 8.42
6/9/2024 12:15:00 AM 18.36 65.048 0.092 7.27 1.58 8.43
6/9/2024 12:30:00 AM 18.29 64.922 0.092 7.27 1.54 8.44
6/9/2024 12:45:00 AM 18.23 64.814 0.092 7.26 1.42 8.45
6/9/2024 1:00:00 AM 18.16 64.688 0.092 7.26 1.46 8.46
6/9/2024 1:15:00 AM 18.09 64.562 0.092 7.26 1.51 8.47
6/9/2024 1:30:00 AM 18.01 64.418 0.092 7.26 1.41 8.48
6/9/2024 1:45:00 AM 17.94 64.292 0.092 7.26 1.52 8.5
6/9/2024 2:00:00 AM 17.88 64.184 0.092 7.26 1.65 8.51
6/9/2024 2:15:00 AM 17.82 64.076 0.092 7.26 1.4 8.52
6/9/2024 2:30:00 AM 17.77 63.986 0.092 7.26 1.64 8.53
6/9/2024 2:45:00 AM 17.72 63.896 0.092 7.24 1.51 8.54
6/9/2024 3:00:00 AM 17.67 63.806 0.093 7.24 1.59 8.54
6/9/2024 3:15:00 AM 17.61 63.698 0.093 7.24 1.57 8.55
6/9/2024 3:30:00 AM 17.57 63.626 0.092 7.25 1.54 8.57
6/9/2024 3:45:00 AM 17.52 63.536 0.093 7.25 1.58 8.57
6/9/2024 4:00:00 AM 17.48 63.464 0.093 7.25 1.51 8.58
6/9/2024 4:15:00 AM 17.44 63.392 0.093 7.26 1.49 8.59
6/9/2024 4:30:00 AM 17.41 63.338 0.093 7.24 2.69 8.59
6/9/2024 4:45:00 AM 17.39 63.302 0.093 7.24 1.57 8.6
6/9/2024 5:00:00 AM 17.36 63.248 0.093 7.24 1.68 8.61
6/9/2024 5:15:00 AM 17.33 63.194 0.093 7.25 1.53 8.61
6/9/2024 5:30:00 AM 17.3 63.14 0.093 7.25 1.68 8.62
6/9/2024 5:45:00 AM 17.27 63.086 0.092 7.25 1.7 8.63
6/9/2024 6:00:00 AM 17.23 63.014 0.093 7.25 1.62 8.63
6/9/2024 6:15:00 AM 17.2 62.96 0.092 7.25 1.47 8.65
6/9/2024 6:30:00 AM 17.17 62.906 0.093 7.25 1.49 8.68
6/9/2024 6:45:00 AM 17.16 62.888 0.092 7.25 1.45 8.71
6/9/2024 7:00:00 AM 17.14 62.852 0.092 7.26 1.44 8.76
6/9/2024 7:15:00 AM 17.14 62.852 0.093 7.28 1.34 8.82
6/9/2024 7:30:00 AM 17.14 62.852 0.092 7.3 1.36 8.89
6/9/2024 7:45:00 AM 17.14 62.852 0.092 7.32 1.39 8.94
6/9/2024 8:00:00 AM 17.13 62.834 0.092 7.33 1.38 8.99
6/9/2024 8:15:00 AM 17.15 62.87 0.092 7.34 1.34 9.05
6/9/2024 8:30:00 AM 17.18 62.924 0.092 7.36 1.35 9.11
6/9/2024 8:45:00 AM 17.22 62.996 0.092 7.38 1.36 9.16
6/9/2024 9:00:00 AM 17.3 63.14 0.092 7.4 1.31 9.2
6/9/2024 9:15:00 AM 17.4 63.32 0.091 7.41 1.25 9.24
6/9/2024 9:30:00 AM 17.38 63.284 0.092 7.43 1.26 9.24
6/9/2024 9:45:00 AM 17.47 63.446 0.091 7.42 1.16 9.26
6/9/2024 10:00:00 AM 17.57 63.626 0.091 7.43 1.04 9.24
6/9/2024 10:15:00 AM 17.75 63.95 0.091 7.44 1.16 9.25
6/9/2024 10:30:00 AM 17.8 64.04 0.091 7.44 1.18 9.24
6/9/2024 10:45:00 AM 17.93 64.274 0.091 7.44 1.13 9.23
6/9/2024 11:00:00 AM 18.26 64.868 0.091 7.45 1.07 9.24
6/9/2024 11:15:00 AM 18.47 65.246 0.091 7.46 1.11 9.2
6/9/2024 11:30:00 AM 18.61 65.498 0.091 7.46 1.09 9.18
6/9/2024 11:45:00 AM 18.58 65.444 0.091 7.46 1.06 9.16
6/9/2024 12:00:00 PM 18.76 65.768 0.091 7.46 1.01 9.13
6/9/2024 12:15:00 PM 18.77 65.786 0.091 7.46 1 9.09
6/9/2024 12:30:00 PM 19.08 66.344 0.091 7.47 0.95 9.11
6/9/2024 12:45:00 PM 19.34 66.812 0.091 7.47 0.88 9.07
6/9/2024 1:00:00 PM 19.3 66.74 0.091 7.47 1 9.01
6/9/2024 1:15:00 PM 19.26 66.668 0.091 7.47 0.98 8.98
6/9/2024 1:30:00 PM 19.62 67.316 0.091 7.47 1.02 8.97
6/9/2024 1:45:00 PM 19.94 67.892 0.091 7.47 0.92 8.95
6/9/2024 2:00:00 PM 20.01 68.018 0.091 7.48 0.98 8.92
6/9/2024 2:15:00 PM 20.11 68.198 0.091 7.48 0.92 8.9
6/9/2024 2:30:00 PM 20.13 68.234 0.09 7.48 0.82 8.89
6/9/2024 2:45:00 PM 20.33 68.594 0.091 7.48 0.94 8.85
6/9/2024 3:00:00 PM 20.67 69.206 0.09 7.49 0.88 8.84
6/9/2024 3:15:00 PM 20.79 69.422 0.09 7.5 0.96 8.8
6/9/2024 3:30:00 PM 20.97 69.746 0.09 7.5 0.89 8.76
6/9/2024 3:45:00 PM 20.9 69.62 0.09 7.48 0.9 8.72
6/9/2024 4:00:00 PM 20.89 69.602 0.09 7.48 0.89 8.7
6/9/2024 4:15:00 PM 20.92 69.656 0.09 7.49 0.88 8.68
6/9/2024 4:30:00 PM 21 69.8 0.09 7.49 0.86 8.67
6/9/2024 4:45:00 PM 21.15 70.07 0.09 7.49 1 8.66
6/9/2024 5:00:00 PM 21.25 70.25 0.09 7.49 0.93 8.62
6/9/2024 5:15:00 PM 21.29 70.32201 0.09 7.49 0.93 8.57
6/9/2024 5:30:00 PM 21.28 70.304 0.09 7.48 0.93 8.52
6/9/2024 5:45:00 PM 21.21 70.17799 0.09 7.46 0.94 8.48
6/9/2024 6:00:00 PM 21.13 70.034 0.09 7.45 0.95 8.45
6/9/2024 6:15:00 PM 20.98 69.764 0.09 7.44 1 8.41
6/9/2024 6:30:00 PM 20.86 69.548 0.09 7.42 1.01 8.41
6/9/2024 6:45:00 PM 20.76 69.368 0.09 7.42 1.01 8.38
6/9/2024 7:00:00 PM 20.7 69.26 0.09 7.41 1.01 8.38
6/9/2024 7:15:00 PM 20.6 69.08 0.09 7.4 1.1 8.35
6/9/2024 7:30:00 PM 20.5 68.9 0.09 7.39 0.97 8.32
6/9/2024 7:45:00 PM 20.39 68.702 0.09 7.37 1.04 8.27
6/9/2024 8:00:00 PM 20.27 68.486 0.09 7.36 1.25 8.25
6/9/2024 8:15:00 PM 20.16 68.288 0.09 7.34 1.01 8.22
6/9/2024 8:30:00 PM 19.97 67.946 0.09 7.33 1.34 8.21
6/9/2024 8:45:00 PM 19.8 67.64 0.09 7.31 1.24 8.19
6/9/2024 9:00:00 PM 19.63 67.334 0.09 7.3 1.36 8.2
6/9/2024 9:15:00 PM 19.49 67.082 0.09 7.29 1.42 8.21
6/9/2024 9:30:00 PM 19.35 66.83 0.09 7.3 1.41 8.22
6/9/2024 9:45:00 PM 19.22 66.596 0.09 7.28 1.39 8.23
6/9/2024 10:00:00 PM 19.12 66.416 0.09 7.29 1.46 8.25
6/9/2024 10:15:00 PM 19.02 66.236 0.09 7.29 1.44 8.27
6/9/2024 10:30:00 PM 18.92 66.056 0.091 7.28 1.43 8.28
6/9/2024 10:45:00 PM 18.83 65.894 0.091 7.28 1.88 8.29
6/9/2024 11:00:00 PM 18.74 65.732 0.09 7.28 1.42 8.31
6/9/2024 11:15:00 PM 18.63 65.534 0.091 7.28 1.48 8.33
6/9/2024 11:30:00 PM 18.54 65.372 0.09 7.28 1.59 8.35
6/9/2024 11:45:00 PM 18.45 65.21 0.091 7.28 1.39 8.37
6/10/2024 12:00:00 AM 18.39 65.102 0.091 7.28 1.49 8.38
6/10/2024 12:15:00 AM 18.31 64.958 0.091 7.28 1.47 8.4
6/10/2024 12:30:00 AM 18.24 64.832 0.091 7.28 1.51 8.41
6/10/2024 12:45:00 AM 18.17 64.706 0.091 7.27 1.66 8.43
6/10/2024 1:00:00 AM 18.1 64.58 0.091 7.27 1.49 8.44
6/10/2024 1:15:00 AM 18.04 64.472 0.091 7.27 1.44 8.46
6/10/2024 1:30:00 AM 17.97 64.346 0.091 7.29 1.61 8.47
6/10/2024 1:45:00 AM 17.91 64.238 0.091 7.28 1.42 8.49
6/10/2024 2:00:00 AM 17.84 64.112 0.091 7.27 1.51 8.5
6/10/2024 2:15:00 AM 17.78 64.004 0.091 7.26 1.59 8.52
6/10/2024 2:30:00 AM 17.72 63.896 0.09 7.27 1.55 8.53
6/10/2024 2:45:00 AM 17.66 63.788 0.09 7.27 1.44 8.55
6/10/2024 3:00:00 AM 17.6 63.68 0.09 7.27 1.95 8.56
6/10/2024 3:15:00 AM 17.53 63.554 0.091 7.27 1.5 8.57
6/10/2024 3:30:00 AM 17.47 63.446 0.09 7.27 1.56 8.59
6/10/2024 3:45:00 AM 17.4 63.32 0.09 7.28 1.58 8.61
6/10/2024 4:00:00 AM 17.33 63.194 0.09 7.27 1.5 8.62
6/10/2024 4:15:00 AM 17.25 63.05 0.09 7.28 1.49 8.64
6/10/2024 4:30:00 AM 17.17 62.906 0.09 7.28 1.6 8.66
6/10/2024 4:45:00 AM 17.08 62.744 0.091 7.28 1.62 8.67
6/10/2024 5:00:00 AM 17 62.6 0.09 7.29 1.68 8.69
6/10/2024 5:15:00 AM 16.9 62.42 0.09 7.29 1.58 8.71
6/10/2024 5:30:00 AM 16.8 62.24 0.09 7.29 1.53 8.73
6/10/2024 5:45:00 AM 16.7 62.06 0.09 7.29 1.62 8.76
6/10/2024 6:00:00 AM 16.6 61.88 0.09 7.3 1.45 8.79
6/10/2024 6:15:00 AM 16.52 61.736 0.09 7.3 1.52 8.84
6/10/2024 6:30:00 AM 16.47 61.646 0.09 7.31 1.53 8.89
6/10/2024 6:45:00 AM 16.45 61.61 0.09 7.32 1.55 8.94
6/10/2024 7:00:00 AM 16.42 61.556 0.09 7.32 1.52 8.98
6/10/2024 7:15:00 AM 16.41 61.538 0.09 7.33 1.34 9.02
6/10/2024 7:30:00 AM 16.39 61.502 0.09 7.34 1.33 9.06
6/10/2024 7:45:00 AM 16.38 61.484 0.09 7.35 1.26 9.13
6/10/2024 8:00:00 AM 16.37 61.466 0.09 7.37 1.24 9.19
6/10/2024 8:15:00 AM 16.37 61.466 0.09 7.38 1.27 9.24
6/10/2024 8:30:00 AM 16.34 61.412 0.09 7.38 1.24 9.26
6/10/2024 8:45:00 AM 16.31 61.358 0.089 7.39 1.13 9.29
6/10/2024 9:00:00 AM 16.28 61.304 0.089 7.4 1.12 9.32
6/10/2024 9:15:00 AM 16.28 61.304 0.089 7.4 1.15 9.35
6/10/2024 9:30:00 AM 16.29 61.322 0.089 7.41 1.16 9.4
6/10/2024 9:45:00 AM 16.38 61.484 0.089 7.43 1.23 9.45
6/10/2024 10:00:00 AM 16.42 61.556 0.089 7.44 1.18 9.47
6/10/2024 10:15:00 AM 16.51 61.718 0.089 7.44 1.15 9.5
6/10/2024 10:30:00 AM 16.58 61.844 0.088 7.46 1.15 9.52
6/10/2024 10:45:00 AM 16.67 62.006 0.088 7.47 1.04 9.52
6/10/2024 11:00:00 AM 16.73 62.114 0.088 7.47 1.19 9.53
6/10/2024 11:15:00 AM 16.9 62.42 0.088 7.49 1.11 9.53
6/10/2024 11:30:00 AM 17.05 62.69 0.088 7.49 1.1 9.52
6/10/2024 11:45:00 AM 17.07 62.726 0.088 7.5 1.19 9.52
6/10/2024 12:00:00 PM 17.05 62.69 0.088 7.5 1.06 9.51
6/10/2024 12:15:00 PM 17.11 62.798 0.087 7.5 1.18 9.51
6/10/2024 12:30:00 PM 17.14 62.852 0.088 7.51 1.13 9.49
6/10/2024 12:45:00 PM 17.18 62.924 0.088 7.5 1.18 9.49
6/10/2024 1:00:00 PM 17.22 62.996 0.087 7.5 1.16 9.48
6/10/2024 1:15:00 PM 17.29 63.122 0.087 7.52 1.12 9.48
6/10/2024 1:30:00 PM 17.38 63.284 0.087 7.53 1.14 9.48
6/10/2024 1:45:00 PM 17.58 63.644 0.087 7.54 1.02 9.48
6/10/2024 2:00:00 PM 17.69 63.842 0.087 7.55 1.02 9.46
6/10/2024 2:15:00 PM 17.88 64.184 0.087 7.56 1.03 9.44
6/10/2024 2:30:00 PM 17.97 64.346 0.087 7.55 0.95 9.41
6/10/2024 2:45:00 PM 18.02 64.436 0.087 7.56 0.98 9.38
6/10/2024 3:00:00 PM 17.96 64.328 0.087 7.55 1.02 9.35
6/10/2024 3:15:00 PM 17.96 64.328 0.087 7.54 1 9.35
6/10/2024 3:30:00 PM 17.9 64.22 0.087 7.53 1.12 9.32
6/10/2024 3:45:00 PM 17.86 64.148 0.087 7.52 0.99 9.27
6/10/2024 4:00:00 PM 17.82 64.076 0.087 7.51 1.05 9.25
6/10/2024 4:15:00 PM 17.74 63.932 0.087 7.5 0.98 9.17
6/10/2024 4:30:00 PM 17.69 63.842 0.087 7.47 1.03 9.11
6/10/2024 4:45:00 PM 17.62 63.716 0.087 7.45 0.95 9.07
6/10/2024 5:00:00 PM 17.59 63.662 0.087 7.43 0.99 9.05
6/10/2024 5:15:00 PM 17.55 63.59 0.087 7.41 1 9.02
6/10/2024 5:30:00 PM 17.54 63.572 0.086 7.41 1.03 9.04
6/10/2024 5:45:00 PM 17.5 63.5 0.087 7.4 1.04 9.02
6/10/2024 6:00:00 PM 17.46 63.428 0.087 7.39 1.13 9
6/10/2024 6:15:00 PM 17.46 63.428 0.087 7.4 1.19 9.05
6/10/2024 6:30:00 PM 17.45 63.41 0.087 7.4 1.04 9.08
6/10/2024 6:45:00 PM 17.44 63.392 0.087 7.42 1.15 9.09
6/10/2024 7:00:00 PM 17.38 63.284 0.087 7.42 1.09 9.04
6/10/2024 7:15:00 PM 17.32 63.176 0.087 7.4 1.09 9
6/10/2024 7:30:00 PM 17.24 63.032 0.087 7.4 1.11 8.98
6/10/2024 7:45:00 PM 17.16 62.888 0.087 7.39 1.1 8.97
6/10/2024 8:00:00 PM 17.1 62.78 0.087 7.39 1.07 8.95
6/10/2024 8:15:00 PM 17.01 62.618 0.087 7.38 1.13 8.93
6/10/2024 8:30:00 PM 16.93 62.474 0.087 7.36 1.14 8.9
6/10/2024 8:45:00 PM 16.86 62.348 0.087 7.35 1.14 8.89
6/10/2024 9:00:00 PM 16.79 62.222 0.087 7.35 1.18 8.87
6/10/2024 9:15:00 PM 16.74 62.132 0.087 7.34 1.32 8.87
6/10/2024 9:30:00 PM 16.68 62.024 0.087 7.33 1.49 8.87
6/10/2024 9:45:00 PM 16.61 61.898 0.087 7.33 1.31 8.87
6/10/2024 10:00:00 PM 16.55 61.79 0.087 7.32 1.35 8.88
6/10/2024 10:15:00 PM 16.5 61.7 0.087 7.32 1.4 8.89
6/10/2024 10:30:00 PM 16.44 61.592 0.087 7.31 1.38 8.89
6/10/2024 10:45:00 PM 16.39 61.502 0.087 7.31 1.53 8.9
6/10/2024 11:00:00 PM 16.33 61.394 0.088 7.3 1.58 8.91
6/10/2024 11:15:00 PM 16.27 61.286 0.088 7.31 1.42 8.92
6/10/2024 11:30:00 PM 16.22 61.196 0.088 7.31 1.38 8.93
6/10/2024 11:45:00 PM 16.16 61.088 0.088 7.31 1.41 8.95
6/11/2024 12:00:00 AM 16.11 60.998 0.088 7.3 1.55 8.96
6/11/2024 12:15:00 AM 16.06 60.908 0.088 7.31 1.3 8.97
6/11/2024 12:30:00 AM 16.01 60.818 0.088 7.3 1.42 8.98
6/11/2024 12:45:00 AM 15.96 60.728 0.088 7.3 1.49 8.99
6/11/2024 1:00:00 AM 15.92 60.656 0.088 7.3 1.36 9
6/11/2024 1:15:00 AM 15.87 60.566 0.088 7.3 1.47 9.02
6/11/2024 1:30:00 AM 15.82 60.476 0.088 7.29 1.62 9.02
6/11/2024 1:45:00 AM 15.78 60.404 0.088 7.3 1.44 9.04
6/11/2024 2:00:00 AM 15.73 60.314 0.088 7.3 1.49 9.05
6/11/2024 2:15:00 AM 15.69 60.242 0.088 7.3 1.39 9.05
6/11/2024 2:30:00 AM 15.65 60.17 0.088 7.3 1.47 9.07
6/11/2024 2:45:00 AM 15.61 60.098 0.088 7.3 1.37 9.08
6/11/2024 3:00:00 AM 15.57 60.026 0.088 7.3 1.38 9.09
6/11/2024 3:15:00 AM 15.53 59.954 0.088 7.3 1.41 9.1
6/11/2024 3:30:00 AM 15.49 59.882 0.088 7.29 1.47 9.11
6/11/2024 3:45:00 AM 15.45 59.81 0.088 7.3 1.49 9.12
6/11/2024 4:00:00 AM 15.41 59.738 0.089 7.3 1.43 9.13
6/11/2024 4:15:00 AM 15.37 59.666 0.089 7.3 1.47 9.14
6/11/2024 4:30:00 AM 15.34 59.612 0.088 7.29 1.49 9.15
6/11/2024 4:45:00 AM 15.3 59.54 0.088 7.3 1.5 9.16
6/11/2024 5:00:00 AM 15.26 59.468 0.088 7.3 1.49 9.17
6/11/2024 5:15:00 AM 15.22 59.396 0.089 7.3 1.59 9.18
6/11/2024 5:30:00 AM 15.18 59.324 0.089 7.3 1.53 9.2
6/11/2024 5:45:00 AM 15.15 59.27 0.089 7.29 1.59 9.21
6/11/2024 6:00:00 AM 15.11 59.198 0.089 7.29 1.41 9.22
6/11/2024 6:15:00 AM 15.08 59.144 0.089 7.29 1.38 9.25
6/11/2024 6:30:00 AM 15.05 59.09 0.089 7.29 1.45 9.26
6/11/2024 6:45:00 AM 15.02 59.036 0.089 7.29 1.56 9.29
6/11/2024 7:00:00 AM 15 59 0.089 7.3 1.39 9.31
6/11/2024 7:15:00 AM 14.97 58.946 0.089 7.31 1.27 9.34
6/11/2024 7:30:00 AM 14.96 58.928 0.089 7.31 1.28 9.37
6/11/2024 7:45:00 AM 14.96 58.928 0.089 7.32 1.29 9.43
6/11/2024 8:00:00 AM 14.96 58.928 0.089 7.33 1.23 9.48
6/11/2024 8:15:00 AM 14.98 58.964 0.088 7.34 1.13 9.54
6/11/2024 8:30:00 AM 15.04 59.072 0.088 7.36 1.39 9.63
6/11/2024 8:45:00 AM 15.15 59.27 0.088 7.39 1.29 9.71
6/11/2024 9:00:00 AM 15.28 59.504 0.088 7.4 1.09 9.76
6/11/2024 9:15:00 AM 15.38 59.684 0.088 7.42 1.12 9.8
6/11/2024 9:30:00 AM 15.46 59.828 0.088 7.44 1.09 9.82
6/11/2024 9:45:00 AM 15.5 59.9 0.088 7.44 1.18 9.83
6/11/2024 10:00:00 AM 15.51 59.918 0.088 7.45 1.18 9.83
6/11/2024 10:15:00 AM 15.54 59.972 0.088 7.45 1.08 9.83
6/11/2024 10:30:00 AM 15.62 60.116 0.088 7.47 1.08 9.85
6/11/2024 10:45:00 AM 15.66 60.188 0.087 7.47 1.09 9.84
6/11/2024 11:00:00 AM 15.68 60.224 0.087 7.47 1.15 9.84
6/11/2024 11:15:00 AM 15.68 60.224 0.087 7.48 1.11 9.83
6/11/2024 11:30:00 AM 15.67 60.206 0.087 7.47 1.14 9.8
6/11/2024 11:45:00 AM 15.65 60.17 0.087 7.48 1.14 9.77
6/11/2024 12:00:00 PM 15.65 60.17 0.087 7.48 1.12 9.76
6/11/2024 12:15:00 PM 15.69 60.242 0.087 7.48 1.08 9.77
6/11/2024 12:30:00 PM 15.72 60.296 0.087 7.49 1.08 9.79
6/11/2024 12:45:00 PM 15.77 60.386 0.087 7.5 1.03 9.8
6/11/2024 1:00:00 PM 15.82 60.476 0.087 7.51 1.1 9.79
6/11/2024 1:15:00 PM 15.82 60.476 0.087 7.51 1.02 9.77
6/11/2024 1:30:00 PM 15.83 60.494 0.087 7.49 1.05 9.74
6/11/2024 1:45:00 PM 15.84 60.512 0.087 7.5 1.06 9.75
6/11/2024 2:00:00 PM 15.98 60.764 0.087 7.51 1.07 9.78
6/11/2024 2:15:00 PM 16.09 60.962 0.087 7.52 1.01 9.8
6/11/2024 2:30:00 PM 16.14 61.052 0.087 7.53 1.07 9.78
6/11/2024 2:45:00 PM 16.13 61.034 0.087 7.53 1.1 9.76
6/11/2024 3:00:00 PM 16.09 60.962 0.087 7.52 1.12 9.68
6/11/2024 3:15:00 PM 16.07 60.926 0.087 7.5 1.08 9.66
6/11/2024 3:30:00 PM 16.11 60.998 0.087 7.5 1.06 9.69
6/11/2024 3:45:00 PM 16.17 61.106 0.086 7.52 1.21 9.71
6/11/2024 4:00:00 PM 16.24 61.232 0.087 7.53 1.19 9.72
6/11/2024 4:15:00 PM 16.3 61.34 0.087 7.53 1.12 9.71
6/11/2024 4:30:00 PM 16.34 61.412 0.086 7.54 1.14 9.69
6/11/2024 4:45:00 PM 16.37 61.466 0.086 7.53 1.07 9.68
6/11/2024 5:00:00 PM 16.38 61.484 0.086 7.53 1.38 9.66
6/11/2024 5:15:00 PM 16.41 61.538 0.086 7.53 1.05 9.64
6/11/2024 5:30:00 PM 16.41 61.538 0.086 7.53 1.16 9.62
6/11/2024 5:45:00 PM 16.41 61.538 0.086 7.52 1.06 9.59
6/11/2024 6:00:00 PM 16.4 61.52 0.086 7.51 1.08 9.57
6/11/2024 6:15:00 PM 16.39 61.502 0.086 7.5 1.16 9.54
6/11/2024 6:30:00 PM 16.39 61.502 0.086 7.49 1 9.52
6/11/2024 6:45:00 PM 16.37 61.466 0.086 7.48 1.1 9.49
6/11/2024 7:00:00 PM 16.34 61.412 0.086 7.47 1.16 9.44
6/11/2024 7:15:00 PM 16.3 61.34 0.087 7.46 1.01 9.38
6/11/2024 7:30:00 PM 16.27 61.286 0.087 7.43 1.12 9.32
6/11/2024 7:45:00 PM 16.23 61.214 0.087 7.42 1.13 9.27
6/11/2024 8:00:00 PM 16.19 61.142 0.087 7.4 1.1 9.24
6/11/2024 8:15:00 PM 16.15 61.07 0.087 7.39 1.13 9.22
6/11/2024 8:30:00 PM 16.11 60.998 0.087 7.38 1.08 9.2
6/11/2024 8:45:00 PM 16.06 60.908 0.087 7.36 1.18 9.17
6/11/2024 9:00:00 PM 16.01 60.818 0.087 7.35 1.15 9.15
6/11/2024 9:15:00 PM 15.97 60.746 0.087 7.34 1.23 9.13
6/11/2024 9:30:00 PM 15.93 60.674 0.088 7.33 1.21 9.13
6/11/2024 9:45:00 PM 15.88 60.584 0.088 7.32 1.34 9.12
6/11/2024 10:00:00 PM 15.84 60.512 0.087 7.31 1.41 9.11
6/11/2024 10:15:00 PM 15.8 60.44 0.088 7.31 1.42 9.11
6/11/2024 10:30:00 PM 15.76 60.368 0.088 7.3 1.44 9.12
6/11/2024 10:45:00 PM 15.69 60.242 0.088 7.29 1.44 9.13
6/11/2024 11:00:00 PM 15.61 60.098 0.088 7.29 1.45 9.13
6/11/2024 11:15:00 PM 15.53 59.954 0.088 7.3 1.42 9.15
6/11/2024 11:30:00 PM 15.44 59.792 0.088 7.28 1.4 9.16
6/11/2024 11:45:00 PM 15.36 59.648 0.088 7.29 1.43 9.17
6/12/2024 12:00:00 AM 15.27 59.486 0.089 7.28 1.36 9.18
6/12/2024 12:15:00 AM 15.19 59.342 0.089 7.28 1.4 9.21
6/12/2024 12:30:00 AM 15.12 59.216 0.089 7.28 1.45 9.22
6/12/2024 12:45:00 AM 15.03 59.054 0.088 7.29 1.51 9.24
6/12/2024 1:00:00 AM 14.95 58.91 0.089 7.29 1.4 9.26
6/12/2024 1:15:00 AM 14.87 58.766 0.089 7.29 2.29 9.28
6/12/2024 1:30:00 AM 14.79 58.622 0.089 7.29 1.44 9.3
6/12/2024 1:45:00 AM 14.71 58.478 0.089 7.29 1.47 9.31
6/12/2024 2:00:00 AM 14.65 58.37 0.089 7.29 1.47 9.33
6/12/2024 2:15:00 AM 14.6 58.28 0.089 7.29 1.56 9.34
6/12/2024 2:30:00 AM 14.56 58.208 0.089 7.28 1.48 9.36
6/12/2024 2:45:00 AM 14.52 58.136 0.089 7.29 1.43 9.37
6/12/2024 3:00:00 AM 14.47 58.046 0.089 7.28 1.42 9.38
6/12/2024 3:15:00 AM 14.42 57.956 0.089 7.29 1.41 9.4
6/12/2024 3:30:00 AM 14.37 57.866 0.089 7.29 1.31 9.41
6/12/2024 3:45:00 AM 14.32 57.776 0.089 7.29 1.48 9.42
6/12/2024 4:00:00 AM 14.27 57.686 0.089 7.29 1.32 9.43
6/12/2024 4:15:00 AM 14.23 57.614 0.089 7.3 1.4 9.45
6/12/2024 4:30:00 AM 14.18 57.524 0.09 7.29 1.48 9.46
6/12/2024 4:45:00 AM 14.13 57.434 0.089 7.29 1.4 9.48
6/12/2024 5:00:00 AM 14.08 57.344 0.089 7.29 1.44 9.48
6/12/2024 5:15:00 AM 14.04 57.272 0.09 7.3 1.38 9.5
6/12/2024 5:30:00 AM 13.99 57.182 0.09 7.3 6.48 9.51
6/12/2024 5:45:00 AM 13.95 57.11 0.09 7.3 1.39 9.53
6/12/2024 6:00:00 AM 13.91 57.038 0.09 7.3 1.41 9.55
6/12/2024 6:15:00 AM 13.87 56.966 0.09 7.3 1.57 9.58
6/12/2024 6:30:00 AM 13.84 56.912 0.09 7.31 1.3 9.62
6/12/2024 6:45:00 AM 13.81 56.858 0.09 7.31 1.34 9.65
6/12/2024 7:00:00 AM 13.78 56.804 0.09 7.33 1.11 9.69
6/12/2024 7:15:00 AM 13.76 56.768 0.089 7.33 1.09 9.75
6/12/2024 7:30:00 AM 13.77 56.786 0.09 7.35 1.15 9.83
6/12/2024 7:45:00 AM 13.79 56.822 0.089 7.35 1.11 9.91
6/12/2024 8:00:00 AM 13.8 56.84 0.09 7.37 1.14 9.95
6/12/2024 8:15:00 AM 13.8 56.84 0.089 7.38 1.06 9.96
6/12/2024 8:30:00 AM 13.81 56.858 0.089 7.39 1.07 10
6/12/2024 8:45:00 AM 13.83 56.894 0.089 7.4 1.89 10.03
6/12/2024 9:00:00 AM 13.9 57.02 0.089 7.41 1.15 10.08
6/12/2024 9:15:00 AM 14.01 57.218 0.089 7.42 1.03 10.12
6/12/2024 9:30:00 AM 14.25 57.65 0.089 7.43 0.92 10.13
6/12/2024 9:45:00 AM 14.47 58.046 0.089 7.44 0.95 10.11
6/12/2024 10:00:00 AM 14.64 58.352 0.089 7.44 0.95 10.08
6/12/2024 10:15:00 AM 14.82 58.676 0.089 7.45 0.87 10.05
6/12/2024 10:30:00 AM 15.01 59.018 0.089 7.45 0.93 10.02
6/12/2024 10:45:00 AM 15.26 59.468 0.089 7.45 0.94 9.99
6/12/2024 11:00:00 AM 15.57 60.026 0.089 7.46 0.89 9.96
6/12/2024 11:15:00 AM 15.72 60.296 0.089 7.46 1 9.91
6/12/2024 11:30:00 AM 15.85 60.53 0.089 7.46 0.91 9.88
6/12/2024 11:45:00 AM 16 60.8 0.088 7.46 1.06 9.85
6/12/2024 12:00:00 PM 16.34 61.412 0.088 7.47 0.82 9.84
6/12/2024 12:15:00 PM 16.55 61.79 0.088 7.47 0.88 9.8
6/12/2024 12:30:00 PM 16.88 62.384 0.088 7.48 0.86 9.75
6/12/2024 12:45:00 PM 17.18 62.924 0.088 7.48 0.81 9.7
6/12/2024 1:00:00 PM 17.44 63.392 0.089 7.48 0.81 9.63
6/12/2024 1:15:00 PM 17.73 63.914 0.088 7.49 0.84 9.57
6/12/2024 1:30:00 PM 18.04 64.472 0.088 7.49 0.89 9.51
6/12/2024 1:45:00 PM 18.38 65.084 0.088 7.49 1.24 9.46
6/12/2024 2:00:00 PM 18.79 65.82201 0.088 7.51 0.87 9.41
6/12/2024 2:15:00 PM 19.18 66.524 0.088 7.51 0.84 9.35
6/12/2024 2:30:00 PM 19.49 67.082 0.088 7.51 0.83 9.3
6/12/2024 2:45:00 PM 19.51 67.118 0.088 7.51 0.9 9.22
6/12/2024 3:00:00 PM 19.55 67.19 0.088 7.5 0.9 9.17
6/12/2024 3:15:00 PM 19.45 67.01 0.088 7.5 0.89 9.15
6/12/2024 3:30:00 PM 19.67 67.406 0.088 7.5 0.84 9.13
6/12/2024 3:45:00 PM 19.9 67.82 0.088 7.51 0.86 9.1
6/12/2024 4:00:00 PM 20.07 68.126 0.088 7.5 0.93 9.07
6/12/2024 4:15:00 PM 20.2 68.36 0.088 7.51 0.87 9.03
6/12/2024 4:30:00 PM 20.19 68.342 0.088 7.5 0.96 8.98
6/12/2024 4:45:00 PM 20.12 68.216 0.088 7.5 1.05 8.93
6/12/2024 5:00:00 PM 20.1 68.18 0.088 7.49 1.01 8.93
6/12/2024 5:15:00 PM 20.18 68.324 0.088 7.49 0.99 8.91
6/12/2024 5:30:00 PM 20.25 68.45 0.088 7.49 1 8.87
6/12/2024 5:45:00 PM 20.3 68.54 0.088 7.48 1.06 8.82
6/12/2024 6:00:00 PM 20.34 68.612 0.088 7.47 1.02 8.78
6/12/2024 6:15:00 PM 20.34 68.612 0.088 7.46 0.94 8.73
6/12/2024 6:30:00 PM 20.34 68.612 0.088 7.45 1.07 8.68
6/12/2024 6:45:00 PM 20.31 68.558 0.088 7.44 1.01 8.64
6/12/2024 7:00:00 PM 20.26 68.468 0.088 7.42 1.04 8.58
6/12/2024 7:15:00 PM 20.21 68.378 0.088 7.41 1.17 8.54
6/12/2024 7:30:00 PM 20.14 68.252 0.088 7.39 1.07 8.49
6/12/2024 7:45:00 PM 20.04 68.07201 0.088 7.38 0.96 8.45
6/12/2024 8:00:00 PM 19.96 67.92799 0.088 7.36 1.16 8.42
6/12/2024 8:15:00 PM 19.88 67.784 0.088 7.34 1.12 8.39
6/12/2024 8:30:00 PM 19.8 67.64 0.088 7.33 1.03 8.36
6/12/2024 8:45:00 PM 19.72 67.496 0.089 7.32 1.24 8.33
6/12/2024 9:00:00 PM 19.62 67.316 0.089 7.31 1.33 8.31
6/12/2024 9:15:00 PM 19.52 67.136 0.089 7.29 1.36 8.3
6/12/2024 9:30:00 PM 19.39 66.902 0.089 7.29 1.34 8.29
6/12/2024 9:45:00 PM 19.27 66.686 0.089 7.28 1.28 8.3
6/12/2024 10:00:00 PM 19.15 66.47 0.089 7.28 1.5 8.31
6/12/2024 10:15:00 PM 19.01 66.218 0.089 7.27 1.41 8.33
6/12/2024 10:30:00 PM 18.87 65.966 0.09 7.27 1.51 8.35
6/12/2024 10:45:00 PM 18.73 65.714 0.09 7.27 1.48 8.37
6/12/2024 11:00:00 PM 18.6 65.48 0.09 7.27 1.51 8.4
6/12/2024 11:15:00 PM 18.45 65.21 0.09 7.27 1.55 8.42
6/12/2024 11:30:00 PM 18.31 64.958 0.09 7.27 1.55 8.44
6/12/2024 11:45:00 PM 18.19 64.742 0.09 7.26 1.54 8.48
6/13/2024 12:00:00 AM 18.07 64.526 0.09 7.27 1.74 8.5
6/13/2024 12:15:00 AM 17.94 64.292 0.09 7.26 1.74 8.52
6/13/2024 12:30:00 AM 17.83 64.094 0.09 7.26 1.59 8.54
6/13/2024 12:45:00 AM 17.72 63.896 0.091 7.27 1.61 8.57
6/13/2024 1:00:00 AM 17.61 63.698 0.09 7.27 1.64 8.6
6/13/2024 1:15:00 AM 17.49 63.482 0.091 7.26 2.1 8.61
6/13/2024 1:30:00 AM 17.4 63.32 0.091 7.26 1.34 8.64
6/13/2024 1:45:00 AM 17.31 63.158 0.091 7.26 1.5 8.66
6/13/2024 2:00:00 AM 17.21 62.978 0.091 7.26 1.48 8.68
6/13/2024 2:15:00 AM 17.12 62.816 0.091 7.26 1.5 8.71
6/13/2024 2:30:00 AM 17.02 62.636 0.091 7.26 1.43 8.73
6/13/2024 2:45:00 AM 16.92 62.456 0.091 7.26 1.49 8.75
6/13/2024 3:00:00 AM 16.82 62.276 0.091 7.26 1.48 8.77
6/13/2024 3:15:00 AM 16.72 62.096 0.091 7.25 1.57 8.8
6/13/2024 3:30:00 AM 16.63 61.934 0.091 7.24 1.57 8.82
6/13/2024 3:45:00 AM 16.55 61.79 0.091 7.24 1.55 8.84
6/13/2024 4:00:00 AM 16.49 61.682 0.091 7.24 1.52 8.86
6/13/2024 4:15:00 AM 16.42 61.556 0.092 7.25 1.54 8.87
6/13/2024 4:30:00 AM 16.37 61.466 0.091 7.25 1.73 8.89
6/13/2024 4:45:00 AM 16.31 61.358 0.091 7.25 1.5 8.91
6/13/2024 5:00:00 AM 16.25 61.25 0.092 7.26 1.57 8.92
6/13/2024 5:15:00 AM 16.19 61.142 0.092 7.25 1.57 8.93
6/13/2024 5:30:00 AM 16.13 61.034 0.092 7.26 1.56 8.95
6/13/2024 5:45:00 AM 16.07 60.926 0.092 7.26 1.66 8.97
6/13/2024 6:00:00 AM 16.01 60.818 0.092 7.27 1.45 9
6/13/2024 6:15:00 AM 15.96 60.728 0.092 7.27 1.44 9.03
6/13/2024 6:30:00 AM 15.91 60.638 0.092 7.27 1.38 9.07
6/13/2024 6:45:00 AM 15.87 60.566 0.092 7.28 1.32 9.12
6/13/2024 7:00:00 AM 15.84 60.512 0.091 7.29 1.31 9.17
6/13/2024 7:15:00 AM 15.82 60.476 0.092 7.3 1.24 9.24
6/13/2024 7:30:00 AM 15.8 60.44 0.092 7.32 1.23 9.3
6/13/2024 7:45:00 AM 15.79 60.422 0.092 7.33 1.36 9.36
6/13/2024 8:00:00 AM 15.79 60.422 0.091 7.34 1.19 9.41
6/13/2024 8:15:00 AM 15.85 60.53 0.092 7.36 1.21 9.5
6/13/2024 8:30:00 AM 15.91 60.638 0.091 7.37 1.2 9.57
6/13/2024 8:45:00 AM 15.92 60.656 0.091 7.38 1.18 9.56
6/13/2024 9:00:00 AM 16.05 60.89 0.091 7.38 1.22 9.58
6/13/2024 9:15:00 AM 16.16 61.088 0.091 7.39 1.12 9.57
6/13/2024 9:30:00 AM 16.34 61.412 0.091 7.4 1.14 9.58
6/13/2024 9:45:00 AM 16.57 61.826 0.091 7.41 1.07 9.58
6/13/2024 10:00:00 AM 16.77 62.186 0.091 7.41 1.08 9.57
6/13/2024 10:15:00 AM 16.99 62.582 0.091 7.42 1.1 9.56
6/13/2024 10:30:00 AM 17.22 62.996 0.091 7.42 1.12 9.56
6/13/2024 10:45:00 AM 17.48 63.464 0.091 7.42 1.28 9.53
6/13/2024 11:00:00 AM 17.75 63.95 0.091 7.43 1.07 9.5
6/13/2024 11:15:00 AM 18.05 64.49 0.091 7.44 1.11 9.47
6/13/2024 11:30:00 AM 18.33 64.994 0.091 7.44 1.05 9.43
6/13/2024 11:45:00 AM 18.64 65.552 0.091 7.45 1.12 9.39
6/13/2024 12:00:00 PM 18.94 66.092 0.09 7.45 1 9.34
6/13/2024 12:15:00 PM 19.31 66.758 0.091 7.46 0.92 9.29
6/13/2024 12:30:00 PM 19.63 67.334 0.09 7.47 0.94 9.24
6/13/2024 12:45:00 PM 20.02 68.036 0.091 7.47 1.02 9.18
6/13/2024 1:00:00 PM 20.36 68.648 0.091 7.48 0.98 9.12
6/13/2024 1:15:00 PM 20.72 69.296 0.091 7.48 0.96 9.06
6/13/2024 1:30:00 PM 21.08 69.944 0.09 7.47 0.91 8.99
6/13/2024 1:45:00 PM 21.43 70.574 0.09 7.48 0.94 8.93
6/13/2024 2:00:00 PM 21.79 71.222 0.091 7.48 0.93 8.86
6/13/2024 2:15:00 PM 22.12 71.816 0.09 7.48 0.95 8.8
6/13/2024 2:30:00 PM 22.44 72.392 0.09 7.49 0.95 8.74
6/13/2024 2:45:00 PM 22.73 72.914 0.09 7.5 0.83 8.7
6/13/2024 3:00:00 PM 22.99 73.382 0.09 7.5 0.78 8.64
6/13/2024 3:15:00 PM 23.22 73.796 0.09 7.49 0.88 8.58
6/13/2024 3:30:00 PM 23.44 74.192 0.09 7.5 0.88 8.54
6/13/2024 3:45:00 PM 23.61 74.498 0.09 7.49 0.95 8.47
6/13/2024 4:00:00 PM 23.77 74.786 0.09 7.5 0.93 8.43
6/13/2024 4:15:00 PM 23.89 75.002 0.09 7.49 0.87 8.38
6/13/2024 4:30:00 PM 23.97 75.146 0.09 7.5 0.88 8.33
6/13/2024 4:45:00 PM 24.02 75.236 0.09 7.48 0.89 8.29
6/13/2024 5:00:00 PM 24 75.2 0.09 7.48 0.89 8.26
6/13/2024 5:15:00 PM 24.01 75.218 0.09 7.49 0.94 8.23
6/13/2024 5:30:00 PM 23.99 75.182 0.09 7.49 0.96 8.21
6/13/2024 5:45:00 PM 23.92 75.056 0.09 7.48 0.95 8.15
6/13/2024 6:00:00 PM 23.86 74.948 0.09 7.47 0.86 8.1
6/13/2024 6:15:00 PM 23.74 74.732 0.09 7.45 1 8.05
6/13/2024 6:30:00 PM 23.66 74.588 0.09 7.43 1.05 8
6/13/2024 6:45:00 PM 23.59 74.462 0.09 7.39 1.14 7.97
6/13/2024 7:00:00 PM 23.54 74.372 0.09 7.38 1.16 7.92
6/13/2024 7:15:00 PM 23.46 74.228 0.09 7.35 1.14 7.88
6/13/2024 7:30:00 PM 23.34 74.012 0.091 7.35 1.12 7.84
6/13/2024 7:45:00 PM 23.23 73.814 0.091 7.31 1.14 7.81
6/13/2024 8:00:00 PM 23.1 73.58 0.091 7.31 1.26 7.78
6/13/2024 8:15:00 PM 22.99 73.382 0.091 7.29 1.23 7.75
6/13/2024 8:30:00 PM 22.86 73.148 0.091 7.27 1.14 7.72
6/13/2024 8:45:00 PM 22.74 72.932 0.091 7.27 1.25 7.7
6/13/2024 9:00:00 PM 22.62 72.716 0.091 7.28 1.2 7.68
6/13/2024 9:15:00 PM 22.49 72.482 0.091 7.27 1.33 7.67
6/13/2024 9:30:00 PM 22.34 72.212 0.092 7.27 1.51 7.64
6/13/2024 9:45:00 PM 22.19 71.942 0.092 7.26 1.5 7.66
6/13/2024 10:00:00 PM 22.03 71.654 0.091 7.26 1.44 7.68
6/13/2024 10:15:00 PM 21.86 71.348 0.092 7.26 1.8 7.7
6/13/2024 10:30:00 PM 21.7 71.06 0.092 7.25 1.57 7.73
6/13/2024 10:45:00 PM 21.54 70.772 0.092 7.25 1.45 7.75
6/13/2024 11:00:00 PM 21.37 70.466 0.092 7.25 1.82 7.78
6/13/2024 11:15:00 PM 21.22 70.196 0.092 7.24 1.64 7.81
6/13/2024 11:30:00 PM 21.07 69.926 0.092 7.24 1.55 7.84
6/13/2024 11:45:00 PM 20.93 69.674 0.092 7.24 1.55 7.86
6/14/2024 12:00:00 AM 20.78 69.404 0.092 7.24 1.61 7.88
6/14/2024 12:15:00 AM 20.64 69.152 0.093 7.25 1.94 7.91
6/14/2024 12:30:00 AM 20.52 68.936 0.092 7.23 1.55 7.94
6/14/2024 12:45:00 AM 20.39 68.702 0.093 7.23 1.74 7.97
6/14/2024 1:00:00 AM 20.27 68.486 0.093 7.24 1.86 7.99
6/14/2024 1:15:00 AM 20.15 68.27 0.093 7.24 1.71 8.01
6/14/2024 1:30:00 AM 20.04 68.07201 0.093 7.24 1.63 8.04
6/14/2024 1:45:00 AM 19.93 67.874 0.093 7.24 1.66 8.06
6/14/2024 2:00:00 AM 19.83 67.694 0.093 7.24 1.58 8.07
6/14/2024 2:15:00 AM 19.75 67.55 0.093 7.23 1.81 8.1
6/14/2024 2:30:00 AM 19.63 67.334 0.093 7.23 1.7 8.13
6/14/2024 2:45:00 AM 19.53 67.154 0.093 7.24 1.68 8.15
6/14/2024 3:00:00 AM 19.44 66.992 0.093 7.24 1.83 8.17
6/14/2024 3:15:00 AM 19.36 66.848 0.093 7.23 1.9 8.18
6/14/2024 3:30:00 AM 19.27 66.686 0.093 7.23 1.67 8.2
6/14/2024 3:45:00 AM 19.2 66.56 0.093 7.24 1.62 8.22
6/14/2024 4:00:00 AM 19.13 66.434 0.093 7.25 1.8 8.24
6/14/2024 4:15:00 AM 19.06 66.308 0.093 7.25 1.61 8.25
6/14/2024 4:30:00 AM 18.99 66.182 0.093 7.25 1.52 8.27
6/14/2024 4:45:00 AM 18.91 66.038 0.093 7.25 1.75 8.28
6/14/2024 5:00:00 AM 18.84 65.912 0.094 7.24 1.88 8.3
6/14/2024 5:15:00 AM 18.76 65.768 0.093 7.25 1.87 8.32
6/14/2024 5:30:00 AM 18.7 65.66 0.094 7.23 1.94 8.33
6/14/2024 5:45:00 AM 18.63 65.534 0.094 7.23 1.83 8.36
6/14/2024 6:00:00 AM 18.57 65.426 0.094 7.24 2.07 8.39
6/14/2024 6:15:00 AM 18.51 65.318 0.094 7.25 1.99 8.43
6/14/2024 6:30:00 AM 18.47 65.246 0.093 7.26 1.65 8.47
6/14/2024 6:45:00 AM 18.43 65.174 0.094 7.26 1.53 8.54
6/14/2024 7:00:00 AM 18.4 65.12 0.093 7.28 1.88 8.61
6/14/2024 7:15:00 AM 18.38 65.084 0.094 7.29 2.04 8.69
6/14/2024 7:30:00 AM 18.36 65.048 0.093 7.31 1.76 8.76
6/14/2024 7:45:00 AM 18.37 65.066 0.093 7.32 1.63 8.82
6/14/2024 8:00:00 AM 18.36 65.048 0.093 7.33 1.58 8.87
6/14/2024 8:15:00 AM 18.44 65.192 0.093 7.34 1.47 8.94
6/14/2024 8:30:00 AM 18.51 65.318 0.093 7.36 1.52 9
6/14/2024 8:45:00 AM 18.57 65.426 0.093 7.37 1.56 9.05
6/14/2024 9:00:00 AM 18.62 65.516 0.093 7.39 1.35 9.09
6/14/2024 9:15:00 AM 18.7 65.66 0.093 7.4 1.6 9.1
6/14/2024 9:30:00 AM 18.78 65.804 0.093 7.41 1.5 9.13
6/14/2024 9:45:00 AM 18.89 66.002 0.093 7.42 1.42 9.14
6/14/2024 10:00:00 AM 18.98 66.164 0.093 7.43 1.43 9.15
6/14/2024 10:15:00 AM 19.09 66.362 0.092 7.44 1.37 9.18
6/14/2024 10:30:00 AM 19.22 66.596 0.093 7.46 1.31 9.18
6/14/2024 10:45:00 AM 19.28 66.704 0.092 7.46 1.36 9.18
6/14/2024 11:00:00 AM 19.41 66.938 0.092 7.47 1.39 9.19
6/14/2024 11:15:00 AM 19.54 67.172 0.092 7.49 1.38 9.2
6/14/2024 11:30:00 AM 19.66 67.388 0.092 7.5 1.3 9.19
6/14/2024 11:45:00 AM 19.88 67.784 0.092 7.51 1.42 9.18
6/14/2024 12:00:00 PM 20.07 68.126 0.092 7.52 1.34 9.17
6/14/2024 12:15:00 PM 20.08 68.144 0.092 7.52 1.41 9.05
6/14/2024 12:30:00 PM 19.99 67.982 0.092 7.48 1.53 8.86
6/14/2024 12:45:00 PM 19.83 67.694 0.091 7.42 2.07 8.68
6/14/2024 1:00:00 PM 19.67 67.406 0.091 7.39 1.66 8.57
6/14/2024 1:15:00 PM 19.58 67.244 0.091 7.35 1.7 8.54
6/14/2024 1:30:00 PM 19.52 67.136 0.091 7.34 1.48 8.52
6/14/2024 1:45:00 PM 19.53 67.154 0.091 7.35 1.59 8.61
6/14/2024 2:00:00 PM 19.65 67.37 0.091 7.38 1.52 8.76
6/14/2024 2:15:00 PM 20.11 68.198 0.091 7.41 1.46 8.86
6/14/2024 2:30:00 PM 20.69 69.242 0.091 7.44 1.37 8.91
6/14/2024 2:45:00 PM 21.28 70.304 0.091 7.45 1.41 8.87
6/14/2024 3:00:00 PM 21.78 71.204 0.091 7.45 1.43 8.81
6/14/2024 3:15:00 PM 22.1 71.78 0.091 7.46 1.56 8.75
6/14/2024 3:30:00 PM 22.31 72.158 0.091 7.47 1.61 8.71
6/14/2024 3:45:00 PM 22.51 72.518 0.091 7.48 1.48 8.68
6/14/2024 4:00:00 PM 22.62 72.716 0.091 7.48 1.43 8.67
6/14/2024 4:15:00 PM 22.7 72.86 0.091 7.49 1.4 8.63
6/14/2024 4:30:00 PM 22.58 72.644 0.091 7.49 1.27 8.59
6/14/2024 4:45:00 PM 22.52 72.536 0.091 7.47 1.44 8.54
6/14/2024 5:00:00 PM 22.51 72.518 0.091 7.47 1.46 8.51
6/14/2024 5:15:00 PM 22.53 72.554 0.09 7.45 1.45 8.49
6/14/2024 5:30:00 PM 22.57 72.626 0.091 7.45 1.39 8.42
6/14/2024 5:45:00 PM 22.6 72.68 0.091 7.44 1.45 8.4
6/14/2024 6:00:00 PM 22.56 72.608 0.09 7.44 1.41 8.36
6/14/2024 6:15:00 PM 22.47 72.446 0.09 7.43 1.37 8.29
6/14/2024 6:30:00 PM 22.43 72.374 0.09 7.42 1.35 8.27
6/14/2024 6:45:00 PM 22.43 72.374 0.091 7.42 1.69 8.28
6/14/2024 7:00:00 PM 22.42 72.356 0.09 7.42 1.55 8.25
6/14/2024 7:15:00 PM 22.37 72.266 0.09 7.41 1.35 8.18
6/14/2024 7:30:00 PM 22.24 72.032 0.091 7.39 1.43 8.1
6/14/2024 7:45:00 PM 22.1 71.78 0.091 7.37 1.67 8.05
6/14/2024 8:00:00 PM 21.94 71.492 0.091 7.36 1.42 8.02
6/14/2024 8:15:00 PM 21.8 71.24 0.091 7.34 1.51 7.99
6/14/2024 8:30:00 PM 21.67 71.006 0.091 7.33 1.46 7.97
6/14/2024 8:45:00 PM 21.54 70.772 0.091 7.32 1.49 7.94
6/14/2024 9:00:00 PM 21.42 70.556 0.091 7.31 1.81 7.92
6/14/2024 9:15:00 PM 21.29 70.32201 0.091 7.29 1.65 7.9
6/14/2024 9:30:00 PM 21.15 70.07 0.092 7.28 1.77 7.9
6/14/2024 9:45:00 PM 21.02 69.836 0.091 7.28 1.69 7.9
6/14/2024 10:00:00 PM 20.88 69.584 0.091 7.27 1.87 7.91
6/14/2024 10:15:00 PM 20.73 69.314 0.092 7.27 2.31 7.92
6/14/2024 10:30:00 PM 20.59 69.062 0.092 7.26 1.83 7.96
6/14/2024 10:45:00 PM 20.44 68.792 0.092 7.26 1.69 7.97
6/14/2024 11:00:00 PM 20.29 68.522 0.092 7.25 1.85 8.01
6/14/2024 11:15:00 PM 20.14 68.252 0.092 7.26 1.81 8.02
6/14/2024 11:30:00 PM 19.99 67.982 0.092 7.26 1.88 8.05
6/14/2024 11:45:00 PM 19.84 67.712 0.092 7.25 1.77 8.09
6/15/2024 12:00:00 AM 19.67 67.406 0.093 7.25 1.77 8.12
6/15/2024 12:15:00 AM 19.53 67.154 0.092 7.25 1.79 8.15
6/15/2024 12:30:00 AM 19.39 66.902 0.092 7.26 1.99 8.18
6/15/2024 12:45:00 AM 19.25 66.65 0.093 7.27 1.78 8.21
6/15/2024 1:00:00 AM 19.11 66.398 0.093 7.27 1.95 8.24
6/15/2024 1:15:00 AM 18.98 66.164 0.093 7.27 1.77 8.28
6/15/2024 1:30:00 AM 18.86 65.948 0.093 7.27 1.68 8.29
6/15/2024 1:45:00 AM 18.74 65.732 0.093 7.27 1.72 8.34
6/15/2024 2:00:00 AM 18.62 65.516 0.093 7.27 1.75 8.35
6/15/2024 2:15:00 AM 18.51 65.318 0.093 7.27 1.7 8.38
6/15/2024 2:30:00 AM 18.39 65.102 0.093 7.27 1.72 8.4
6/15/2024 2:45:00 AM 18.28 64.904 0.093 7.27 1.87 8.41
6/15/2024 3:00:00 AM 18.17 64.706 0.093 7.27 1.86 8.44
6/15/2024 3:15:00 AM 18.06 64.508 0.093 7.27 1.82 8.48
6/15/2024 3:30:00 AM 17.96 64.328 0.093 7.27 1.74 8.51
6/15/2024 3:45:00 AM 17.86 64.148 0.093 7.27 1.69 8.53
6/15/2024 4:00:00 AM 17.78 64.004 0.093 7.27 1.74 8.56
6/15/2024 4:15:00 AM 17.71 63.878 0.093 7.26 1.81 8.56
6/15/2024 4:30:00 AM 17.63 63.734 0.094 7.27 1.86 8.59
6/15/2024 4:45:00 AM 17.55 63.59 0.094 7.26 1.8 8.61
6/15/2024 5:00:00 AM 17.47 63.446 0.094 7.27 1.87 8.64
6/15/2024 5:15:00 AM 17.39 63.302 0.093 7.27 1.91 8.65
6/15/2024 5:30:00 AM 17.31 63.158 0.094 7.27 1.77 8.67
6/15/2024 5:45:00 AM 17.24 63.032 0.094 7.28 1.83 8.71
6/15/2024 6:00:00 AM 17.17 62.906 0.094 7.28 1.79 8.74
6/15/2024 6:15:00 AM 17.1 62.78 0.094 7.28 1.81 8.79
6/15/2024 6:30:00 AM 17.03 62.654 0.094 7.29 1.96 8.84
6/15/2024 6:45:00 AM 17 62.6 0.094 7.3 1.76 8.9
6/15/2024 7:00:00 AM 16.96 62.528 0.094 7.31 1.67 8.98
6/15/2024 7:15:00 AM 16.93 62.474 0.094 7.31 1.65 9.06
6/15/2024 7:30:00 AM 16.89 62.402 0.094 7.32 1.66 9.11
6/15/2024 7:45:00 AM 16.87 62.366 0.094 7.33 1.67 9.19
6/15/2024 8:00:00 AM 16.85 62.33 0.094 7.35 1.44 9.25
6/15/2024 8:15:00 AM 16.9 62.42 0.093 7.36 1.61 9.32
6/15/2024 8:30:00 AM 16.96 62.528 0.094 7.38 1.44 9.33
6/15/2024 8:45:00 AM 17.02 62.636 0.094 7.38 1.5 9.34
6/15/2024 9:00:00 AM 17.12 62.816 0.093 7.39 1.43 9.34
6/15/2024 9:15:00 AM 17.26 63.068 0.093 7.4 1.45 9.36
6/15/2024 9:30:00 AM 17.43 63.374 0.093 7.41 1.45 9.37
6/15/2024 9:45:00 AM 17.62 63.716 0.093 7.42 1.32 9.38
6/15/2024 10:00:00 AM 17.8 64.04 0.093 7.43 1.43 9.38
6/15/2024 10:15:00 AM 17.99 64.382 0.093 7.44 1.37 9.39
6/15/2024 10:30:00 AM 18.18 64.724 0.093 7.45 1.33 9.39
6/15/2024 10:45:00 AM 18.3 64.94 0.093 7.46 1.32 9.36
6/15/2024 11:00:00 AM 18.51 65.318 0.093 7.46 1.28 9.35
6/15/2024 11:15:00 AM 18.63 65.534 0.093 7.47 1.33 9.35
6/15/2024 11:30:00 AM 18.98 66.164 0.093 7.48 1.39 9.36
6/15/2024 11:45:00 AM 19.23 66.614 0.093 7.49 1.51 9.32
6/15/2024 12:00:00 PM 19.39 66.902 0.092 7.49 1.42 9.3
6/15/2024 12:15:00 PM 19.51 67.118 0.092 7.51 1.38 9.28
6/15/2024 12:30:00 PM 19.72 67.496 0.092 7.51 1.47 9.25
6/15/2024 12:45:00 PM 19.92 67.856 0.092 7.51 1.38 9.23
6/15/2024 1:00:00 PM 19.91 67.838 0.092 7.52 1.35 9.2
6/15/2024 1:15:00 PM 20.07 68.126 0.092 7.53 1.32 9.15
6/15/2024 1:30:00 PM 20.29 68.522 0.092 7.53 1.22 9.16
6/15/2024 1:45:00 PM 20.88 69.584 0.092 7.55 1.26 9.15
6/15/2024 2:00:00 PM 21.33 70.394 0.092 7.56 1.29 9.09
6/15/2024 2:15:00 PM 21.62 70.916 0.092 7.56 1.37 9.04
6/15/2024 2:30:00 PM 21.73 71.114 0.092 7.56 1.33 8.99
6/15/2024 2:45:00 PM 21.72 71.096 0.092 7.54 1.37 8.9
6/15/2024 3:00:00 PM 21.91 71.438 0.092 7.55 1.43 8.89
6/15/2024 3:15:00 PM 21.73 71.114 0.092 7.54 1.38 8.85
6/15/2024 3:30:00 PM 22.16 71.888 0.092 7.55 1.34 8.84
6/15/2024 3:45:00 PM 22.53 72.554 0.092 7.56 1.35 8.81
6/15/2024 4:00:00 PM 22.77 72.986 0.092 7.56 1.27 8.74
6/15/2024 4:15:00 PM 22.83 73.094 0.092 7.55 1.32 8.67
6/15/2024 4:30:00 PM 22.87 73.166 0.092 7.54 1.28 8.62
6/15/2024 4:45:00 PM 22.89 73.202 0.091 7.54 1.37 8.58
6/15/2024 5:00:00 PM 22.94 73.292 0.092 7.53 1.31 8.54
6/15/2024 5:15:00 PM 22.96 73.328 0.091 7.52 1.35 8.48
6/15/2024 5:30:00 PM 22.93 73.274 0.092 7.5 1.35 8.42
6/15/2024 5:45:00 PM 22.89 73.202 0.091 7.48 1.39 8.38
6/15/2024 6:00:00 PM 22.78 73.004 0.091 7.47 1.39 8.33
6/15/2024 6:15:00 PM 22.69 72.842 0.092 7.45 1.43 8.29
6/15/2024 6:30:00 PM 22.6 72.68 0.092 7.44 1.46 8.25
6/15/2024 6:45:00 PM 22.5 72.5 0.092 7.42 1.46 8.21
6/15/2024 7:00:00 PM 22.4 72.32 0.092 7.4 1.48 8.17
6/15/2024 7:15:00 PM 22.3 72.14 0.092 7.4 1.51 8.14
6/15/2024 7:30:00 PM 22.19 71.942 0.092 7.38 1.5 8.1
6/15/2024 7:45:00 PM 22.07 71.726 0.092 7.36 1.53 8.07
6/15/2024 8:00:00 PM 21.95 71.51 0.092 7.35 1.54 8.05
6/15/2024 8:15:00 PM 21.85 71.33 0.092 7.34 1.48 8.02
6/15/2024 8:30:00 PM 21.74 71.132 0.092 7.32 1.6 7.99
6/15/2024 8:45:00 PM 21.64 70.952 0.092 7.31 1.58 7.96
6/15/2024 9:00:00 PM 21.51 70.718 0.092 7.3 1.56 7.94
6/15/2024 9:15:00 PM 21.38 70.484 0.093 7.28 1.7 7.91
6/15/2024 9:30:00 PM 21.23 70.214 0.093 7.27 1.82 7.92
6/15/2024 9:45:00 PM 21.08 69.944 0.093 7.27 1.84 7.93
6/15/2024 10:00:00 PM 20.92 69.656 0.093 7.26 1.78 7.95
6/15/2024 10:15:00 PM 20.76 69.368 0.093 7.26 1.85 7.97
6/15/2024 10:30:00 PM 20.59 69.062 0.093 7.26 2.04 8
6/15/2024 10:45:00 PM 20.43 68.774 0.093 7.25 3.69 8.02
6/15/2024 11:00:00 PM 20.25 68.45 0.094 7.25 1.7 8.06
6/15/2024 11:15:00 PM 20.08 68.144 0.094 7.25 1.74 8.1
6/15/2024 11:30:00 PM 19.91 67.838 0.094 7.25 1.75 8.13
6/15/2024 11:45:00 PM 19.74 67.532 0.094 7.25 2.15 8.16
6/16/2024 12:00:00 AM 19.55 67.19 0.094 7.25 1.8 8.2
6/16/2024 12:15:00 AM 19.39 66.902 0.094 7.25 1.78 8.23
6/16/2024 12:30:00 AM 19.23 66.614 0.094 7.25 1.79 8.26
6/16/2024 12:45:00 AM 19.08 66.344 0.094 7.25 1.94 8.29
6/16/2024 1:00:00 AM 18.92 66.056 0.094 7.25 1.79 8.33
6/16/2024 1:15:00 AM 18.78 65.804 0.094 7.25 1.9 8.36
6/16/2024 1:30:00 AM 18.64 65.552 0.094 7.25 1.75 8.4
6/16/2024 1:45:00 AM 18.51 65.318 0.094 7.25 1.84 8.42
6/16/2024 2:00:00 AM 18.37 65.066 0.094 7.25 1.93 8.45
6/16/2024 2:15:00 AM 18.25 64.85 0.094 7.25 1.86 8.48
6/16/2024 2:30:00 AM 18.13 64.634 0.094 7.25 1.81 8.5
6/16/2024 2:45:00 AM 18 64.4 0.095 7.25 1.98 8.53
6/16/2024 3:00:00 AM 17.89 64.202 0.095 7.25 1.73 8.56
6/16/2024 3:15:00 AM 17.77 63.986 0.095 7.25 1.84 8.58
6/16/2024 3:30:00 AM 17.65 63.77 0.095 7.25 1.78 8.61
6/16/2024 3:45:00 AM 17.53 63.554 0.095 7.26 1.88 8.63
6/16/2024 4:00:00 AM 17.41 63.338 0.095 7.25 1.9 8.67
6/16/2024 4:15:00 AM 17.31 63.158 0.095 7.25 1.85 8.69
6/16/2024 4:30:00 AM 17.22 62.996 0.095 7.24 1.91 8.71
6/16/2024 4:45:00 AM 17.13 62.834 0.095 7.23 1.86 8.73
6/16/2024 5:00:00 AM 17.05 62.69 0.095 7.25 1.8 8.76
6/16/2024 5:15:00 AM 16.97 62.546 0.095 7.25 1.88 8.77
6/16/2024 5:30:00 AM 16.89 62.402 0.095 7.26 1.93 8.8
6/16/2024 5:45:00 AM 16.81 62.258 0.095 7.25 1.76 8.82
6/16/2024 6:00:00 AM 16.73 62.114 0.096 7.26 2.14 8.87
6/16/2024 6:15:00 AM 16.66 61.988 0.095 7.27 1.72 8.92
6/16/2024 6:30:00 AM 16.6 61.88 0.095 7.28 1.71 8.99
6/16/2024 6:45:00 AM 16.56 61.808 0.095 7.29 1.67 9.08
6/16/2024 7:00:00 AM 16.54 61.772 0.095 7.31 1.63 9.19
6/16/2024 7:15:00 AM 16.5 61.7 0.095 7.32 1.62 9.26
6/16/2024 7:30:00 AM 16.49 61.682 0.095 7.33 1.57 9.35
6/16/2024 7:45:00 AM 16.5 61.7 0.095 7.34 1.72 9.42
6/16/2024 8:00:00 AM 16.49 61.682 0.095 7.35 1.65 9.47
6/16/2024 8:15:00 AM 16.49 61.682 0.095 7.36 1.58 9.51
6/16/2024 8:30:00 AM 16.53 61.754 0.095 7.37 1.61 9.55
6/16/2024 8:45:00 AM 16.56 61.808 0.094 7.37 1.68 9.59
6/16/2024 9:00:00 AM 16.6 61.88 0.094 7.39 1.57 9.63
6/16/2024 9:15:00 AM 16.69 62.042 0.094 7.4 1.59 9.66
6/16/2024 9:30:00 AM 16.86 62.348 0.094 7.42 1.56 9.69
6/16/2024 9:45:00 AM 17.07 62.726 0.094 7.43 1.51 9.7
6/16/2024 10:00:00 AM 17.29 63.122 0.094 7.45 1.67 9.7
6/16/2024 10:15:00 AM 17.43 63.374 0.094 7.47 1.58 9.7
6/16/2024 10:30:00 AM 17.61 63.698 0.094 7.47 1.47 9.7
6/16/2024 10:45:00 AM 17.88 64.184 0.094 7.49 1.51 9.69
6/16/2024 11:00:00 AM 18.16 64.688 0.094 7.5 1.53 9.66
6/16/2024 11:15:00 AM 18.4 65.12 0.094 7.51 1.52 9.62
6/16/2024 11:30:00 AM 18.7 65.66 0.093 7.51 1.51 9.56
6/16/2024 11:45:00 AM 19.01 66.218 0.094 7.5 1.48 9.5
6/16/2024 12:00:00 PM 19.32 66.776 0.093 7.5 1.53 9.44
6/16/2024 12:15:00 PM 19.67 67.406 0.094 7.5 1.45 9.38
6/16/2024 12:30:00 PM 19.85 67.73 0.093 7.51 1.4 9.34
6/16/2024 12:45:00 PM 20.15 68.27 0.093 7.5 1.47 9.29
6/16/2024 1:00:00 PM 20.55 68.99 0.093 7.49 1.39 9.25
6/16/2024 1:15:00 PM 20.93 69.674 0.093 7.5 1.46 9.18
6/16/2024 1:30:00 PM 21.27 70.286 0.093 7.51 1.37 9.11
6/16/2024 1:45:00 PM 21.52 70.736 0.093 7.52 1.43 9.07
6/16/2024 2:00:00 PM 21.81 71.258 0.093 7.53 3.94 9.02
6/16/2024 2:15:00 PM 21.98 71.564 0.093 7.53 1.56 8.98
6/16/2024 2:30:00 PM 22.2 71.96 0.093 7.54 1.41 8.95
6/16/2024 2:45:00 PM 22.49 72.482 0.093 7.55 1.37 8.92
6/16/2024 3:00:00 PM 22.81 73.058 0.093 7.54 1.39 8.86
6/16/2024 3:15:00 PM 23.14 73.652 0.093 7.55 1.38 8.8
6/16/2024 3:30:00 PM 23.38 74.084 0.093 7.55 1.55 8.73
6/16/2024 3:45:00 PM 23.61 74.498 0.093 7.55 1.34 8.67
6/16/2024 4:00:00 PM 23.65 74.57 0.093 7.55 1.35 8.6
6/16/2024 4:15:00 PM 23.78 74.804 0.093 7.55 1.84 8.57
6/16/2024 4:30:00 PM 23.87 74.966 0.093 7.54 1.45 8.51
6/16/2024 4:45:00 PM 23.95 75.11 0.093 7.54 1.53 8.46
6/16/2024 5:00:00 PM 24.02 75.236 0.093 7.53 1.54 8.38
6/16/2024 5:15:00 PM 24.04 75.272 0.093 7.52 1.51 8.32
6/16/2024 5:30:00 PM 23.99 75.182 0.093 7.5 1.43 8.26
6/16/2024 5:45:00 PM 23.96 75.128 0.093 7.48 1.57 8.21
6/16/2024 6:00:00 PM 23.89 75.002 0.093 7.46 1.5 8.16
6/16/2024 6:15:00 PM 23.77 74.786 0.093 7.44 1.53 8.12
6/16/2024 6:30:00 PM 23.67 74.606 0.093 7.42 1.54 8.07
6/16/2024 6:45:00 PM 23.57 74.426 0.094 7.4 1.49 8.03
6/16/2024 7:00:00 PM 23.49 74.282 0.094 7.39 1.56 7.99
6/16/2024 7:15:00 PM 23.38 74.084 0.094 7.39 1.46 7.94
6/16/2024 7:30:00 PM 23.3 73.94 0.094 7.35 1.62 7.9
6/16/2024 7:45:00 PM 23.25 73.85 0.094 7.33 1.7 7.86
6/16/2024 8:00:00 PM 23.15 73.67 0.094 7.32 1.67 7.83
6/16/2024 8:15:00 PM 23.06 73.508 0.094 7.31 1.65 7.8
6/16/2024 8:30:00 PM 22.97 73.346 0.094 7.3 1.68 7.76
6/16/2024 8:45:00 PM 22.86 73.148 0.095 7.29 1.69 7.72
6/16/2024 9:00:00 PM 22.75 72.95 0.095 7.27 1.73 7.69
6/16/2024 9:15:00 PM 22.64 72.752 0.095 7.26 1.95 7.65
6/16/2024 9:30:00 PM 22.53 72.554 0.095 7.25 2 7.64
6/16/2024 9:45:00 PM 22.42 72.356 0.095 7.27 2.01 7.63
6/16/2024 10:00:00 PM 22.3 72.14 0.095 7.25 2.11 7.64
6/16/2024 10:15:00 PM 22.18 71.924 0.095 7.26 2.1 7.65
6/16/2024 10:30:00 PM 22.06 71.708 0.095 7.26 1.83 7.67
6/16/2024 10:45:00 PM 21.93 71.474 0.096 7.26 1.91 7.69
6/16/2024 11:00:00 PM 21.8 71.24 0.096 7.25 1.9 7.71
6/16/2024 11:15:00 PM 21.67 71.006 0.096 7.25 1.99 7.73
6/16/2024 11:30:00 PM 21.54 70.772 0.096 7.25 1.94 7.75
6/16/2024 11:45:00 PM 21.41 70.538 0.096 7.24 1.96 7.77
6/17/2024 12:00:00 AM 21.28 70.304 0.096 7.25 1.97 7.8
6/17/2024 12:15:00 AM 21.15 70.07 0.097 7.24 2.02 7.82
6/17/2024 12:30:00 AM 21.03 69.854 0.097 7.24 1.99 7.84
6/17/2024 12:45:00 AM 20.91 69.638 0.097 7.24 2.06 7.87
6/17/2024 1:00:00 AM 20.79 69.422 0.097 7.24 2.02 7.89
6/17/2024 1:15:00 AM 20.66 69.188 0.097 7.24 1.93 7.92
6/17/2024 1:30:00 AM 20.55 68.99 0.097 7.24 2.01 7.95
6/17/2024 1:45:00 AM 20.44 68.792 0.097 7.24 2.24 7.97
6/17/2024 2:00:00 AM 20.33 68.594 0.097 7.23 2.07 7.99
6/17/2024 2:15:00 AM 20.22 68.396 0.097 7.23 2.09 8.01
6/17/2024 2:30:00 AM 20.12 68.216 0.097 7.23 2.09 8.03
6/17/2024 2:45:00 AM 20.02 68.036 0.097 7.23 1.98 8.05
6/17/2024 3:00:00 AM 19.92 67.856 0.098 7.23 1.97 8.07
6/17/2024 3:15:00 AM 19.82 67.676 0.098 7.23 2.11 8.09
6/17/2024 3:30:00 AM 19.74 67.532 0.097 7.23 2.09 8.11
6/17/2024 3:45:00 AM 19.64 67.352 0.097 7.23 2.09 8.13
6/17/2024 4:00:00 AM 19.55 67.19 0.098 7.23 2.13 8.15
6/17/2024 4:15:00 AM 19.47 67.046 0.098 7.22 2.1 8.17
6/17/2024 4:30:00 AM 19.39 66.902 0.098 7.22 2.06 8.19
6/17/2024 4:45:00 AM 19.3 66.74 0.098 7.23 2.05 8.21
6/17/2024 5:00:00 AM 19.21 66.578 0.098 7.23 2.02 8.22
6/17/2024 5:15:00 AM 19.13 66.434 0.098 7.23 1.98 8.24
6/17/2024 5:30:00 AM 19.05 66.29 0.098 7.24 2.04 8.27
6/17/2024 5:45:00 AM 18.97 66.146 0.098 7.24 2.5 8.29
6/17/2024 6:00:00 AM 18.89 66.002 0.098 7.23 2.06 8.33
6/17/2024 6:15:00 AM 18.83 65.894 0.098 7.24 1.97 8.38
6/17/2024 6:30:00 AM 18.78 65.804 0.098 7.25 1.94 8.44
6/17/2024 6:45:00 AM 18.75 65.75 0.098 7.26 1.97 8.52
6/17/2024 7:00:00 AM 18.73 65.714 0.098 7.27 2.09 8.6
6/17/2024 7:15:00 AM 18.72 65.696 0.098 7.29 1.91 8.68
6/17/2024 7:30:00 AM 18.71 65.67799 0.098 7.3 2.04 8.75
6/17/2024 7:45:00 AM 18.74 65.732 0.097 7.31 1.84 8.83
6/17/2024 8:00:00 AM 18.8 65.84 0.098 7.33 1.92 8.9
6/17/2024 8:15:00 AM 18.86 65.948 0.098 7.34 1.99 8.96
6/17/2024 8:30:00 AM 18.89 66.002 0.097 7.35 1.69 8.97
6/17/2024 8:45:00 AM 18.92 66.056 0.097 7.36 1.78 9
6/17/2024 9:00:00 AM 19.05 66.29 0.097 7.37 1.68 9.04
6/17/2024 9:15:00 AM 19.23 66.614 0.097 7.38 1.7 9.07
6/17/2024 9:30:00 AM 19.43 66.974 0.097 7.39 1.73 9.1
6/17/2024 9:45:00 AM 19.66 67.388 0.097 7.41 1.68 9.12
6/17/2024 10:00:00 AM 19.85 67.73 0.098 7.42 1.86 9.14
6/17/2024 10:15:00 AM 20.13 68.234 0.097 7.44 1.97 9.17
6/17/2024 10:30:00 AM 20.34 68.612 0.097 7.46 1.69 9.15
6/17/2024 10:45:00 AM 20.63 69.134 0.097 7.47 1.69 9.14
6/17/2024 11:00:00 AM 20.91 69.638 0.097 7.48 1.68 9.12
6/17/2024 11:15:00 AM 21.22 70.196 0.097 7.45 1.65 9.08
6/17/2024 11:30:00 AM 21.47 70.646 0.097 7.49 1.69 9.04
6/17/2024 11:45:00 AM 21.79 71.222 0.096 7.5 1.73 9
6/17/2024 12:00:00 PM 22.1 71.78 0.096 7.51 1.65 8.97
6/17/2024 12:15:00 PM 22.43 72.374 0.096 7.52 1.66 8.92
6/17/2024 12:30:00 PM 22.76 72.968 0.096 7.53 1.57 8.89
6/17/2024 12:45:00 PM 23.1 73.58 0.096 7.54 1.62 8.84
6/17/2024 1:00:00 PM 23.4 74.12 0.096 7.54 1.66 8.8
6/17/2024 1:15:00 PM 23.71 74.67799 0.096 7.55 1.6 8.76
6/17/2024 1:30:00 PM 24.06 75.308 0.096 7.56 1.56 8.73
6/17/2024 1:45:00 PM 24.43 75.974 0.096 7.56 1.58 8.66
6/17/2024 2:00:00 PM 24.79 76.622 0.096 7.57 1.62 8.6
6/17/2024 2:15:00 PM 25.13 77.234 0.096 7.58 1.57 8.56
6/17/2024 2:30:00 PM 25.36 77.648 0.096 7.58 1.51 8.5
6/17/2024 2:45:00 PM 25.48 77.864 0.096 7.58 1.61 8.42
6/17/2024 3:00:00 PM 25.4 77.72 0.095 7.57 1.72 8.37
6/17/2024 3:15:00 PM 25.55 77.99 0.095 7.58 1.61 8.36
6/17/2024 3:30:00 PM 25.4 77.72 0.096 7.57 1.54 8.29
6/17/2024 3:45:00 PM 25.32 77.576 0.095 7.54 1.57 8.18
6/17/2024 4:00:00 PM 25.44 77.792 0.095 7.54 1.6 8.19
6/17/2024 4:15:00 PM 25.39 77.702 0.095 7.53 1.56 8.17
6/17/2024 4:30:00 PM 25.44 77.792 0.095 7.53 1.57 8.15
6/17/2024 4:45:00 PM 25.45 77.81 0.096 7.52 1.6 8.11
6/17/2024 5:00:00 PM 25.58 78.044 0.095 7.53 1.67 8.12
6/17/2024 5:15:00 PM 25.68 78.224 0.095 7.53 1.69 8.09
6/17/2024 5:30:00 PM 25.79 78.422 0.095 7.53 1.68 8.06
6/17/2024 5:45:00 PM 25.86 78.548 0.095 7.52 1.65 8
6/17/2024 6:00:00 PM 25.95 78.71 0.095 7.51 1.61 8
6/17/2024 6:15:00 PM 25.94 78.692 0.095 7.5 1.65 7.95
6/17/2024 6:30:00 PM 25.88 78.584 0.095 7.48 1.58 7.88
6/17/2024 6:45:00 PM 25.77 78.386 0.095 7.46 1.72 7.82
6/17/2024 7:00:00 PM 25.62 78.116 0.096 7.42 1.65 7.74
6/17/2024 7:15:00 PM 25.47 77.846 0.096 7.39 1.66 7.66
6/17/2024 7:30:00 PM 25.34 77.612 0.096 7.37 1.66 7.6
6/17/2024 7:45:00 PM 25.24 77.432 0.096 7.34 1.87 7.56
6/17/2024 8:00:00 PM 25.14 77.252 0.097 7.32 1.84 7.5
6/17/2024 8:15:00 PM 25.05 77.09 0.097 7.3 1.73 7.43
6/17/2024 8:30:00 PM 24.96 76.92799 0.097 7.29 1.81 7.39
6/17/2024 8:45:00 PM 24.85 76.73 0.097 7.28 1.89 7.35
6/17/2024 9:00:00 PM 24.73 76.514 0.097 7.27 1.79 7.32
6/17/2024 9:15:00 PM 24.62 76.316 0.097 7.26 1.97 7.3
6/17/2024 9:30:00 PM 24.51 76.118 0.097 7.25 1.94 7.29
6/17/2024 9:45:00 PM 24.41 75.938 0.098 7.24 2 7.28
6/17/2024 10:00:00 PM 24.31 75.758 0.098 7.24 2.16 7.28
6/17/2024 10:15:00 PM 24.2 75.56 0.098 7.2 2.09 7.29
6/17/2024 10:30:00 PM 24.08 75.344 0.098 7.2 2.07 7.31
6/17/2024 10:45:00 PM 23.97 75.146 0.098 7.21 2.08 7.32
6/17/2024 11:00:00 PM 23.85 74.93 0.098 7.2 2.39 7.34
6/17/2024 11:15:00 PM 23.72 74.696 0.099 7.21 2.08 7.35
6/17/2024 11:30:00 PM 23.61 74.498 0.099 7.21 2.11 7.37
6/17/2024 11:45:00 PM 23.49 74.282 0.099 7.21 2 7.4
6/18/2024 12:00:00 AM 23.38 74.084 0.099 7.21 2 7.42
6/18/2024 12:15:00 AM 23.26 73.868 0.099 7.21 2.06 7.44
6/18/2024 12:30:00 AM 23.14 73.652 0.099 7.22 2.08 7.46
6/18/2024 12:45:00 AM 23.02 73.436 0.099 7.19 2.11 7.48
6/18/2024 1:00:00 AM 22.91 73.238 0.099 7.21 2.14 7.5
6/18/2024 1:15:00 AM 22.8 73.04 0.099 7.21 2.15 7.53
6/18/2024 1:30:00 AM 22.69 72.842 0.099 7.21 2.08 7.54
6/18/2024 1:45:00 AM 22.59 72.662 0.099 7.21 2.19 7.57
6/18/2024 2:00:00 AM 22.48 72.464 0.099 7.2 2.18 7.59
6/18/2024 2:15:00 AM 22.38 72.284 0.099 7.21 2.15 7.61
6/18/2024 2:30:00 AM 22.29 72.122 0.1 7.2 2.06 7.62
6/18/2024 2:45:00 AM 22.21 71.978 0.1 7.21 2.14 7.64
6/18/2024 3:00:00 AM 22.14 71.852 0.1 7.2 2.13 7.66
6/18/2024 3:15:00 AM 22.07 71.726 0.1 7.19 1.97 7.67
6/18/2024 3:30:00 AM 22.01 71.618 0.1 7.19 2.12 7.69
6/18/2024 3:45:00 AM 21.96 71.528 0.1 7.2 2.19 7.71
6/18/2024 4:00:00 AM 21.9 71.42 0.1 7.21 2.12 7.72
6/18/2024 4:15:00 AM 21.86 71.348 0.1 7.23 2.09 7.73
6/18/2024 4:30:00 AM 21.8 71.24 0.1 7.23 2.07 7.74
6/18/2024 4:45:00 AM 21.75 71.15 0.1 7.23 2.14 7.75
6/18/2024 5:00:00 AM 21.7 71.06 0.1 7.23 2.14 7.77
6/18/2024 5:15:00 AM 21.65 70.97 0.1 7.23 2.21 7.77
6/18/2024 5:30:00 AM 21.59 70.862 0.1 7.23 2.31 7.79
6/18/2024 5:45:00 AM 21.54 70.772 0.1 7.2 2.33 7.81
6/18/2024 6:00:00 AM 21.5 70.7 0.1 7.2 2.3 7.83
6/18/2024 6:15:00 AM 21.46 70.628 0.1 7.2 2.19 7.86
6/18/2024 6:30:00 AM 21.43 70.574 0.1 7.22 2.1 7.91
6/18/2024 6:45:00 AM 21.39 70.502 0.1 7.23 2.03 7.97
6/18/2024 7:00:00 AM 21.38 70.484 0.1 7.24 1.98 8.04
6/18/2024 7:15:00 AM 21.36 70.448 0.1 7.25 2.01 8.1
6/18/2024 7:30:00 AM 21.35 70.43 0.1 7.26 2 8.18
6/18/2024 7:45:00 AM 21.36 70.448 0.1 7.28 1.95 8.28
6/18/2024 8:00:00 AM 21.38 70.484 0.1 7.3 2 8.37
6/18/2024 8:15:00 AM 21.42 70.556 0.1 7.32 1.91 8.48
6/18/2024 8:30:00 AM 21.48 70.664 0.1 7.34 2.72 8.59
6/18/2024 8:45:00 AM 21.55 70.79 0.1 7.37 2.14 8.66
6/18/2024 9:00:00 AM 21.61 70.898 0.1 7.39 2.02 8.7
6/18/2024 9:15:00 AM 21.66 70.988 0.099 7.4 1.99 8.74
6/18/2024 9:30:00 AM 21.73 71.114 0.099 7.42 2.06 8.77
6/18/2024 9:45:00 AM 21.82 71.276 0.099 7.43 1.9 8.8
6/18/2024 10:00:00 AM 21.94 71.492 0.099 7.44 1.96 8.84
6/18/2024 10:15:00 AM 22.1 71.78 0.099 7.46 1.95 8.86

These are provisional data and have not been subject to a quality assurance process, but rather are the raw data reported by the instrument.
H: value is above sensor operating range
L: value is below sensor operating range
Offline: station is not reporting data
NC: parameter is not collected at site

Data Availability & Limitations

Uncertainty and potential for error can be associated with environmental monitoring data. Provisional data have not been subject to a quality assurance process, but rather are the raw data reported by the instrument. Data users are cautioned to consider carefully the provisional nature of the information before using it for decisions that concern personal or public safety or the conduct of business that involves substantial monetary or operational consequences.

Approved data are currently available by request by emailing: [email protected]. Approved data have been subject to a quality assurance process to correct for equipment or fouling drift. Data recorded during equipment malfunctions have been removed.

View Historical Stations that have been discontinued.